<?xml version="1.0" encoding="UTF-8" standalone="no" ?>
<gpx xmlns="http://www.topografix.com/GPX/1/1" xmlns:xsi="http://www.w3.org/2001/XMLSchema-instance" xsi:schemaLocation="http://www.topografix.com/GPX/1/1 http://www.topografix.com/GPX/1/1/gpx.xsd" version="1.1" creator="VisuGPX - https://www.visugpx.com">
  <metadata>
    <name>Maudétour-en-Vexin / En pays d\'Arthies</name>
    <desc><![CDATA[Randonnée de 18 km en boucle à partir du parking de la Mairie de Maudétour-en-Vexin]]></desc>
  </metadata>
  <trk>
    <name><![CDATA[En Pays d'Arthies_R]]></name>
    <trkseg>
      <trkpt lat="49.10011" lon="1.77574">
        <ele>180.87</ele>
        <time>2015-03-01T08:16:58Z</time>
      </trkpt>
      <trkpt lat="49.10012" lon="1.77572">
        <ele>180.87</ele>
        <time>2015-03-01T08:16:59Z</time>
      </trkpt>
      <trkpt lat="49.09995" lon="1.77583">
        <ele>171.25</ele>
        <time>2015-03-01T08:40:10Z</time>
      </trkpt>
      <trkpt lat="49.09993" lon="1.77583">
        <ele>171.25</ele>
        <time>2015-03-01T08:40:12Z</time>
      </trkpt>
      <trkpt lat="49.09979" lon="1.77571">
        <ele>172.69</ele>
        <time>2015-03-01T08:40:26Z</time>
      </trkpt>
      <trkpt lat="49.09977" lon="1.77571">
        <ele>172.69</ele>
        <time>2015-03-01T08:40:28Z</time>
      </trkpt>
      <trkpt lat="49.0997" lon="1.77564">
        <ele>171.73</ele>
        <time>2015-03-01T08:40:37Z</time>
      </trkpt>
      <trkpt lat="49.09964" lon="1.77577">
        <ele>172.21</ele>
        <time>2015-03-01T08:40:50Z</time>
      </trkpt>
      <trkpt lat="49.09966" lon="1.77579">
        <ele>172.21</ele>
        <time>2015-03-01T08:40:53Z</time>
      </trkpt>
      <trkpt lat="49.09968" lon="1.77581">
        <ele>171.73</ele>
        <time>2015-03-01T08:41:07Z</time>
      </trkpt>
      <trkpt lat="49.09969" lon="1.77576">
        <ele>171.25</ele>
        <time>2015-03-01T08:41:23Z</time>
      </trkpt>
      <trkpt lat="49.09965" lon="1.77572">
        <ele>171.25</ele>
        <time>2015-03-01T08:41:35Z</time>
      </trkpt>
      <trkpt lat="49.09967" lon="1.77568">
        <ele>171.25</ele>
        <time>2015-03-01T08:41:45Z</time>
      </trkpt>
      <trkpt lat="49.09965" lon="1.77562">
        <ele>171.25</ele>
        <time>2015-03-01T08:41:50Z</time>
      </trkpt>
      <trkpt lat="49.0996" lon="1.77552">
        <ele>171.73</ele>
        <time>2015-03-01T08:41:57Z</time>
      </trkpt>
      <trkpt lat="49.09957" lon="1.77543">
        <ele>171.25</ele>
        <time>2015-03-01T08:42:02Z</time>
      </trkpt>
      <trkpt lat="49.0995" lon="1.77525">
        <ele>170.77</ele>
        <time>2015-03-01T08:42:16Z</time>
      </trkpt>
      <trkpt lat="49.09943" lon="1.77518">
        <ele>170.29</ele>
        <time>2015-03-01T08:42:23Z</time>
      </trkpt>
      <trkpt lat="49.09938" lon="1.77516">
        <ele>171.25</ele>
        <time>2015-03-01T08:42:27Z</time>
      </trkpt>
      <trkpt lat="49.09923" lon="1.77515">
        <ele>172.21</ele>
        <time>2015-03-01T08:42:40Z</time>
      </trkpt>
      <trkpt lat="49.09914" lon="1.77517">
        <ele>171.73</ele>
        <time>2015-03-01T08:42:48Z</time>
      </trkpt>
      <trkpt lat="49.09907" lon="1.77525">
        <ele>172.21</ele>
        <time>2015-03-01T08:42:57Z</time>
      </trkpt>
      <trkpt lat="49.09901" lon="1.77529">
        <ele>171.73</ele>
        <time>2015-03-01T08:43:03Z</time>
      </trkpt>
      <trkpt lat="49.09887" lon="1.77542">
        <ele>172.21</ele>
        <time>2015-03-01T08:43:17Z</time>
      </trkpt>
      <trkpt lat="49.09872" lon="1.7755">
        <ele>170.77</ele>
        <time>2015-03-01T08:43:32Z</time>
      </trkpt>
      <trkpt lat="49.09866" lon="1.77544">
        <ele>171.25</ele>
        <time>2015-03-01T08:43:42Z</time>
      </trkpt>
      <trkpt lat="49.0985" lon="1.77535">
        <ele>171.73</ele>
        <time>2015-03-01T08:43:56Z</time>
      </trkpt>
      <trkpt lat="49.0983" lon="1.77526">
        <ele>171.73</ele>
        <time>2015-03-01T08:44:13Z</time>
      </trkpt>
      <trkpt lat="49.09811" lon="1.77518">
        <ele>172.21</ele>
        <time>2015-03-01T08:44:31Z</time>
      </trkpt>
      <trkpt lat="49.09795" lon="1.77513">
        <ele>172.21</ele>
        <time>2015-03-01T08:44:49Z</time>
      </trkpt>
      <trkpt lat="49.09791" lon="1.77511">
        <ele>171.25</ele>
        <time>2015-03-01T08:44:53Z</time>
      </trkpt>
      <trkpt lat="49.09787" lon="1.77511">
        <ele>172.21</ele>
        <time>2015-03-01T08:44:56Z</time>
      </trkpt>
      <trkpt lat="49.09764" lon="1.77501">
        <ele>171.73</ele>
        <time>2015-03-01T08:45:15Z</time>
      </trkpt>
      <trkpt lat="49.09748" lon="1.7748">
        <ele>172.69</ele>
        <time>2015-03-01T08:45:33Z</time>
      </trkpt>
      <trkpt lat="49.0974" lon="1.77466">
        <ele>173.17</ele>
        <time>2015-03-01T08:45:43Z</time>
      </trkpt>
      <trkpt lat="49.09734" lon="1.77454">
        <ele>172.21</ele>
        <time>2015-03-01T08:45:54Z</time>
      </trkpt>
      <trkpt lat="49.09725" lon="1.77433">
        <ele>171.73</ele>
        <time>2015-03-01T08:46:09Z</time>
      </trkpt>
      <trkpt lat="49.09716" lon="1.77413">
        <ele>172.21</ele>
        <time>2015-03-01T08:46:23Z</time>
      </trkpt>
      <trkpt lat="49.09703" lon="1.77403">
        <ele>172.21</ele>
        <time>2015-03-01T08:46:38Z</time>
      </trkpt>
      <trkpt lat="49.0969" lon="1.77392">
        <ele>172.69</ele>
        <time>2015-03-01T08:46:52Z</time>
      </trkpt>
      <trkpt lat="49.09675" lon="1.7738">
        <ele>173.17</ele>
        <time>2015-03-01T08:47:09Z</time>
      </trkpt>
      <trkpt lat="49.09663" lon="1.7737">
        <ele>173.17</ele>
        <time>2015-03-01T08:47:22Z</time>
      </trkpt>
      <trkpt lat="49.09649" lon="1.77362">
        <ele>173.66</ele>
        <time>2015-03-01T08:47:35Z</time>
      </trkpt>
      <trkpt lat="49.09635" lon="1.7735">
        <ele>174.14</ele>
        <time>2015-03-01T08:47:50Z</time>
      </trkpt>
      <trkpt lat="49.09618" lon="1.77338">
        <ele>175.1</ele>
        <time>2015-03-01T08:48:06Z</time>
      </trkpt>
      <trkpt lat="49.09605" lon="1.77329">
        <ele>176.06</ele>
        <time>2015-03-01T08:48:21Z</time>
      </trkpt>
      <trkpt lat="49.0959" lon="1.77316">
        <ele>176.54</ele>
        <time>2015-03-01T08:48:36Z</time>
      </trkpt>
      <trkpt lat="49.09578" lon="1.77307">
        <ele>177.98</ele>
        <time>2015-03-01T08:48:49Z</time>
      </trkpt>
      <trkpt lat="49.09561" lon="1.77292">
        <ele>179.42</ele>
        <time>2015-03-01T08:49:06Z</time>
      </trkpt>
      <trkpt lat="49.09545" lon="1.77279">
        <ele>180.38</ele>
        <time>2015-03-01T08:49:23Z</time>
      </trkpt>
      <trkpt lat="49.09533" lon="1.7727">
        <ele>182.31</ele>
        <time>2015-03-01T08:49:36Z</time>
      </trkpt>
      <trkpt lat="49.09518" lon="1.7726">
        <ele>182.31</ele>
        <time>2015-03-01T08:49:51Z</time>
      </trkpt>
      <trkpt lat="49.0951" lon="1.77255">
        <ele>183.27</ele>
        <time>2015-03-01T08:49:58Z</time>
      </trkpt>
      <trkpt lat="49.09506" lon="1.77252">
        <ele>183.27</ele>
        <time>2015-03-01T08:50:02Z</time>
      </trkpt>
      <trkpt lat="49.09491" lon="1.77246">
        <ele>184.23</ele>
        <time>2015-03-01T08:50:18Z</time>
      </trkpt>
      <trkpt lat="49.09472" lon="1.7724">
        <ele>186.15</ele>
        <time>2015-03-01T08:50:35Z</time>
      </trkpt>
      <trkpt lat="49.09453" lon="1.77238">
        <ele>187.11</ele>
        <time>2015-03-01T08:50:52Z</time>
      </trkpt>
      <trkpt lat="49.09444" lon="1.77235">
        <ele>187.59</ele>
        <time>2015-03-01T08:51:00Z</time>
      </trkpt>
      <trkpt lat="49.09438" lon="1.7723">
        <ele>189.04</ele>
        <time>2015-03-01T08:51:07Z</time>
      </trkpt>
      <trkpt lat="49.09423" lon="1.77224">
        <ele>188.08</ele>
        <time>2015-03-01T08:51:20Z</time>
      </trkpt>
      <trkpt lat="49.09409" lon="1.77211">
        <ele>189.04</ele>
        <time>2015-03-01T08:51:34Z</time>
      </trkpt>
      <trkpt lat="49.094" lon="1.77199">
        <ele>190.96</ele>
        <time>2015-03-01T08:51:45Z</time>
      </trkpt>
      <trkpt lat="49.09392" lon="1.77185">
        <ele>190.48</ele>
        <time>2015-03-01T08:51:55Z</time>
      </trkpt>
      <trkpt lat="49.09387" lon="1.77172">
        <ele>191.92</ele>
        <time>2015-03-01T08:52:06Z</time>
      </trkpt>
      <trkpt lat="49.09382" lon="1.77154">
        <ele>190.96</ele>
        <time>2015-03-01T08:52:19Z</time>
      </trkpt>
      <trkpt lat="49.09379" lon="1.77141">
        <ele>193.36</ele>
        <time>2015-03-01T08:52:29Z</time>
      </trkpt>
      <trkpt lat="49.09375" lon="1.77127">
        <ele>193.36</ele>
        <time>2015-03-01T08:52:37Z</time>
      </trkpt>
      <trkpt lat="49.09372" lon="1.77099">
        <ele>193.36</ele>
        <time>2015-03-01T08:52:53Z</time>
      </trkpt>
      <trkpt lat="49.0937" lon="1.77092">
        <ele>194.32</ele>
        <time>2015-03-01T08:52:56Z</time>
      </trkpt>
      <trkpt lat="49.09365" lon="1.77073">
        <ele>194.32</ele>
        <time>2015-03-01T08:53:06Z</time>
      </trkpt>
      <trkpt lat="49.09362" lon="1.77045">
        <ele>196.25</ele>
        <time>2015-03-01T08:53:24Z</time>
      </trkpt>
      <trkpt lat="49.09358" lon="1.77015">
        <ele>197.21</ele>
        <time>2015-03-01T08:53:42Z</time>
      </trkpt>
      <trkpt lat="49.09355" lon="1.76992">
        <ele>198.17</ele>
        <time>2015-03-01T08:53:56Z</time>
      </trkpt>
      <trkpt lat="49.09355" lon="1.7699">
        <ele>198.17</ele>
        <time>2015-03-01T08:53:58Z</time>
      </trkpt>
      <trkpt lat="49.09348" lon="1.76968">
        <ele>198.65</ele>
        <time>2015-03-01T08:54:11Z</time>
      </trkpt>
      <trkpt lat="49.09343" lon="1.7696">
        <ele>198.65</ele>
        <time>2015-03-01T08:54:22Z</time>
      </trkpt>
      <trkpt lat="49.09346" lon="1.76963">
        <ele>198.65</ele>
        <time>2015-03-01T08:54:40Z</time>
      </trkpt>
      <trkpt lat="49.09344" lon="1.76965">
        <ele>198.65</ele>
        <time>2015-03-01T08:54:57Z</time>
      </trkpt>
      <trkpt lat="49.09341" lon="1.76967">
        <ele>198.17</ele>
        <time>2015-03-01T08:55:09Z</time>
      </trkpt>
      <trkpt lat="49.0934" lon="1.76966">
        <ele>198.65</ele>
        <time>2015-03-01T08:55:12Z</time>
      </trkpt>
      <trkpt lat="49.09335" lon="1.76954">
        <ele>199.13</ele>
        <time>2015-03-01T08:55:19Z</time>
      </trkpt>
      <trkpt lat="49.09321" lon="1.7694">
        <ele>200.09</ele>
        <time>2015-03-01T08:55:34Z</time>
      </trkpt>
      <trkpt lat="49.09315" lon="1.76939">
        <ele>201.05</ele>
        <time>2015-03-01T08:55:50Z</time>
      </trkpt>
      <trkpt lat="49.09317" lon="1.76941">
        <ele>200.57</ele>
        <time>2015-03-01T08:56:05Z</time>
      </trkpt>
      <trkpt lat="49.09335" lon="1.76963">
        <ele>198.17</ele>
        <time>2015-03-01T08:56:22Z</time>
      </trkpt>
      <trkpt lat="49.09339" lon="1.76968">
        <ele>198.17</ele>
        <time>2015-03-01T08:56:37Z</time>
      </trkpt>
      <trkpt lat="49.09345" lon="1.7697">
        <ele>198.65</ele>
        <time>2015-03-01T08:56:52Z</time>
      </trkpt>
      <trkpt lat="49.09344" lon="1.76965">
        <ele>197.69</ele>
        <time>2015-03-01T08:57:14Z</time>
      </trkpt>
      <trkpt lat="49.09343" lon="1.76963">
        <ele>198.17</ele>
        <time>2015-03-01T08:57:37Z</time>
      </trkpt>
      <trkpt lat="49.09346" lon="1.76961">
        <ele>198.17</ele>
        <time>2015-03-01T08:57:58Z</time>
      </trkpt>
      <trkpt lat="49.09345" lon="1.76958">
        <ele>198.17</ele>
        <time>2015-03-01T08:58:16Z</time>
      </trkpt>
      <trkpt lat="49.09345" lon="1.76955">
        <ele>198.17</ele>
        <time>2015-03-01T08:58:31Z</time>
      </trkpt>
      <trkpt lat="49.09342" lon="1.76946">
        <ele>198.17</ele>
        <time>2015-03-01T08:58:38Z</time>
      </trkpt>
      <trkpt lat="49.09333" lon="1.7692">
        <ele>198.65</ele>
        <time>2015-03-01T08:58:56Z</time>
      </trkpt>
      <trkpt lat="49.09327" lon="1.76904">
        <ele>198.65</ele>
        <time>2015-03-01T08:59:06Z</time>
      </trkpt>
      <trkpt lat="49.09326" lon="1.76898">
        <ele>198.65</ele>
        <time>2015-03-01T08:59:10Z</time>
      </trkpt>
      <trkpt lat="49.0932" lon="1.76881">
        <ele>200.09</ele>
        <time>2015-03-01T08:59:22Z</time>
      </trkpt>
      <trkpt lat="49.09308" lon="1.76859">
        <ele>199.13</ele>
        <time>2015-03-01T08:59:36Z</time>
      </trkpt>
      <trkpt lat="49.09298" lon="1.76834">
        <ele>199.61</ele>
        <time>2015-03-01T08:59:53Z</time>
      </trkpt>
      <trkpt lat="49.09286" lon="1.76805">
        <ele>199.13</ele>
        <time>2015-03-01T09:00:13Z</time>
      </trkpt>
      <trkpt lat="49.09276" lon="1.76778">
        <ele>199.61</ele>
        <time>2015-03-01T09:00:33Z</time>
      </trkpt>
      <trkpt lat="49.09271" lon="1.76758">
        <ele>199.13</ele>
        <time>2015-03-01T09:00:45Z</time>
      </trkpt>
      <trkpt lat="49.09261" lon="1.76732">
        <ele>200.09</ele>
        <time>2015-03-01T09:01:01Z</time>
      </trkpt>
      <trkpt lat="49.0926" lon="1.76729">
        <ele>200.09</ele>
        <time>2015-03-01T09:01:03Z</time>
      </trkpt>
      <trkpt lat="49.09249" lon="1.76701">
        <ele>200.09</ele>
        <time>2015-03-01T09:01:21Z</time>
      </trkpt>
      <trkpt lat="49.09239" lon="1.76674">
        <ele>200.09</ele>
        <time>2015-03-01T09:01:38Z</time>
      </trkpt>
      <trkpt lat="49.09232" lon="1.76658">
        <ele>200.09</ele>
        <time>2015-03-01T09:01:50Z</time>
      </trkpt>
      <trkpt lat="49.09221" lon="1.76639">
        <ele>200.09</ele>
        <time>2015-03-01T09:02:05Z</time>
      </trkpt>
      <trkpt lat="49.09212" lon="1.76609">
        <ele>199.13</ele>
        <time>2015-03-01T09:02:23Z</time>
      </trkpt>
      <trkpt lat="49.09206" lon="1.76583">
        <ele>199.13</ele>
        <time>2015-03-01T09:02:40Z</time>
      </trkpt>
      <trkpt lat="49.09199" lon="1.76554">
        <ele>199.61</ele>
        <time>2015-03-01T09:02:57Z</time>
      </trkpt>
      <trkpt lat="49.09187" lon="1.7652">
        <ele>198.65</ele>
        <time>2015-03-01T09:03:16Z</time>
      </trkpt>
      <trkpt lat="49.09181" lon="1.76497">
        <ele>198.65</ele>
        <time>2015-03-01T09:03:36Z</time>
      </trkpt>
      <trkpt lat="49.09175" lon="1.76484">
        <ele>198.65</ele>
        <time>2015-03-01T09:03:52Z</time>
      </trkpt>
      <trkpt lat="49.09172" lon="1.76467">
        <ele>198.65</ele>
        <time>2015-03-01T09:04:05Z</time>
      </trkpt>
      <trkpt lat="49.09166" lon="1.76446">
        <ele>197.69</ele>
        <time>2015-03-01T09:04:19Z</time>
      </trkpt>
      <trkpt lat="49.09166" lon="1.76437">
        <ele>197.69</ele>
        <time>2015-03-01T09:04:23Z</time>
      </trkpt>
      <trkpt lat="49.09161" lon="1.76424">
        <ele>198.17</ele>
        <time>2015-03-01T09:04:30Z</time>
      </trkpt>
      <trkpt lat="49.09152" lon="1.76398">
        <ele>198.17</ele>
        <time>2015-03-01T09:04:45Z</time>
      </trkpt>
      <trkpt lat="49.09144" lon="1.76367">
        <ele>197.69</ele>
        <time>2015-03-01T09:05:03Z</time>
      </trkpt>
      <trkpt lat="49.09132" lon="1.76338">
        <ele>197.69</ele>
        <time>2015-03-01T09:05:20Z</time>
      </trkpt>
      <trkpt lat="49.09124" lon="1.76317">
        <ele>198.17</ele>
        <time>2015-03-01T09:05:38Z</time>
      </trkpt>
      <trkpt lat="49.09119" lon="1.76311">
        <ele>198.17</ele>
        <time>2015-03-01T09:05:44Z</time>
      </trkpt>
      <trkpt lat="49.09117" lon="1.76314">
        <ele>197.69</ele>
        <time>2015-03-01T09:05:46Z</time>
      </trkpt>
      <trkpt lat="49.0911" lon="1.76315">
        <ele>197.69</ele>
        <time>2015-03-01T09:05:56Z</time>
      </trkpt>
      <trkpt lat="49.09107" lon="1.76313">
        <ele>198.17</ele>
        <time>2015-03-01T09:05:59Z</time>
      </trkpt>
      <trkpt lat="49.0909" lon="1.76309">
        <ele>198.17</ele>
        <time>2015-03-01T09:06:15Z</time>
      </trkpt>
      <trkpt lat="49.09073" lon="1.76305">
        <ele>198.65</ele>
        <time>2015-03-01T09:06:31Z</time>
      </trkpt>
      <trkpt lat="49.09057" lon="1.76303">
        <ele>199.13</ele>
        <time>2015-03-01T09:06:45Z</time>
      </trkpt>
      <trkpt lat="49.09054" lon="1.76302">
        <ele>199.13</ele>
        <time>2015-03-01T09:06:47Z</time>
      </trkpt>
      <trkpt lat="49.09039" lon="1.76299">
        <ele>199.61</ele>
        <time>2015-03-01T09:07:01Z</time>
      </trkpt>
      <trkpt lat="49.09022" lon="1.76298">
        <ele>200.57</ele>
        <time>2015-03-01T09:07:19Z</time>
      </trkpt>
      <trkpt lat="49.09004" lon="1.76296">
        <ele>200.57</ele>
        <time>2015-03-01T09:07:34Z</time>
      </trkpt>
      <trkpt lat="49.08986" lon="1.76294">
        <ele>201.05</ele>
        <time>2015-03-01T09:07:51Z</time>
      </trkpt>
      <trkpt lat="49.08981" lon="1.76282">
        <ele>200.57</ele>
        <time>2015-03-01T09:07:59Z</time>
      </trkpt>
      <trkpt lat="49.08983" lon="1.7626">
        <ele>201.05</ele>
        <time>2015-03-01T09:08:13Z</time>
      </trkpt>
      <trkpt lat="49.08984" lon="1.7624">
        <ele>202.01</ele>
        <time>2015-03-01T09:08:27Z</time>
      </trkpt>
      <trkpt lat="49.08984" lon="1.76238">
        <ele>202.01</ele>
        <time>2015-03-01T09:08:28Z</time>
      </trkpt>
      <trkpt lat="49.08983" lon="1.76208">
        <ele>202.01</ele>
        <time>2015-03-01T09:08:43Z</time>
      </trkpt>
      <trkpt lat="49.08989" lon="1.76192">
        <ele>202.01</ele>
        <time>2015-03-01T09:08:54Z</time>
      </trkpt>
      <trkpt lat="49.08991" lon="1.76179">
        <ele>202.01</ele>
        <time>2015-03-01T09:09:02Z</time>
      </trkpt>
      <trkpt lat="49.08992" lon="1.76165">
        <ele>202.01</ele>
        <time>2015-03-01T09:09:12Z</time>
      </trkpt>
      <trkpt lat="49.08993" lon="1.76161">
        <ele>202.49</ele>
        <time>2015-03-01T09:09:14Z</time>
      </trkpt>
      <trkpt lat="49.08991" lon="1.7614">
        <ele>202.49</ele>
        <time>2015-03-01T09:09:28Z</time>
      </trkpt>
      <trkpt lat="49.08991" lon="1.76121">
        <ele>202.01</ele>
        <time>2015-03-01T09:09:38Z</time>
      </trkpt>
      <trkpt lat="49.08992" lon="1.76109">
        <ele>202.49</ele>
        <time>2015-03-01T09:09:45Z</time>
      </trkpt>
      <trkpt lat="49.08975" lon="1.76099">
        <ele>202.49</ele>
        <time>2015-03-01T09:10:02Z</time>
      </trkpt>
      <trkpt lat="49.08961" lon="1.76099">
        <ele>202.49</ele>
        <time>2015-03-01T09:10:17Z</time>
      </trkpt>
      <trkpt lat="49.08946" lon="1.76092">
        <ele>202.98</ele>
        <time>2015-03-01T09:10:32Z</time>
      </trkpt>
      <trkpt lat="49.08935" lon="1.7609">
        <ele>202.98</ele>
        <time>2015-03-01T09:10:49Z</time>
      </trkpt>
      <trkpt lat="49.08929" lon="1.76092">
        <ele>202.98</ele>
        <time>2015-03-01T09:11:05Z</time>
      </trkpt>
      <trkpt lat="49.08915" lon="1.76088">
        <ele>202.49</ele>
        <time>2015-03-01T09:11:21Z</time>
      </trkpt>
      <trkpt lat="49.08903" lon="1.76088">
        <ele>202.49</ele>
        <time>2015-03-01T09:11:35Z</time>
      </trkpt>
      <trkpt lat="49.08885" lon="1.76085">
        <ele>202.49</ele>
        <time>2015-03-01T09:11:51Z</time>
      </trkpt>
      <trkpt lat="49.08867" lon="1.76085">
        <ele>201.53</ele>
        <time>2015-03-01T09:12:07Z</time>
      </trkpt>
      <trkpt lat="49.08852" lon="1.76084">
        <ele>202.01</ele>
        <time>2015-03-01T09:12:21Z</time>
      </trkpt>
      <trkpt lat="49.08833" lon="1.7608">
        <ele>202.01</ele>
        <time>2015-03-01T09:12:35Z</time>
      </trkpt>
      <trkpt lat="49.08817" lon="1.76074">
        <ele>202.01</ele>
        <time>2015-03-01T09:12:49Z</time>
      </trkpt>
      <trkpt lat="49.08813" lon="1.76073">
        <ele>201.53</ele>
        <time>2015-03-01T09:12:53Z</time>
      </trkpt>
      <trkpt lat="49.08796" lon="1.76063">
        <ele>201.05</ele>
        <time>2015-03-01T09:13:10Z</time>
      </trkpt>
      <trkpt lat="49.08781" lon="1.7606">
        <ele>201.05</ele>
        <time>2015-03-01T09:13:24Z</time>
      </trkpt>
      <trkpt lat="49.08768" lon="1.76061">
        <ele>200.09</ele>
        <time>2015-03-01T09:13:39Z</time>
      </trkpt>
      <trkpt lat="49.08754" lon="1.7606">
        <ele>200.09</ele>
        <time>2015-03-01T09:13:58Z</time>
      </trkpt>
      <trkpt lat="49.08739" lon="1.76074">
        <ele>199.61</ele>
        <time>2015-03-01T09:14:13Z</time>
      </trkpt>
      <trkpt lat="49.08737" lon="1.76079">
        <ele>199.61</ele>
        <time>2015-03-01T09:14:17Z</time>
      </trkpt>
      <trkpt lat="49.0873" lon="1.76094">
        <ele>199.61</ele>
        <time>2015-03-01T09:14:29Z</time>
      </trkpt>
      <trkpt lat="49.08729" lon="1.76099">
        <ele>199.61</ele>
        <time>2015-03-01T09:14:32Z</time>
      </trkpt>
      <trkpt lat="49.08721" lon="1.7612">
        <ele>199.61</ele>
        <time>2015-03-01T09:14:47Z</time>
      </trkpt>
      <trkpt lat="49.08716" lon="1.76145">
        <ele>199.13</ele>
        <time>2015-03-01T09:15:02Z</time>
      </trkpt>
      <trkpt lat="49.08714" lon="1.76166">
        <ele>198.65</ele>
        <time>2015-03-01T09:15:17Z</time>
      </trkpt>
      <trkpt lat="49.08712" lon="1.76184">
        <ele>198.65</ele>
        <time>2015-03-01T09:15:29Z</time>
      </trkpt>
      <trkpt lat="49.08708" lon="1.76201">
        <ele>198.65</ele>
        <time>2015-03-01T09:15:42Z</time>
      </trkpt>
      <trkpt lat="49.08702" lon="1.76215">
        <ele>198.17</ele>
        <time>2015-03-01T09:15:56Z</time>
      </trkpt>
      <trkpt lat="49.08699" lon="1.76219">
        <ele>198.17</ele>
        <time>2015-03-01T09:16:13Z</time>
      </trkpt>
      <trkpt lat="49.08697" lon="1.76222">
        <ele>197.21</ele>
        <time>2015-03-01T09:16:36Z</time>
      </trkpt>
      <trkpt lat="49.08695" lon="1.7624">
        <ele>198.17</ele>
        <time>2015-03-01T09:16:52Z</time>
      </trkpt>
      <trkpt lat="49.0869" lon="1.76253">
        <ele>197.21</ele>
        <time>2015-03-01T09:17:06Z</time>
      </trkpt>
      <trkpt lat="49.08686" lon="1.76279">
        <ele>197.21</ele>
        <time>2015-03-01T09:17:22Z</time>
      </trkpt>
      <trkpt lat="49.08687" lon="1.76293">
        <ele>197.21</ele>
        <time>2015-03-01T09:17:35Z</time>
      </trkpt>
      <trkpt lat="49.08686" lon="1.76311">
        <ele>196.73</ele>
        <time>2015-03-01T09:17:48Z</time>
      </trkpt>
      <trkpt lat="49.08687" lon="1.76331">
        <ele>196.73</ele>
        <time>2015-03-01T09:18:02Z</time>
      </trkpt>
      <trkpt lat="49.08687" lon="1.76346">
        <ele>197.21</ele>
        <time>2015-03-01T09:18:16Z</time>
      </trkpt>
      <trkpt lat="49.08681" lon="1.76365">
        <ele>196.25</ele>
        <time>2015-03-01T09:18:33Z</time>
      </trkpt>
      <trkpt lat="49.08676" lon="1.76398">
        <ele>196.25</ele>
        <time>2015-03-01T09:18:48Z</time>
      </trkpt>
      <trkpt lat="49.08676" lon="1.7641">
        <ele>196.73</ele>
        <time>2015-03-01T09:19:02Z</time>
      </trkpt>
      <trkpt lat="49.08678" lon="1.7641">
        <ele>196.73</ele>
        <time>2015-03-01T09:19:04Z</time>
      </trkpt>
      <trkpt lat="49.08679" lon="1.76413">
        <ele>196.73</ele>
        <time>2015-03-01T09:19:20Z</time>
      </trkpt>
      <trkpt lat="49.08687" lon="1.76428">
        <ele>196.25</ele>
        <time>2015-03-01T09:19:38Z</time>
      </trkpt>
      <trkpt lat="49.0869" lon="1.76441">
        <ele>195.77</ele>
        <time>2015-03-01T09:19:54Z</time>
      </trkpt>
      <trkpt lat="49.08694" lon="1.76451">
        <ele>196.73</ele>
        <time>2015-03-01T09:20:12Z</time>
      </trkpt>
      <trkpt lat="49.08702" lon="1.76467">
        <ele>196.73</ele>
        <time>2015-03-01T09:20:32Z</time>
      </trkpt>
      <trkpt lat="49.08705" lon="1.76486">
        <ele>197.21</ele>
        <time>2015-03-01T09:20:50Z</time>
      </trkpt>
      <trkpt lat="49.08708" lon="1.76499">
        <ele>196.73</ele>
        <time>2015-03-01T09:21:04Z</time>
      </trkpt>
      <trkpt lat="49.08709" lon="1.76502">
        <ele>197.21</ele>
        <time>2015-03-01T09:21:06Z</time>
      </trkpt>
      <trkpt lat="49.08714" lon="1.76529">
        <ele>197.69</ele>
        <time>2015-03-01T09:21:24Z</time>
      </trkpt>
      <trkpt lat="49.08714" lon="1.76555">
        <ele>197.21</ele>
        <time>2015-03-01T09:21:43Z</time>
      </trkpt>
      <trkpt lat="49.08718" lon="1.76575">
        <ele>196.73</ele>
        <time>2015-03-01T09:22:00Z</time>
      </trkpt>
      <trkpt lat="49.08712" lon="1.766">
        <ele>197.21</ele>
        <time>2015-03-01T09:22:16Z</time>
      </trkpt>
      <trkpt lat="49.08711" lon="1.76621">
        <ele>196.73</ele>
        <time>2015-03-01T09:22:31Z</time>
      </trkpt>
      <trkpt lat="49.08711" lon="1.76638">
        <ele>196.73</ele>
        <time>2015-03-01T09:22:46Z</time>
      </trkpt>
      <trkpt lat="49.08709" lon="1.76654">
        <ele>197.21</ele>
        <time>2015-03-01T09:23:01Z</time>
      </trkpt>
      <trkpt lat="49.0871" lon="1.76674">
        <ele>196.73</ele>
        <time>2015-03-01T09:23:18Z</time>
      </trkpt>
      <trkpt lat="49.0871" lon="1.76689">
        <ele>196.25</ele>
        <time>2015-03-01T09:23:32Z</time>
      </trkpt>
      <trkpt lat="49.08707" lon="1.76705">
        <ele>196.73</ele>
        <time>2015-03-01T09:23:48Z</time>
      </trkpt>
      <trkpt lat="49.08708" lon="1.76715">
        <ele>196.25</ele>
        <time>2015-03-01T09:23:54Z</time>
      </trkpt>
      <trkpt lat="49.08711" lon="1.76739">
        <ele>196.25</ele>
        <time>2015-03-01T09:24:09Z</time>
      </trkpt>
      <trkpt lat="49.08708" lon="1.76756">
        <ele>196.73</ele>
        <time>2015-03-01T09:24:26Z</time>
      </trkpt>
      <trkpt lat="49.08706" lon="1.76782">
        <ele>196.73</ele>
        <time>2015-03-01T09:24:45Z</time>
      </trkpt>
      <trkpt lat="49.0871" lon="1.76779">
        <ele>196.73</ele>
        <time>2015-03-01T09:25:06Z</time>
      </trkpt>
      <trkpt lat="49.08708" lon="1.76811">
        <ele>196.73</ele>
        <time>2015-03-01T09:25:25Z</time>
      </trkpt>
      <trkpt lat="49.0871" lon="1.76831">
        <ele>197.21</ele>
        <time>2015-03-01T09:25:40Z</time>
      </trkpt>
      <trkpt lat="49.08715" lon="1.7684">
        <ele>196.73</ele>
        <time>2015-03-01T09:25:57Z</time>
      </trkpt>
      <trkpt lat="49.08719" lon="1.76861">
        <ele>197.21</ele>
        <time>2015-03-01T09:26:10Z</time>
      </trkpt>
      <trkpt lat="49.08721" lon="1.76862">
        <ele>197.21</ele>
        <time>2015-03-01T09:26:24Z</time>
      </trkpt>
      <trkpt lat="49.08724" lon="1.76866">
        <ele>196.73</ele>
        <time>2015-03-01T09:26:46Z</time>
      </trkpt>
      <trkpt lat="49.08725" lon="1.76868">
        <ele>197.21</ele>
        <time>2015-03-01T09:27:06Z</time>
      </trkpt>
      <trkpt lat="49.08727" lon="1.76869">
        <ele>197.21</ele>
        <time>2015-03-01T09:27:26Z</time>
      </trkpt>
      <trkpt lat="49.08728" lon="1.76869">
        <ele>197.21</ele>
        <time>2015-03-01T09:27:55Z</time>
      </trkpt>
      <trkpt lat="49.08723" lon="1.76862">
        <ele>197.21</ele>
        <time>2015-03-01T09:28:15Z</time>
      </trkpt>
      <trkpt lat="49.08718" lon="1.7688">
        <ele>197.21</ele>
        <time>2015-03-01T09:28:30Z</time>
      </trkpt>
      <trkpt lat="49.08721" lon="1.76892">
        <ele>197.21</ele>
        <time>2015-03-01T09:28:45Z</time>
      </trkpt>
      <trkpt lat="49.0873" lon="1.76903">
        <ele>197.21</ele>
        <time>2015-03-01T09:28:58Z</time>
      </trkpt>
      <trkpt lat="49.08739" lon="1.76916">
        <ele>197.69</ele>
        <time>2015-03-01T09:29:13Z</time>
      </trkpt>
      <trkpt lat="49.08751" lon="1.76939">
        <ele>196.73</ele>
        <time>2015-03-01T09:29:29Z</time>
      </trkpt>
      <trkpt lat="49.0876" lon="1.76961">
        <ele>196.73</ele>
        <time>2015-03-01T09:29:45Z</time>
      </trkpt>
      <trkpt lat="49.08767" lon="1.76988">
        <ele>196.73</ele>
        <time>2015-03-01T09:30:01Z</time>
      </trkpt>
      <trkpt lat="49.08775" lon="1.77007">
        <ele>196.73</ele>
        <time>2015-03-01T09:30:16Z</time>
      </trkpt>
      <trkpt lat="49.08783" lon="1.77025">
        <ele>196.73</ele>
        <time>2015-03-01T09:30:30Z</time>
      </trkpt>
      <trkpt lat="49.08788" lon="1.77031">
        <ele>196.73</ele>
        <time>2015-03-01T09:30:49Z</time>
      </trkpt>
      <trkpt lat="49.08784" lon="1.77046">
        <ele>196.73</ele>
        <time>2015-03-01T09:31:05Z</time>
      </trkpt>
      <trkpt lat="49.08784" lon="1.77069">
        <ele>196.25</ele>
        <time>2015-03-01T09:31:18Z</time>
      </trkpt>
      <trkpt lat="49.08779" lon="1.77069">
        <ele>196.25</ele>
        <time>2015-03-01T09:31:30Z</time>
      </trkpt>
      <trkpt lat="49.08767" lon="1.77063">
        <ele>196.25</ele>
        <time>2015-03-01T09:31:42Z</time>
      </trkpt>
      <trkpt lat="49.0876" lon="1.77051">
        <ele>196.25</ele>
        <time>2015-03-01T09:32:00Z</time>
      </trkpt>
      <trkpt lat="49.08758" lon="1.77051">
        <ele>196.25</ele>
        <time>2015-03-01T09:32:18Z</time>
      </trkpt>
      <trkpt lat="49.08761" lon="1.77068">
        <ele>196.25</ele>
        <time>2015-03-01T09:32:38Z</time>
      </trkpt>
      <trkpt lat="49.08767" lon="1.77059">
        <ele>196.73</ele>
        <time>2015-03-01T09:33:08Z</time>
      </trkpt>
      <trkpt lat="49.0876" lon="1.77063">
        <ele>196.25</ele>
        <time>2015-03-01T09:33:34Z</time>
      </trkpt>
      <trkpt lat="49.0877" lon="1.7706">
        <ele>196.73</ele>
        <time>2015-03-01T09:34:03Z</time>
      </trkpt>
      <trkpt lat="49.08761" lon="1.77059">
        <ele>197.21</ele>
        <time>2015-03-01T09:34:20Z</time>
      </trkpt>
      <trkpt lat="49.08765" lon="1.77076">
        <ele>197.21</ele>
        <time>2015-03-01T09:34:36Z</time>
      </trkpt>
      <trkpt lat="49.08766" lon="1.77084">
        <ele>196.73</ele>
        <time>2015-03-01T09:34:54Z</time>
      </trkpt>
      <trkpt lat="49.08779" lon="1.77054">
        <ele>197.21</ele>
        <time>2015-03-01T09:35:08Z</time>
      </trkpt>
      <trkpt lat="49.0877" lon="1.77059">
        <ele>197.21</ele>
        <time>2015-03-01T09:35:25Z</time>
      </trkpt>
      <trkpt lat="49.08762" lon="1.77061">
        <ele>197.21</ele>
        <time>2015-03-01T09:35:43Z</time>
      </trkpt>
      <trkpt lat="49.08761" lon="1.77052">
        <ele>197.21</ele>
        <time>2015-03-01T09:36:02Z</time>
      </trkpt>
      <trkpt lat="49.08766" lon="1.77056">
        <ele>198.17</ele>
        <time>2015-03-01T09:36:13Z</time>
      </trkpt>
      <trkpt lat="49.08757" lon="1.77063">
        <ele>197.21</ele>
        <time>2015-03-01T09:36:38Z</time>
      </trkpt>
      <trkpt lat="49.08766" lon="1.77061">
        <ele>198.17</ele>
        <time>2015-03-01T09:36:58Z</time>
      </trkpt>
      <trkpt lat="49.08767" lon="1.7707">
        <ele>198.65</ele>
        <time>2015-03-01T09:37:32Z</time>
      </trkpt>
      <trkpt lat="49.08764" lon="1.77058">
        <ele>198.17</ele>
        <time>2015-03-01T09:37:57Z</time>
      </trkpt>
      <trkpt lat="49.08752" lon="1.77073">
        <ele>197.69</ele>
        <time>2015-03-01T09:38:12Z</time>
      </trkpt>
      <trkpt lat="49.08748" lon="1.77077">
        <ele>197.21</ele>
        <time>2015-03-01T09:38:27Z</time>
      </trkpt>
      <trkpt lat="49.08744" lon="1.77078">
        <ele>197.69</ele>
        <time>2015-03-01T09:38:39Z</time>
      </trkpt>
      <trkpt lat="49.08731" lon="1.77098">
        <ele>196.73</ele>
        <time>2015-03-01T09:38:55Z</time>
      </trkpt>
      <trkpt lat="49.0872" lon="1.77096">
        <ele>196.73</ele>
        <time>2015-03-01T09:39:09Z</time>
      </trkpt>
      <trkpt lat="49.08709" lon="1.77105">
        <ele>196.73</ele>
        <time>2015-03-01T09:39:25Z</time>
      </trkpt>
      <trkpt lat="49.08696" lon="1.7711">
        <ele>196.25</ele>
        <time>2015-03-01T09:39:38Z</time>
      </trkpt>
      <trkpt lat="49.08682" lon="1.7711">
        <ele>195.28</ele>
        <time>2015-03-01T09:39:52Z</time>
      </trkpt>
      <trkpt lat="49.08676" lon="1.77118">
        <ele>194.8</ele>
        <time>2015-03-01T09:40:08Z</time>
      </trkpt>
      <trkpt lat="49.08665" lon="1.77117">
        <ele>194.32</ele>
        <time>2015-03-01T09:40:31Z</time>
      </trkpt>
      <trkpt lat="49.08659" lon="1.77123">
        <ele>193.84</ele>
        <time>2015-03-01T09:40:44Z</time>
      </trkpt>
      <trkpt lat="49.08644" lon="1.77137">
        <ele>193.84</ele>
        <time>2015-03-01T09:41:00Z</time>
      </trkpt>
      <trkpt lat="49.08633" lon="1.7715">
        <ele>193.84</ele>
        <time>2015-03-01T09:41:14Z</time>
      </trkpt>
      <trkpt lat="49.08623" lon="1.77159">
        <ele>192.88</ele>
        <time>2015-03-01T09:41:25Z</time>
      </trkpt>
      <trkpt lat="49.08614" lon="1.77179">
        <ele>191.44</ele>
        <time>2015-03-01T09:41:40Z</time>
      </trkpt>
      <trkpt lat="49.08607" lon="1.77198">
        <ele>190</ele>
        <time>2015-03-01T09:41:56Z</time>
      </trkpt>
      <trkpt lat="49.08604" lon="1.77206">
        <ele>189.04</ele>
        <time>2015-03-01T09:42:15Z</time>
      </trkpt>
      <trkpt lat="49.086" lon="1.77232">
        <ele>186.63</ele>
        <time>2015-03-01T09:42:32Z</time>
      </trkpt>
      <trkpt lat="49.08598" lon="1.77246">
        <ele>185.19</ele>
        <time>2015-03-01T09:42:45Z</time>
      </trkpt>
      <trkpt lat="49.08594" lon="1.77267">
        <ele>183.27</ele>
        <time>2015-03-01T09:43:01Z</time>
      </trkpt>
      <trkpt lat="49.08587" lon="1.77285">
        <ele>181.35</ele>
        <time>2015-03-01T09:43:17Z</time>
      </trkpt>
      <trkpt lat="49.08576" lon="1.77303">
        <ele>179.9</ele>
        <time>2015-03-01T09:43:34Z</time>
      </trkpt>
      <trkpt lat="49.0856" lon="1.77313">
        <ele>178.46</ele>
        <time>2015-03-01T09:43:51Z</time>
      </trkpt>
      <trkpt lat="49.08546" lon="1.77317">
        <ele>177.02</ele>
        <time>2015-03-01T09:44:05Z</time>
      </trkpt>
      <trkpt lat="49.08533" lon="1.77329">
        <ele>176.06</ele>
        <time>2015-03-01T09:44:20Z</time>
      </trkpt>
      <trkpt lat="49.0852" lon="1.77334">
        <ele>175.1</ele>
        <time>2015-03-01T09:44:36Z</time>
      </trkpt>
      <trkpt lat="49.08505" lon="1.77338">
        <ele>173.66</ele>
        <time>2015-03-01T09:44:55Z</time>
      </trkpt>
      <trkpt lat="49.08495" lon="1.77342">
        <ele>172.69</ele>
        <time>2015-03-01T09:45:10Z</time>
      </trkpt>
      <trkpt lat="49.08491" lon="1.77341">
        <ele>172.69</ele>
        <time>2015-03-01T09:45:29Z</time>
      </trkpt>
      <trkpt lat="49.08492" lon="1.77334">
        <ele>172.21</ele>
        <time>2015-03-01T09:45:45Z</time>
      </trkpt>
      <trkpt lat="49.08491" lon="1.77348">
        <ele>172.21</ele>
        <time>2015-03-01T09:46:09Z</time>
      </trkpt>
      <trkpt lat="49.08487" lon="1.77347">
        <ele>172.21</ele>
        <time>2015-03-01T09:46:36Z</time>
      </trkpt>
      <trkpt lat="49.08487" lon="1.77342">
        <ele>172.69</ele>
        <time>2015-03-01T09:46:58Z</time>
      </trkpt>
      <trkpt lat="49.08497" lon="1.77341">
        <ele>173.17</ele>
        <time>2015-03-01T09:47:16Z</time>
      </trkpt>
      <trkpt lat="49.08492" lon="1.77343">
        <ele>173.17</ele>
        <time>2015-03-01T09:47:39Z</time>
      </trkpt>
      <trkpt lat="49.08482" lon="1.77349">
        <ele>172.21</ele>
        <time>2015-03-01T09:48:00Z</time>
      </trkpt>
      <trkpt lat="49.08476" lon="1.77364">
        <ele>170.77</ele>
        <time>2015-03-01T09:48:15Z</time>
      </trkpt>
      <trkpt lat="49.08467" lon="1.77384">
        <ele>167.89</ele>
        <time>2015-03-01T09:48:31Z</time>
      </trkpt>
      <trkpt lat="49.08457" lon="1.77401">
        <ele>166.45</ele>
        <time>2015-03-01T09:48:45Z</time>
      </trkpt>
      <trkpt lat="49.08448" lon="1.77412">
        <ele>165.48</ele>
        <time>2015-03-01T09:49:00Z</time>
      </trkpt>
      <trkpt lat="49.08435" lon="1.77428">
        <ele>164.52</ele>
        <time>2015-03-01T09:49:14Z</time>
      </trkpt>
      <trkpt lat="49.0843" lon="1.7744">
        <ele>163.56</ele>
        <time>2015-03-01T09:49:27Z</time>
      </trkpt>
      <trkpt lat="49.08421" lon="1.77456">
        <ele>163.08</ele>
        <time>2015-03-01T09:49:42Z</time>
      </trkpt>
      <trkpt lat="49.08421" lon="1.77463">
        <ele>163.08</ele>
        <time>2015-03-01T09:49:52Z</time>
      </trkpt>
      <trkpt lat="49.08419" lon="1.77464">
        <ele>163.08</ele>
        <time>2015-03-01T09:50:06Z</time>
      </trkpt>
      <trkpt lat="49.08424" lon="1.77458">
        <ele>163.08</ele>
        <time>2015-03-01T09:50:33Z</time>
      </trkpt>
      <trkpt lat="49.08422" lon="1.7748">
        <ele>163.08</ele>
        <time>2015-03-01T09:50:49Z</time>
      </trkpt>
      <trkpt lat="49.08409" lon="1.77491">
        <ele>161.64</ele>
        <time>2015-03-01T09:51:05Z</time>
      </trkpt>
      <trkpt lat="49.08407" lon="1.77492">
        <ele>161.64</ele>
        <time>2015-03-01T09:51:21Z</time>
      </trkpt>
      <trkpt lat="49.08397" lon="1.77496">
        <ele>160.68</ele>
        <time>2015-03-01T09:51:35Z</time>
      </trkpt>
      <trkpt lat="49.08391" lon="1.77484">
        <ele>160.68</ele>
        <time>2015-03-01T09:51:50Z</time>
      </trkpt>
      <trkpt lat="49.08381" lon="1.77476">
        <ele>160.2</ele>
        <time>2015-03-01T09:52:03Z</time>
      </trkpt>
      <trkpt lat="49.08367" lon="1.77484">
        <ele>159.24</ele>
        <time>2015-03-01T09:52:18Z</time>
      </trkpt>
      <trkpt lat="49.08355" lon="1.77487">
        <ele>159.24</ele>
        <time>2015-03-01T09:52:32Z</time>
      </trkpt>
      <trkpt lat="49.08356" lon="1.77491">
        <ele>159.24</ele>
        <time>2015-03-01T09:52:45Z</time>
      </trkpt>
      <trkpt lat="49.08353" lon="1.77491">
        <ele>159.24</ele>
        <time>2015-03-01T09:53:07Z</time>
      </trkpt>
      <trkpt lat="49.0835" lon="1.77502">
        <ele>159.24</ele>
        <time>2015-03-01T09:53:24Z</time>
      </trkpt>
      <trkpt lat="49.08343" lon="1.77499">
        <ele>158.75</ele>
        <time>2015-03-01T09:53:39Z</time>
      </trkpt>
      <trkpt lat="49.08341" lon="1.77496">
        <ele>159.24</ele>
        <time>2015-03-01T09:53:41Z</time>
      </trkpt>
      <trkpt lat="49.08331" lon="1.775">
        <ele>158.27</ele>
        <time>2015-03-01T09:53:54Z</time>
      </trkpt>
      <trkpt lat="49.08319" lon="1.77507">
        <ele>157.31</ele>
        <time>2015-03-01T09:54:10Z</time>
      </trkpt>
      <trkpt lat="49.08307" lon="1.77518">
        <ele>156.35</ele>
        <time>2015-03-01T09:54:25Z</time>
      </trkpt>
      <trkpt lat="49.08291" lon="1.77525">
        <ele>156.35</ele>
        <time>2015-03-01T09:54:42Z</time>
      </trkpt>
      <trkpt lat="49.08276" lon="1.7753">
        <ele>154.43</ele>
        <time>2015-03-01T09:55:00Z</time>
      </trkpt>
      <trkpt lat="49.08275" lon="1.77532">
        <ele>153.95</ele>
        <time>2015-03-01T09:55:18Z</time>
      </trkpt>
      <trkpt lat="49.08265" lon="1.77532">
        <ele>153.95</ele>
        <time>2015-03-01T09:55:39Z</time>
      </trkpt>
      <trkpt lat="49.08258" lon="1.77519">
        <ele>153.95</ele>
        <time>2015-03-01T09:55:56Z</time>
      </trkpt>
      <trkpt lat="49.0825" lon="1.77525">
        <ele>152.03</ele>
        <time>2015-03-01T09:56:14Z</time>
      </trkpt>
      <trkpt lat="49.08235" lon="1.77515">
        <ele>150.58</ele>
        <time>2015-03-01T09:56:31Z</time>
      </trkpt>
      <trkpt lat="49.08223" lon="1.77507">
        <ele>150.1</ele>
        <time>2015-03-01T09:56:46Z</time>
      </trkpt>
      <trkpt lat="49.08212" lon="1.77507">
        <ele>149.14</ele>
        <time>2015-03-01T09:56:58Z</time>
      </trkpt>
      <trkpt lat="49.08202" lon="1.77502">
        <ele>147.7</ele>
        <time>2015-03-01T09:57:14Z</time>
      </trkpt>
      <trkpt lat="49.08194" lon="1.77503">
        <ele>147.22</ele>
        <time>2015-03-01T09:57:33Z</time>
      </trkpt>
      <trkpt lat="49.08189" lon="1.77504">
        <ele>146.74</ele>
        <time>2015-03-01T09:57:47Z</time>
      </trkpt>
      <trkpt lat="49.08178" lon="1.77506">
        <ele>146.26</ele>
        <time>2015-03-01T09:58:00Z</time>
      </trkpt>
      <trkpt lat="49.08179" lon="1.77502">
        <ele>146.26</ele>
        <time>2015-03-01T09:58:13Z</time>
      </trkpt>
      <trkpt lat="49.08179" lon="1.77497">
        <ele>146.26</ele>
        <time>2015-03-01T09:58:30Z</time>
      </trkpt>
      <trkpt lat="49.08172" lon="1.77494">
        <ele>146.26</ele>
        <time>2015-03-01T09:58:47Z</time>
      </trkpt>
      <trkpt lat="49.08171" lon="1.775">
        <ele>146.74</ele>
        <time>2015-03-01T09:58:59Z</time>
      </trkpt>
      <trkpt lat="49.08175" lon="1.77498">
        <ele>146.74</ele>
        <time>2015-03-01T09:59:14Z</time>
      </trkpt>
      <trkpt lat="49.08172" lon="1.77496">
        <ele>146.74</ele>
        <time>2015-03-01T09:59:30Z</time>
      </trkpt>
      <trkpt lat="49.08172" lon="1.77496">
        <ele>146.74</ele>
        <time>2015-03-01T09:59:52Z</time>
      </trkpt>
      <trkpt lat="49.08168" lon="1.77501">
        <ele>147.22</ele>
        <time>2015-03-01T10:00:06Z</time>
      </trkpt>
      <trkpt lat="49.08163" lon="1.77501">
        <ele>146.74</ele>
        <time>2015-03-01T10:00:15Z</time>
      </trkpt>
      <trkpt lat="49.08155" lon="1.77494">
        <ele>147.22</ele>
        <time>2015-03-01T10:00:28Z</time>
      </trkpt>
      <trkpt lat="49.08146" lon="1.77492">
        <ele>147.7</ele>
        <time>2015-03-01T10:00:41Z</time>
      </trkpt>
      <trkpt lat="49.08144" lon="1.77496">
        <ele>148.18</ele>
        <time>2015-03-01T10:00:53Z</time>
      </trkpt>
      <trkpt lat="49.08145" lon="1.77498">
        <ele>147.7</ele>
        <time>2015-03-01T10:01:13Z</time>
      </trkpt>
      <trkpt lat="49.08144" lon="1.775">
        <ele>148.18</ele>
        <time>2015-03-01T10:01:35Z</time>
      </trkpt>
      <trkpt lat="49.08144" lon="1.77492">
        <ele>148.18</ele>
        <time>2015-03-01T10:01:59Z</time>
      </trkpt>
      <trkpt lat="49.08144" lon="1.77493">
        <ele>148.18</ele>
        <time>2015-03-01T10:02:25Z</time>
      </trkpt>
      <trkpt lat="49.08145" lon="1.77495">
        <ele>148.18</ele>
        <time>2015-03-01T10:02:50Z</time>
      </trkpt>
      <trkpt lat="49.08147" lon="1.77498">
        <ele>148.18</ele>
        <time>2015-03-01T10:03:18Z</time>
      </trkpt>
      <trkpt lat="49.08149" lon="1.77491">
        <ele>148.18</ele>
        <time>2015-03-01T10:03:43Z</time>
      </trkpt>
      <trkpt lat="49.08144" lon="1.77492">
        <ele>147.7</ele>
        <time>2015-03-01T10:04:02Z</time>
      </trkpt>
      <trkpt lat="49.08144" lon="1.7749">
        <ele>148.18</ele>
        <time>2015-03-01T10:04:13Z</time>
      </trkpt>
      <trkpt lat="49.08139" lon="1.77489">
        <ele>148.18</ele>
        <time>2015-03-01T10:04:34Z</time>
      </trkpt>
      <trkpt lat="49.08136" lon="1.77488">
        <ele>148.18</ele>
        <time>2015-03-01T10:04:43Z</time>
      </trkpt>
      <trkpt lat="49.08131" lon="1.77485">
        <ele>148.66</ele>
        <time>2015-03-01T10:04:50Z</time>
      </trkpt>
      <trkpt lat="49.0812" lon="1.77485">
        <ele>149.62</ele>
        <time>2015-03-01T10:05:04Z</time>
      </trkpt>
      <trkpt lat="49.08116" lon="1.77485">
        <ele>150.1</ele>
        <time>2015-03-01T10:05:08Z</time>
      </trkpt>
      <trkpt lat="49.0811" lon="1.77482">
        <ele>150.58</ele>
        <time>2015-03-01T10:05:15Z</time>
      </trkpt>
      <trkpt lat="49.08093" lon="1.77479">
        <ele>151.06</ele>
        <time>2015-03-01T10:05:30Z</time>
      </trkpt>
      <trkpt lat="49.0808" lon="1.77474">
        <ele>152.51</ele>
        <time>2015-03-01T10:05:44Z</time>
      </trkpt>
      <trkpt lat="49.08076" lon="1.77472">
        <ele>152.99</ele>
        <time>2015-03-01T10:05:55Z</time>
      </trkpt>
      <trkpt lat="49.08065" lon="1.77471">
        <ele>153.47</ele>
        <time>2015-03-01T10:06:07Z</time>
      </trkpt>
      <trkpt lat="49.08061" lon="1.77468">
        <ele>153.47</ele>
        <time>2015-03-01T10:06:11Z</time>
      </trkpt>
      <trkpt lat="49.08054" lon="1.77467">
        <ele>152.99</ele>
        <time>2015-03-01T10:06:21Z</time>
      </trkpt>
      <trkpt lat="49.0805" lon="1.77467">
        <ele>152.99</ele>
        <time>2015-03-01T10:06:24Z</time>
      </trkpt>
      <trkpt lat="49.08048" lon="1.77466">
        <ele>152.99</ele>
        <time>2015-03-01T10:06:26Z</time>
      </trkpt>
      <trkpt lat="49.08045" lon="1.77466">
        <ele>152.99</ele>
        <time>2015-03-01T10:06:31Z</time>
      </trkpt>
      <trkpt lat="49.08039" lon="1.77464">
        <ele>152.99</ele>
        <time>2015-03-01T10:06:37Z</time>
      </trkpt>
      <trkpt lat="49.08035" lon="1.77465">
        <ele>152.99</ele>
        <time>2015-03-01T10:06:41Z</time>
      </trkpt>
      <trkpt lat="49.08022" lon="1.77458">
        <ele>152.51</ele>
        <time>2015-03-01T10:06:56Z</time>
      </trkpt>
      <trkpt lat="49.08012" lon="1.77454">
        <ele>151.54</ele>
        <time>2015-03-01T10:07:09Z</time>
      </trkpt>
      <trkpt lat="49.08011" lon="1.77454">
        <ele>152.51</ele>
        <time>2015-03-01T10:07:24Z</time>
      </trkpt>
      <trkpt lat="49.08006" lon="1.77449">
        <ele>152.99</ele>
        <time>2015-03-01T10:07:34Z</time>
      </trkpt>
      <trkpt lat="49.08003" lon="1.77447">
        <ele>151.06</ele>
        <time>2015-03-01T10:07:38Z</time>
      </trkpt>
      <trkpt lat="49.07997" lon="1.77443">
        <ele>152.99</ele>
        <time>2015-03-01T10:07:49Z</time>
      </trkpt>
      <trkpt lat="49.0799" lon="1.77436">
        <ele>152.03</ele>
        <time>2015-03-01T10:08:03Z</time>
      </trkpt>
      <trkpt lat="49.07982" lon="1.77429">
        <ele>152.99</ele>
        <time>2015-03-01T10:08:14Z</time>
      </trkpt>
      <trkpt lat="49.07973" lon="1.77418">
        <ele>153.95</ele>
        <time>2015-03-01T10:08:27Z</time>
      </trkpt>
      <trkpt lat="49.07971" lon="1.77416">
        <ele>153.95</ele>
        <time>2015-03-01T10:08:29Z</time>
      </trkpt>
      <trkpt lat="49.07966" lon="1.77407">
        <ele>154.43</ele>
        <time>2015-03-01T10:08:41Z</time>
      </trkpt>
      <trkpt lat="49.07958" lon="1.77398">
        <ele>154.91</ele>
        <time>2015-03-01T10:08:54Z</time>
      </trkpt>
      <trkpt lat="49.07947" lon="1.77388">
        <ele>156.35</ele>
        <time>2015-03-01T10:09:08Z</time>
      </trkpt>
      <trkpt lat="49.07937" lon="1.77377">
        <ele>156.35</ele>
        <time>2015-03-01T10:09:20Z</time>
      </trkpt>
      <trkpt lat="49.07927" lon="1.77365">
        <ele>157.31</ele>
        <time>2015-03-01T10:09:33Z</time>
      </trkpt>
      <trkpt lat="49.07914" lon="1.77349">
        <ele>157.79</ele>
        <time>2015-03-01T10:09:47Z</time>
      </trkpt>
      <trkpt lat="49.07901" lon="1.77334">
        <ele>158.27</ele>
        <time>2015-03-01T10:10:02Z</time>
      </trkpt>
      <trkpt lat="49.07891" lon="1.7732">
        <ele>158.27</ele>
        <time>2015-03-01T10:10:15Z</time>
      </trkpt>
      <trkpt lat="49.0788" lon="1.77309">
        <ele>158.27</ele>
        <time>2015-03-01T10:10:28Z</time>
      </trkpt>
      <trkpt lat="49.07871" lon="1.77295">
        <ele>157.79</ele>
        <time>2015-03-01T10:10:42Z</time>
      </trkpt>
      <trkpt lat="49.07869" lon="1.77293">
        <ele>157.79</ele>
        <time>2015-03-01T10:10:44Z</time>
      </trkpt>
      <trkpt lat="49.07854" lon="1.7728">
        <ele>157.31</ele>
        <time>2015-03-01T10:10:59Z</time>
      </trkpt>
      <trkpt lat="49.07851" lon="1.77277">
        <ele>157.31</ele>
        <time>2015-03-01T10:11:02Z</time>
      </trkpt>
      <trkpt lat="49.07837" lon="1.77261">
        <ele>156.83</ele>
        <time>2015-03-01T10:11:16Z</time>
      </trkpt>
      <trkpt lat="49.07828" lon="1.77254">
        <ele>156.35</ele>
        <time>2015-03-01T10:11:29Z</time>
      </trkpt>
      <trkpt lat="49.07812" lon="1.77239">
        <ele>154.91</ele>
        <time>2015-03-01T10:11:42Z</time>
      </trkpt>
      <trkpt lat="49.07802" lon="1.7723">
        <ele>153.47</ele>
        <time>2015-03-01T10:11:54Z</time>
      </trkpt>
      <trkpt lat="49.07797" lon="1.77225">
        <ele>152.99</ele>
        <time>2015-03-01T10:12:01Z</time>
      </trkpt>
      <trkpt lat="49.07783" lon="1.77212">
        <ele>152.99</ele>
        <time>2015-03-01T10:12:16Z</time>
      </trkpt>
      <trkpt lat="49.07772" lon="1.77198">
        <ele>153.47</ele>
        <time>2015-03-01T10:12:28Z</time>
      </trkpt>
      <trkpt lat="49.07759" lon="1.77186">
        <ele>152.99</ele>
        <time>2015-03-01T10:12:44Z</time>
      </trkpt>
      <trkpt lat="49.07748" lon="1.77175">
        <ele>152.99</ele>
        <time>2015-03-01T10:12:58Z</time>
      </trkpt>
      <trkpt lat="49.07744" lon="1.77172">
        <ele>153.95</ele>
        <time>2015-03-01T10:13:11Z</time>
      </trkpt>
      <trkpt lat="49.07738" lon="1.77169">
        <ele>153.47</ele>
        <time>2015-03-01T10:13:36Z</time>
      </trkpt>
      <trkpt lat="49.07732" lon="1.77161">
        <ele>153.95</ele>
        <time>2015-03-01T10:13:40Z</time>
      </trkpt>
      <trkpt lat="49.07718" lon="1.77142">
        <ele>153.47</ele>
        <time>2015-03-01T10:13:56Z</time>
      </trkpt>
      <trkpt lat="49.07717" lon="1.77141">
        <ele>153.95</ele>
        <time>2015-03-01T10:13:57Z</time>
      </trkpt>
      <trkpt lat="49.07706" lon="1.77133">
        <ele>155.39</ele>
        <time>2015-03-01T10:14:10Z</time>
      </trkpt>
      <trkpt lat="49.07703" lon="1.77128">
        <ele>155.39</ele>
        <time>2015-03-01T10:14:27Z</time>
      </trkpt>
      <trkpt lat="49.07693" lon="1.7712">
        <ele>154.91</ele>
        <time>2015-03-01T10:14:39Z</time>
      </trkpt>
      <trkpt lat="49.07686" lon="1.77112">
        <ele>155.39</ele>
        <time>2015-03-01T10:14:48Z</time>
      </trkpt>
      <trkpt lat="49.07678" lon="1.77104">
        <ele>156.35</ele>
        <time>2015-03-01T10:15:02Z</time>
      </trkpt>
      <trkpt lat="49.07677" lon="1.77102">
        <ele>156.35</ele>
        <time>2015-03-01T10:15:17Z</time>
      </trkpt>
      <trkpt lat="49.07677" lon="1.77099">
        <ele>156.83</ele>
        <time>2015-03-01T10:15:38Z</time>
      </trkpt>
      <trkpt lat="49.07667" lon="1.77089">
        <ele>156.83</ele>
        <time>2015-03-01T10:15:51Z</time>
      </trkpt>
      <trkpt lat="49.07666" lon="1.77091">
        <ele>157.79</ele>
        <time>2015-03-01T10:16:10Z</time>
      </trkpt>
      <trkpt lat="49.07664" lon="1.77093">
        <ele>157.31</ele>
        <time>2015-03-01T10:16:32Z</time>
      </trkpt>
      <trkpt lat="49.07663" lon="1.77097">
        <ele>157.31</ele>
        <time>2015-03-01T10:16:51Z</time>
      </trkpt>
      <trkpt lat="49.07663" lon="1.77097">
        <ele>157.31</ele>
        <time>2015-03-01T10:17:15Z</time>
      </trkpt>
      <trkpt lat="49.07661" lon="1.771">
        <ele>157.31</ele>
        <time>2015-03-01T10:17:34Z</time>
      </trkpt>
      <trkpt lat="49.07664" lon="1.77101">
        <ele>157.31</ele>
        <time>2015-03-01T10:17:55Z</time>
      </trkpt>
      <trkpt lat="49.07665" lon="1.77101">
        <ele>157.31</ele>
        <time>2015-03-01T10:18:19Z</time>
      </trkpt>
      <trkpt lat="49.07664" lon="1.77103">
        <ele>157.31</ele>
        <time>2015-03-01T10:18:49Z</time>
      </trkpt>
      <trkpt lat="49.0766" lon="1.77092">
        <ele>156.83</ele>
        <time>2015-03-01T10:19:12Z</time>
      </trkpt>
      <trkpt lat="49.07655" lon="1.77089">
        <ele>158.27</ele>
        <time>2015-03-01T10:19:23Z</time>
      </trkpt>
      <trkpt lat="49.07646" lon="1.77078">
        <ele>158.75</ele>
        <time>2015-03-01T10:19:35Z</time>
      </trkpt>
      <trkpt lat="49.07639" lon="1.77074">
        <ele>159.72</ele>
        <time>2015-03-01T10:19:42Z</time>
      </trkpt>
      <trkpt lat="49.07628" lon="1.77072">
        <ele>161.16</ele>
        <time>2015-03-01T10:19:53Z</time>
      </trkpt>
      <trkpt lat="49.07617" lon="1.77067">
        <ele>162.6</ele>
        <time>2015-03-01T10:20:04Z</time>
      </trkpt>
      <trkpt lat="49.07602" lon="1.77062">
        <ele>164.04</ele>
        <time>2015-03-01T10:20:19Z</time>
      </trkpt>
      <trkpt lat="49.07586" lon="1.77052">
        <ele>164.52</ele>
        <time>2015-03-01T10:20:36Z</time>
      </trkpt>
      <trkpt lat="49.07571" lon="1.77046">
        <ele>167.41</ele>
        <time>2015-03-01T10:20:53Z</time>
      </trkpt>
      <trkpt lat="49.07559" lon="1.77039">
        <ele>168.37</ele>
        <time>2015-03-01T10:21:07Z</time>
      </trkpt>
      <trkpt lat="49.07549" lon="1.77036">
        <ele>169.33</ele>
        <time>2015-03-01T10:21:18Z</time>
      </trkpt>
      <trkpt lat="49.07546" lon="1.77033">
        <ele>169.81</ele>
        <time>2015-03-01T10:21:21Z</time>
      </trkpt>
      <trkpt lat="49.07531" lon="1.77024">
        <ele>171.25</ele>
        <time>2015-03-01T10:21:36Z</time>
      </trkpt>
      <trkpt lat="49.07516" lon="1.77016">
        <ele>172.69</ele>
        <time>2015-03-01T10:21:51Z</time>
      </trkpt>
      <trkpt lat="49.07515" lon="1.77016">
        <ele>172.69</ele>
        <time>2015-03-01T10:21:52Z</time>
      </trkpt>
      <trkpt lat="49.07507" lon="1.77011">
        <ele>174.14</ele>
        <time>2015-03-01T10:22:06Z</time>
      </trkpt>
      <trkpt lat="49.07503" lon="1.77009">
        <ele>175.58</ele>
        <time>2015-03-01T10:22:10Z</time>
      </trkpt>
      <trkpt lat="49.0749" lon="1.77004">
        <ele>175.58</ele>
        <time>2015-03-01T10:22:24Z</time>
      </trkpt>
      <trkpt lat="49.0747" lon="1.76997">
        <ele>176.54</ele>
        <time>2015-03-01T10:22:40Z</time>
      </trkpt>
      <trkpt lat="49.07455" lon="1.7699">
        <ele>177.98</ele>
        <time>2015-03-01T10:22:53Z</time>
      </trkpt>
      <trkpt lat="49.07442" lon="1.76985">
        <ele>178.46</ele>
        <time>2015-03-01T10:23:07Z</time>
      </trkpt>
      <trkpt lat="49.07441" lon="1.76989">
        <ele>179.9</ele>
        <time>2015-03-01T10:23:10Z</time>
      </trkpt>
      <trkpt lat="49.07438" lon="1.76997">
        <ele>179.9</ele>
        <time>2015-03-01T10:23:21Z</time>
      </trkpt>
      <trkpt lat="49.07437" lon="1.76995">
        <ele>179.9</ele>
        <time>2015-03-01T10:23:37Z</time>
      </trkpt>
      <trkpt lat="49.07437" lon="1.77">
        <ele>180.38</ele>
        <time>2015-03-01T10:24:00Z</time>
      </trkpt>
      <trkpt lat="49.0743" lon="1.7699">
        <ele>179.42</ele>
        <time>2015-03-01T10:24:14Z</time>
      </trkpt>
      <trkpt lat="49.07427" lon="1.76982">
        <ele>180.87</ele>
        <time>2015-03-01T10:24:21Z</time>
      </trkpt>
      <trkpt lat="49.07413" lon="1.76964">
        <ele>180.38</ele>
        <time>2015-03-01T10:24:38Z</time>
      </trkpt>
      <trkpt lat="49.07412" lon="1.7696">
        <ele>179.9</ele>
        <time>2015-03-01T10:24:55Z</time>
      </trkpt>
      <trkpt lat="49.07405" lon="1.76959">
        <ele>180.38</ele>
        <time>2015-03-01T10:25:11Z</time>
      </trkpt>
      <trkpt lat="49.07402" lon="1.76962">
        <ele>179.9</ele>
        <time>2015-03-01T10:25:22Z</time>
      </trkpt>
      <trkpt lat="49.07401" lon="1.76964">
        <ele>180.87</ele>
        <time>2015-03-01T10:25:33Z</time>
      </trkpt>
      <trkpt lat="49.07406" lon="1.76964">
        <ele>180.87</ele>
        <time>2015-03-01T10:25:44Z</time>
      </trkpt>
      <trkpt lat="49.07417" lon="1.76972">
        <ele>179.9</ele>
        <time>2015-03-01T10:25:59Z</time>
      </trkpt>
      <trkpt lat="49.07425" lon="1.76981">
        <ele>180.38</ele>
        <time>2015-03-01T10:26:12Z</time>
      </trkpt>
      <trkpt lat="49.07425" lon="1.76983">
        <ele>180.38</ele>
        <time>2015-03-01T10:26:13Z</time>
      </trkpt>
      <trkpt lat="49.07429" lon="1.77">
        <ele>179.42</ele>
        <time>2015-03-01T10:26:25Z</time>
      </trkpt>
      <trkpt lat="49.07421" lon="1.77016">
        <ele>179.9</ele>
        <time>2015-03-01T10:26:42Z</time>
      </trkpt>
      <trkpt lat="49.07416" lon="1.77023">
        <ele>179.42</ele>
        <time>2015-03-01T10:26:55Z</time>
      </trkpt>
      <trkpt lat="49.07408" lon="1.77038">
        <ele>179.9</ele>
        <time>2015-03-01T10:27:09Z</time>
      </trkpt>
      <trkpt lat="49.07403" lon="1.77049">
        <ele>180.38</ele>
        <time>2015-03-01T10:27:25Z</time>
      </trkpt>
      <trkpt lat="49.07393" lon="1.77062">
        <ele>180.38</ele>
        <time>2015-03-01T10:27:40Z</time>
      </trkpt>
      <trkpt lat="49.07384" lon="1.77076">
        <ele>180.87</ele>
        <time>2015-03-01T10:27:56Z</time>
      </trkpt>
      <trkpt lat="49.07371" lon="1.77095">
        <ele>181.35</ele>
        <time>2015-03-01T10:28:12Z</time>
      </trkpt>
      <trkpt lat="49.0737" lon="1.77096">
        <ele>181.35</ele>
        <time>2015-03-01T10:28:13Z</time>
      </trkpt>
      <trkpt lat="49.07357" lon="1.77118">
        <ele>181.35</ele>
        <time>2015-03-01T10:28:29Z</time>
      </trkpt>
      <trkpt lat="49.07346" lon="1.77131">
        <ele>181.35</ele>
        <time>2015-03-01T10:28:44Z</time>
      </trkpt>
      <trkpt lat="49.07333" lon="1.7715">
        <ele>180.38</ele>
        <time>2015-03-01T10:29:00Z</time>
      </trkpt>
      <trkpt lat="49.0732" lon="1.77171">
        <ele>180.38</ele>
        <time>2015-03-01T10:29:16Z</time>
      </trkpt>
      <trkpt lat="49.0731" lon="1.77193">
        <ele>178.94</ele>
        <time>2015-03-01T10:29:31Z</time>
      </trkpt>
      <trkpt lat="49.07306" lon="1.77198">
        <ele>178.94</ele>
        <time>2015-03-01T10:29:36Z</time>
      </trkpt>
      <trkpt lat="49.07289" lon="1.77219">
        <ele>177.02</ele>
        <time>2015-03-01T10:29:56Z</time>
      </trkpt>
      <trkpt lat="49.07276" lon="1.77237">
        <ele>176.54</ele>
        <time>2015-03-01T10:30:11Z</time>
      </trkpt>
      <trkpt lat="49.07276" lon="1.77238">
        <ele>177.02</ele>
        <time>2015-03-01T10:30:12Z</time>
      </trkpt>
      <trkpt lat="49.07283" lon="1.77256">
        <ele>176.54</ele>
        <time>2015-03-01T10:30:25Z</time>
      </trkpt>
      <trkpt lat="49.07288" lon="1.77267">
        <ele>176.54</ele>
        <time>2015-03-01T10:30:32Z</time>
      </trkpt>
      <trkpt lat="49.07292" lon="1.77275">
        <ele>176.54</ele>
        <time>2015-03-01T10:30:39Z</time>
      </trkpt>
      <trkpt lat="49.07294" lon="1.77282">
        <ele>176.54</ele>
        <time>2015-03-01T10:30:43Z</time>
      </trkpt>
      <trkpt lat="49.07304" lon="1.773">
        <ele>175.58</ele>
        <time>2015-03-01T10:30:59Z</time>
      </trkpt>
      <trkpt lat="49.07311" lon="1.77319">
        <ele>175.58</ele>
        <time>2015-03-01T10:31:12Z</time>
      </trkpt>
      <trkpt lat="49.07313" lon="1.77338">
        <ele>175.1</ele>
        <time>2015-03-01T10:31:23Z</time>
      </trkpt>
      <trkpt lat="49.07301" lon="1.77349">
        <ele>175.58</ele>
        <time>2015-03-01T10:31:36Z</time>
      </trkpt>
      <trkpt lat="49.07301" lon="1.77349">
        <ele>175.1</ele>
        <time>2015-03-01T10:31:43Z</time>
      </trkpt>
      <trkpt lat="49.07311" lon="1.77337">
        <ele>175.1</ele>
        <time>2015-03-01T10:31:54Z</time>
      </trkpt>
      <trkpt lat="49.07317" lon="1.77345">
        <ele>175.1</ele>
        <time>2015-03-01T10:31:59Z</time>
      </trkpt>
      <trkpt lat="49.07322" lon="1.77359">
        <ele>174.14</ele>
        <time>2015-03-01T10:32:10Z</time>
      </trkpt>
      <trkpt lat="49.07322" lon="1.77363">
        <ele>174.14</ele>
        <time>2015-03-01T10:32:13Z</time>
      </trkpt>
      <trkpt lat="49.07328" lon="1.7739">
        <ele>173.17</ele>
        <time>2015-03-01T10:32:30Z</time>
      </trkpt>
      <trkpt lat="49.07336" lon="1.77415">
        <ele>171.25</ele>
        <time>2015-03-01T10:32:47Z</time>
      </trkpt>
      <trkpt lat="49.07344" lon="1.77439">
        <ele>169.81</ele>
        <time>2015-03-01T10:33:03Z</time>
      </trkpt>
      <trkpt lat="49.07353" lon="1.77457">
        <ele>168.85</ele>
        <time>2015-03-01T10:33:16Z</time>
      </trkpt>
      <trkpt lat="49.07358" lon="1.77471">
        <ele>167.41</ele>
        <time>2015-03-01T10:33:26Z</time>
      </trkpt>
      <trkpt lat="49.0736" lon="1.77481">
        <ele>166.93</ele>
        <time>2015-03-01T10:33:33Z</time>
      </trkpt>
      <trkpt lat="49.07359" lon="1.77498">
        <ele>166.93</ele>
        <time>2015-03-01T10:33:47Z</time>
      </trkpt>
      <trkpt lat="49.07356" lon="1.77504">
        <ele>166.93</ele>
        <time>2015-03-01T10:33:51Z</time>
      </trkpt>
      <trkpt lat="49.07351" lon="1.7751">
        <ele>166.93</ele>
        <time>2015-03-01T10:33:57Z</time>
      </trkpt>
      <trkpt lat="49.07346" lon="1.77518">
        <ele>166.45</ele>
        <time>2015-03-01T10:34:04Z</time>
      </trkpt>
      <trkpt lat="49.07332" lon="1.77534">
        <ele>165.96</ele>
        <time>2015-03-01T10:34:21Z</time>
      </trkpt>
      <trkpt lat="49.07328" lon="1.77538">
        <ele>165.96</ele>
        <time>2015-03-01T10:34:27Z</time>
      </trkpt>
      <trkpt lat="49.07316" lon="1.77551">
        <ele>165.96</ele>
        <time>2015-03-01T10:34:42Z</time>
      </trkpt>
      <trkpt lat="49.07303" lon="1.77564">
        <ele>165</ele>
        <time>2015-03-01T10:34:58Z</time>
      </trkpt>
      <trkpt lat="49.07298" lon="1.7757">
        <ele>165</ele>
        <time>2015-03-01T10:35:05Z</time>
      </trkpt>
      <trkpt lat="49.07291" lon="1.77575">
        <ele>164.52</ele>
        <time>2015-03-01T10:35:11Z</time>
      </trkpt>
      <trkpt lat="49.07286" lon="1.77578">
        <ele>164.52</ele>
        <time>2015-03-01T10:35:15Z</time>
      </trkpt>
      <trkpt lat="49.07284" lon="1.7758">
        <ele>163.56</ele>
        <time>2015-03-01T10:35:17Z</time>
      </trkpt>
      <trkpt lat="49.07283" lon="1.77581">
        <ele>163.56</ele>
        <time>2015-03-01T10:35:18Z</time>
      </trkpt>
      <trkpt lat="49.07279" lon="1.77589">
        <ele>164.52</ele>
        <time>2015-03-01T10:35:23Z</time>
      </trkpt>
      <trkpt lat="49.07262" lon="1.77601">
        <ele>162.6</ele>
        <time>2015-03-01T10:35:40Z</time>
      </trkpt>
      <trkpt lat="49.07246" lon="1.7761">
        <ele>161.16</ele>
        <time>2015-03-01T10:35:56Z</time>
      </trkpt>
      <trkpt lat="49.07245" lon="1.77611">
        <ele>161.16</ele>
        <time>2015-03-01T10:36:07Z</time>
      </trkpt>
      <trkpt lat="49.07229" lon="1.77624">
        <ele>160.2</ele>
        <time>2015-03-01T10:36:20Z</time>
      </trkpt>
      <trkpt lat="49.07211" lon="1.77638">
        <ele>159.24</ele>
        <time>2015-03-01T10:36:34Z</time>
      </trkpt>
      <trkpt lat="49.07197" lon="1.7766">
        <ele>159.24</ele>
        <time>2015-03-01T10:36:50Z</time>
      </trkpt>
      <trkpt lat="49.07189" lon="1.77669">
        <ele>158.27</ele>
        <time>2015-03-01T10:37:03Z</time>
      </trkpt>
      <trkpt lat="49.07184" lon="1.77669">
        <ele>158.27</ele>
        <time>2015-03-01T10:37:18Z</time>
      </trkpt>
      <trkpt lat="49.0718" lon="1.77667">
        <ele>159.24</ele>
        <time>2015-03-01T10:37:35Z</time>
      </trkpt>
      <trkpt lat="49.07184" lon="1.77665">
        <ele>159.24</ele>
        <time>2015-03-01T10:37:52Z</time>
      </trkpt>
      <trkpt lat="49.07177" lon="1.77668">
        <ele>158.75</ele>
        <time>2015-03-01T10:38:10Z</time>
      </trkpt>
      <trkpt lat="49.07174" lon="1.77668">
        <ele>158.75</ele>
        <time>2015-03-01T10:38:40Z</time>
      </trkpt>
      <trkpt lat="49.07181" lon="1.77661">
        <ele>158.27</ele>
        <time>2015-03-01T10:39:02Z</time>
      </trkpt>
      <trkpt lat="49.07186" lon="1.77657">
        <ele>159.24</ele>
        <time>2015-03-01T10:39:19Z</time>
      </trkpt>
      <trkpt lat="49.07181" lon="1.77662">
        <ele>158.75</ele>
        <time>2015-03-01T10:39:35Z</time>
      </trkpt>
      <trkpt lat="49.07179" lon="1.77643">
        <ele>158.27</ele>
        <time>2015-03-01T10:39:50Z</time>
      </trkpt>
      <trkpt lat="49.07181" lon="1.77643">
        <ele>157.79</ele>
        <time>2015-03-01T10:39:56Z</time>
      </trkpt>
      <trkpt lat="49.07182" lon="1.77661">
        <ele>157.79</ele>
        <time>2015-03-01T10:40:10Z</time>
      </trkpt>
      <trkpt lat="49.07181" lon="1.77667">
        <ele>159.24</ele>
        <time>2015-03-01T10:40:22Z</time>
      </trkpt>
      <trkpt lat="49.0718" lon="1.77669">
        <ele>159.24</ele>
        <time>2015-03-01T10:40:34Z</time>
      </trkpt>
      <trkpt lat="49.07183" lon="1.77677">
        <ele>159.72</ele>
        <time>2015-03-01T10:40:53Z</time>
      </trkpt>
      <trkpt lat="49.0719" lon="1.77687">
        <ele>158.27</ele>
        <time>2015-03-01T10:41:08Z</time>
      </trkpt>
      <trkpt lat="49.07192" lon="1.77675">
        <ele>159.24</ele>
        <time>2015-03-01T10:41:20Z</time>
      </trkpt>
      <trkpt lat="49.07192" lon="1.7768">
        <ele>158.75</ele>
        <time>2015-03-01T10:41:32Z</time>
      </trkpt>
      <trkpt lat="49.0719" lon="1.77683">
        <ele>157.79</ele>
        <time>2015-03-01T10:41:55Z</time>
      </trkpt>
      <trkpt lat="49.07193" lon="1.77688">
        <ele>158.27</ele>
        <time>2015-03-01T10:42:12Z</time>
      </trkpt>
      <trkpt lat="49.07198" lon="1.77697">
        <ele>158.75</ele>
        <time>2015-03-01T10:42:28Z</time>
      </trkpt>
      <trkpt lat="49.07203" lon="1.77698">
        <ele>157.79</ele>
        <time>2015-03-01T10:42:55Z</time>
      </trkpt>
      <trkpt lat="49.07205" lon="1.77705">
        <ele>157.79</ele>
        <time>2015-03-01T10:43:14Z</time>
      </trkpt>
      <trkpt lat="49.072" lon="1.77707">
        <ele>157.31</ele>
        <time>2015-03-01T10:43:33Z</time>
      </trkpt>
      <trkpt lat="49.07206" lon="1.7771">
        <ele>157.31</ele>
        <time>2015-03-01T10:43:51Z</time>
      </trkpt>
      <trkpt lat="49.07208" lon="1.7772">
        <ele>156.83</ele>
        <time>2015-03-01T10:43:57Z</time>
      </trkpt>
      <trkpt lat="49.07221" lon="1.77743">
        <ele>156.83</ele>
        <time>2015-03-01T10:44:16Z</time>
      </trkpt>
      <trkpt lat="49.07223" lon="1.7774">
        <ele>156.35</ele>
        <time>2015-03-01T10:44:27Z</time>
      </trkpt>
      <trkpt lat="49.07226" lon="1.77736">
        <ele>156.35</ele>
        <time>2015-03-01T10:44:39Z</time>
      </trkpt>
      <trkpt lat="49.07226" lon="1.77732">
        <ele>156.83</ele>
        <time>2015-03-01T10:44:50Z</time>
      </trkpt>
      <trkpt lat="49.07232" lon="1.77734">
        <ele>157.31</ele>
        <time>2015-03-01T10:45:03Z</time>
      </trkpt>
      <trkpt lat="49.07232" lon="1.77734">
        <ele>157.79</ele>
        <time>2015-03-01T10:45:04Z</time>
      </trkpt>
      <trkpt lat="49.07248" lon="1.77727">
        <ele>157.31</ele>
        <time>2015-03-01T10:45:20Z</time>
      </trkpt>
      <trkpt lat="49.0725" lon="1.77726">
        <ele>156.83</ele>
        <time>2015-03-01T10:45:23Z</time>
      </trkpt>
      <trkpt lat="49.0727" lon="1.77709">
        <ele>157.31</ele>
        <time>2015-03-01T10:45:43Z</time>
      </trkpt>
      <trkpt lat="49.07283" lon="1.77696">
        <ele>156.83</ele>
        <time>2015-03-01T10:46:00Z</time>
      </trkpt>
      <trkpt lat="49.07277" lon="1.77696">
        <ele>157.79</ele>
        <time>2015-03-01T10:46:15Z</time>
      </trkpt>
      <trkpt lat="49.07277" lon="1.77695">
        <ele>157.31</ele>
        <time>2015-03-01T10:46:41Z</time>
      </trkpt>
      <trkpt lat="49.07278" lon="1.77696">
        <ele>157.31</ele>
        <time>2015-03-01T10:47:06Z</time>
      </trkpt>
      <trkpt lat="49.07267" lon="1.77705">
        <ele>157.79</ele>
        <time>2015-03-01T10:47:21Z</time>
      </trkpt>
      <trkpt lat="49.07254" lon="1.77719">
        <ele>156.83</ele>
        <time>2015-03-01T10:47:39Z</time>
      </trkpt>
      <trkpt lat="49.07248" lon="1.77723">
        <ele>156.35</ele>
        <time>2015-03-01T10:47:43Z</time>
      </trkpt>
      <trkpt lat="49.07233" lon="1.77734">
        <ele>154.91</ele>
        <time>2015-03-01T10:47:57Z</time>
      </trkpt>
      <trkpt lat="49.07227" lon="1.77739">
        <ele>156.35</ele>
        <time>2015-03-01T10:48:04Z</time>
      </trkpt>
      <trkpt lat="49.07221" lon="1.77751">
        <ele>156.35</ele>
        <time>2015-03-01T10:48:17Z</time>
      </trkpt>
      <trkpt lat="49.07222" lon="1.77765">
        <ele>156.35</ele>
        <time>2015-03-01T10:48:28Z</time>
      </trkpt>
      <trkpt lat="49.07223" lon="1.77778">
        <ele>155.87</ele>
        <time>2015-03-01T10:48:41Z</time>
      </trkpt>
      <trkpt lat="49.0723" lon="1.778">
        <ele>154.91</ele>
        <time>2015-03-01T10:48:58Z</time>
      </trkpt>
      <trkpt lat="49.07238" lon="1.77824">
        <ele>153.47</ele>
        <time>2015-03-01T10:49:17Z</time>
      </trkpt>
      <trkpt lat="49.07241" lon="1.7784">
        <ele>152.99</ele>
        <time>2015-03-01T10:49:30Z</time>
      </trkpt>
      <trkpt lat="49.07244" lon="1.77862">
        <ele>152.03</ele>
        <time>2015-03-01T10:49:45Z</time>
      </trkpt>
      <trkpt lat="49.07241" lon="1.77865">
        <ele>152.03</ele>
        <time>2015-03-01T10:49:49Z</time>
      </trkpt>
      <trkpt lat="49.07225" lon="1.77878">
        <ele>152.51</ele>
        <time>2015-03-01T10:50:04Z</time>
      </trkpt>
      <trkpt lat="49.07217" lon="1.77887">
        <ele>152.99</ele>
        <time>2015-03-01T10:50:13Z</time>
      </trkpt>
      <trkpt lat="49.07203" lon="1.77912">
        <ele>151.06</ele>
        <time>2015-03-01T10:50:34Z</time>
      </trkpt>
      <trkpt lat="49.07201" lon="1.77915">
        <ele>151.06</ele>
        <time>2015-03-01T10:50:36Z</time>
      </trkpt>
      <trkpt lat="49.07188" lon="1.7793">
        <ele>150.58</ele>
        <time>2015-03-01T10:50:53Z</time>
      </trkpt>
      <trkpt lat="49.07171" lon="1.77949">
        <ele>149.14</ele>
        <time>2015-03-01T10:51:11Z</time>
      </trkpt>
      <trkpt lat="49.07155" lon="1.77971">
        <ele>147.7</ele>
        <time>2015-03-01T10:51:28Z</time>
      </trkpt>
      <trkpt lat="49.07142" lon="1.77984">
        <ele>147.22</ele>
        <time>2015-03-01T10:51:41Z</time>
      </trkpt>
      <trkpt lat="49.07127" lon="1.77998">
        <ele>147.22</ele>
        <time>2015-03-01T10:51:56Z</time>
      </trkpt>
      <trkpt lat="49.07113" lon="1.78016">
        <ele>146.74</ele>
        <time>2015-03-01T10:52:13Z</time>
      </trkpt>
      <trkpt lat="49.07111" lon="1.7802">
        <ele>148.66</ele>
        <time>2015-03-01T10:52:19Z</time>
      </trkpt>
      <trkpt lat="49.07109" lon="1.78016">
        <ele>147.22</ele>
        <time>2015-03-01T10:52:25Z</time>
      </trkpt>
      <trkpt lat="49.07109" lon="1.7802">
        <ele>147.22</ele>
        <time>2015-03-01T10:52:38Z</time>
      </trkpt>
      <trkpt lat="49.07104" lon="1.78025">
        <ele>147.22</ele>
        <time>2015-03-01T10:52:50Z</time>
      </trkpt>
      <trkpt lat="49.07099" lon="1.78035">
        <ele>145.78</ele>
        <time>2015-03-01T10:53:02Z</time>
      </trkpt>
      <trkpt lat="49.07083" lon="1.78043">
        <ele>145.78</ele>
        <time>2015-03-01T10:53:22Z</time>
      </trkpt>
      <trkpt lat="49.07074" lon="1.78046">
        <ele>145.3</ele>
        <time>2015-03-01T10:53:33Z</time>
      </trkpt>
      <trkpt lat="49.07072" lon="1.78045">
        <ele>144.82</ele>
        <time>2015-03-01T10:53:35Z</time>
      </trkpt>
      <trkpt lat="49.07068" lon="1.78046">
        <ele>145.3</ele>
        <time>2015-03-01T10:53:39Z</time>
      </trkpt>
      <trkpt lat="49.07051" lon="1.78042">
        <ele>143.37</ele>
        <time>2015-03-01T10:53:58Z</time>
      </trkpt>
      <trkpt lat="49.07035" lon="1.78035">
        <ele>142.89</ele>
        <time>2015-03-01T10:54:13Z</time>
      </trkpt>
      <trkpt lat="49.07021" lon="1.78026">
        <ele>141.45</ele>
        <time>2015-03-01T10:54:27Z</time>
      </trkpt>
      <trkpt lat="49.07008" lon="1.78016">
        <ele>140.97</ele>
        <time>2015-03-01T10:54:43Z</time>
      </trkpt>
      <trkpt lat="49.07005" lon="1.78015">
        <ele>141.45</ele>
        <time>2015-03-01T10:54:45Z</time>
      </trkpt>
      <trkpt lat="49.06989" lon="1.78008">
        <ele>140.97</ele>
        <time>2015-03-01T10:54:59Z</time>
      </trkpt>
      <trkpt lat="49.06976" lon="1.77999">
        <ele>139.05</ele>
        <time>2015-03-01T10:55:13Z</time>
      </trkpt>
      <trkpt lat="49.06961" lon="1.77982">
        <ele>137.61</ele>
        <time>2015-03-01T10:55:29Z</time>
      </trkpt>
      <trkpt lat="49.06954" lon="1.77979">
        <ele>134.72</ele>
        <time>2015-03-01T10:55:36Z</time>
      </trkpt>
      <trkpt lat="49.06947" lon="1.77975">
        <ele>134.24</ele>
        <time>2015-03-01T10:55:43Z</time>
      </trkpt>
      <trkpt lat="49.06942" lon="1.77972">
        <ele>135.68</ele>
        <time>2015-03-01T10:55:49Z</time>
      </trkpt>
      <trkpt lat="49.06927" lon="1.77961">
        <ele>135.68</ele>
        <time>2015-03-01T10:56:04Z</time>
      </trkpt>
      <trkpt lat="49.06922" lon="1.77957">
        <ele>134.24</ele>
        <time>2015-03-01T10:56:10Z</time>
      </trkpt>
      <trkpt lat="49.06909" lon="1.77949">
        <ele>133.76</ele>
        <time>2015-03-01T10:56:23Z</time>
      </trkpt>
      <trkpt lat="49.069" lon="1.77946">
        <ele>136.16</ele>
        <time>2015-03-01T10:56:34Z</time>
      </trkpt>
      <trkpt lat="49.06897" lon="1.77945">
        <ele>135.2</ele>
        <time>2015-03-01T10:56:40Z</time>
      </trkpt>
      <trkpt lat="49.06891" lon="1.7794">
        <ele>136.16</ele>
        <time>2015-03-01T10:56:48Z</time>
      </trkpt>
      <trkpt lat="49.06885" lon="1.77939">
        <ele>135.68</ele>
        <time>2015-03-01T10:56:53Z</time>
      </trkpt>
      <trkpt lat="49.06883" lon="1.77936">
        <ele>136.16</ele>
        <time>2015-03-01T10:56:59Z</time>
      </trkpt>
      <trkpt lat="49.06877" lon="1.77931">
        <ele>134.72</ele>
        <time>2015-03-01T10:57:10Z</time>
      </trkpt>
      <trkpt lat="49.06873" lon="1.77931">
        <ele>137.13</ele>
        <time>2015-03-01T10:57:15Z</time>
      </trkpt>
      <trkpt lat="49.06861" lon="1.77923">
        <ele>135.2</ele>
        <time>2015-03-01T10:57:27Z</time>
      </trkpt>
      <trkpt lat="49.06856" lon="1.77921">
        <ele>136.64</ele>
        <time>2015-03-01T10:57:32Z</time>
      </trkpt>
      <trkpt lat="49.06841" lon="1.7791">
        <ele>136.16</ele>
        <time>2015-03-01T10:57:46Z</time>
      </trkpt>
      <trkpt lat="49.06838" lon="1.77907">
        <ele>136.64</ele>
        <time>2015-03-01T10:57:50Z</time>
      </trkpt>
      <trkpt lat="49.06823" lon="1.77897">
        <ele>136.16</ele>
        <time>2015-03-01T10:58:05Z</time>
      </trkpt>
      <trkpt lat="49.06815" lon="1.77891">
        <ele>137.13</ele>
        <time>2015-03-01T10:58:13Z</time>
      </trkpt>
      <trkpt lat="49.06806" lon="1.77885">
        <ele>137.61</ele>
        <time>2015-03-01T10:58:24Z</time>
      </trkpt>
      <trkpt lat="49.06799" lon="1.77879">
        <ele>138.09</ele>
        <time>2015-03-01T10:58:31Z</time>
      </trkpt>
      <trkpt lat="49.06782" lon="1.77869">
        <ele>138.57</ele>
        <time>2015-03-01T10:58:47Z</time>
      </trkpt>
      <trkpt lat="49.0678" lon="1.77867">
        <ele>138.09</ele>
        <time>2015-03-01T10:58:49Z</time>
      </trkpt>
      <trkpt lat="49.06772" lon="1.77863">
        <ele>139.05</ele>
        <time>2015-03-01T10:58:57Z</time>
      </trkpt>
      <trkpt lat="49.06769" lon="1.77863">
        <ele>139.53</ele>
        <time>2015-03-01T10:59:00Z</time>
      </trkpt>
      <trkpt lat="49.06765" lon="1.77861">
        <ele>139.05</ele>
        <time>2015-03-01T10:59:04Z</time>
      </trkpt>
      <trkpt lat="49.06756" lon="1.77852">
        <ele>138.09</ele>
        <time>2015-03-01T10:59:13Z</time>
      </trkpt>
      <trkpt lat="49.06754" lon="1.7785">
        <ele>139.53</ele>
        <time>2015-03-01T10:59:16Z</time>
      </trkpt>
      <trkpt lat="49.06748" lon="1.77842">
        <ele>139.53</ele>
        <time>2015-03-01T10:59:26Z</time>
      </trkpt>
      <trkpt lat="49.06742" lon="1.77836">
        <ele>141.45</ele>
        <time>2015-03-01T10:59:35Z</time>
      </trkpt>
      <trkpt lat="49.06737" lon="1.77843">
        <ele>141.45</ele>
        <time>2015-03-01T10:59:50Z</time>
      </trkpt>
      <trkpt lat="49.06737" lon="1.77851">
        <ele>140.97</ele>
        <time>2015-03-01T11:00:07Z</time>
      </trkpt>
      <trkpt lat="49.06735" lon="1.77857">
        <ele>140.97</ele>
        <time>2015-03-01T11:00:20Z</time>
      </trkpt>
      <trkpt lat="49.06731" lon="1.77868">
        <ele>141.93</ele>
        <time>2015-03-01T11:00:31Z</time>
      </trkpt>
      <trkpt lat="49.06724" lon="1.77887">
        <ele>142.89</ele>
        <time>2015-03-01T11:00:48Z</time>
      </trkpt>
      <trkpt lat="49.06718" lon="1.77907">
        <ele>143.85</ele>
        <time>2015-03-01T11:01:01Z</time>
      </trkpt>
      <trkpt lat="49.06713" lon="1.77917">
        <ele>143.85</ele>
        <time>2015-03-01T11:01:09Z</time>
      </trkpt>
      <trkpt lat="49.06711" lon="1.77923">
        <ele>143.85</ele>
        <time>2015-03-01T11:01:13Z</time>
      </trkpt>
      <trkpt lat="49.06708" lon="1.77938">
        <ele>143.85</ele>
        <time>2015-03-01T11:01:24Z</time>
      </trkpt>
      <trkpt lat="49.06707" lon="1.77943">
        <ele>143.85</ele>
        <time>2015-03-01T11:01:28Z</time>
      </trkpt>
      <trkpt lat="49.06705" lon="1.77949">
        <ele>143.85</ele>
        <time>2015-03-01T11:01:32Z</time>
      </trkpt>
      <trkpt lat="49.06705" lon="1.77955">
        <ele>144.34</ele>
        <time>2015-03-01T11:01:36Z</time>
      </trkpt>
      <trkpt lat="49.06701" lon="1.77966">
        <ele>143.85</ele>
        <time>2015-03-01T11:01:43Z</time>
      </trkpt>
      <trkpt lat="49.06699" lon="1.77979">
        <ele>143.85</ele>
        <time>2015-03-01T11:01:51Z</time>
      </trkpt>
      <trkpt lat="49.06695" lon="1.77988">
        <ele>144.34</ele>
        <time>2015-03-01T11:01:58Z</time>
      </trkpt>
      <trkpt lat="49.06694" lon="1.7799">
        <ele>144.34</ele>
        <time>2015-03-01T11:02:00Z</time>
      </trkpt>
      <trkpt lat="49.06688" lon="1.78007">
        <ele>144.82</ele>
        <time>2015-03-01T11:02:14Z</time>
      </trkpt>
      <trkpt lat="49.06685" lon="1.78013">
        <ele>144.34</ele>
        <time>2015-03-01T11:02:18Z</time>
      </trkpt>
      <trkpt lat="49.06682" lon="1.78021">
        <ele>144.34</ele>
        <time>2015-03-01T11:02:25Z</time>
      </trkpt>
      <trkpt lat="49.06675" lon="1.78047">
        <ele>143.85</ele>
        <time>2015-03-01T11:02:42Z</time>
      </trkpt>
      <trkpt lat="49.06673" lon="1.78051">
        <ele>143.85</ele>
        <time>2015-03-01T11:02:45Z</time>
      </trkpt>
      <trkpt lat="49.06664" lon="1.78068">
        <ele>143.37</ele>
        <time>2015-03-01T11:02:59Z</time>
      </trkpt>
      <trkpt lat="49.06662" lon="1.78071">
        <ele>142.89</ele>
        <time>2015-03-01T11:03:02Z</time>
      </trkpt>
      <trkpt lat="49.0666" lon="1.78077">
        <ele>142.89</ele>
        <time>2015-03-01T11:03:06Z</time>
      </trkpt>
      <trkpt lat="49.06651" lon="1.78098">
        <ele>143.37</ele>
        <time>2015-03-01T11:03:22Z</time>
      </trkpt>
      <trkpt lat="49.06642" lon="1.78113">
        <ele>141.45</ele>
        <time>2015-03-01T11:03:34Z</time>
      </trkpt>
      <trkpt lat="49.06632" lon="1.78139">
        <ele>139.05</ele>
        <time>2015-03-01T11:03:53Z</time>
      </trkpt>
      <trkpt lat="49.06624" lon="1.78159">
        <ele>138.57</ele>
        <time>2015-03-01T11:04:08Z</time>
      </trkpt>
      <trkpt lat="49.06624" lon="1.78161">
        <ele>138.57</ele>
        <time>2015-03-01T11:04:09Z</time>
      </trkpt>
      <trkpt lat="49.06619" lon="1.78169">
        <ele>138.09</ele>
        <time>2015-03-01T11:04:15Z</time>
      </trkpt>
      <trkpt lat="49.06611" lon="1.78192">
        <ele>136.64</ele>
        <time>2015-03-01T11:04:32Z</time>
      </trkpt>
      <trkpt lat="49.06604" lon="1.78208">
        <ele>134.72</ele>
        <time>2015-03-01T11:04:46Z</time>
      </trkpt>
      <trkpt lat="49.06595" lon="1.78231">
        <ele>133.28</ele>
        <time>2015-03-01T11:05:03Z</time>
      </trkpt>
      <trkpt lat="49.06587" lon="1.78252">
        <ele>131.84</ele>
        <time>2015-03-01T11:05:19Z</time>
      </trkpt>
      <trkpt lat="49.06579" lon="1.7827">
        <ele>131.36</ele>
        <time>2015-03-01T11:05:33Z</time>
      </trkpt>
      <trkpt lat="49.06568" lon="1.78286">
        <ele>131.84</ele>
        <time>2015-03-01T11:05:49Z</time>
      </trkpt>
      <trkpt lat="49.06562" lon="1.78291">
        <ele>131.36</ele>
        <time>2015-03-01T11:05:59Z</time>
      </trkpt>
      <trkpt lat="49.0655" lon="1.78298">
        <ele>130.88</ele>
        <time>2015-03-01T11:06:13Z</time>
      </trkpt>
      <trkpt lat="49.06537" lon="1.78303">
        <ele>130.88</ele>
        <time>2015-03-01T11:06:27Z</time>
      </trkpt>
      <trkpt lat="49.06537" lon="1.78304">
        <ele>131.36</ele>
        <time>2015-03-01T11:06:28Z</time>
      </trkpt>
      <trkpt lat="49.06526" lon="1.7831">
        <ele>130.88</ele>
        <time>2015-03-01T11:06:41Z</time>
      </trkpt>
      <trkpt lat="49.0652" lon="1.78318">
        <ele>130.4</ele>
        <time>2015-03-01T11:06:54Z</time>
      </trkpt>
      <trkpt lat="49.06511" lon="1.78323">
        <ele>129.92</ele>
        <time>2015-03-01T11:07:06Z</time>
      </trkpt>
      <trkpt lat="49.06494" lon="1.78331">
        <ele>130.88</ele>
        <time>2015-03-01T11:07:22Z</time>
      </trkpt>
      <trkpt lat="49.06485" lon="1.78335">
        <ele>129.92</ele>
        <time>2015-03-01T11:07:36Z</time>
      </trkpt>
      <trkpt lat="49.06481" lon="1.78336">
        <ele>129.92</ele>
        <time>2015-03-01T11:07:41Z</time>
      </trkpt>
      <trkpt lat="49.06476" lon="1.78336">
        <ele>130.4</ele>
        <time>2015-03-01T11:07:51Z</time>
      </trkpt>
      <trkpt lat="49.06472" lon="1.78337">
        <ele>130.88</ele>
        <time>2015-03-01T11:07:57Z</time>
      </trkpt>
      <trkpt lat="49.06466" lon="1.78339">
        <ele>132.32</ele>
        <time>2015-03-01T11:08:07Z</time>
      </trkpt>
      <trkpt lat="49.06465" lon="1.78339">
        <ele>132.8</ele>
        <time>2015-03-01T11:08:08Z</time>
      </trkpt>
      <trkpt lat="49.06459" lon="1.78344">
        <ele>133.28</ele>
        <time>2015-03-01T11:08:16Z</time>
      </trkpt>
      <trkpt lat="49.06455" lon="1.78346">
        <ele>133.76</ele>
        <time>2015-03-01T11:08:21Z</time>
      </trkpt>
      <trkpt lat="49.06451" lon="1.78349">
        <ele>134.24</ele>
        <time>2015-03-01T11:08:25Z</time>
      </trkpt>
      <trkpt lat="49.06448" lon="1.7835">
        <ele>134.24</ele>
        <time>2015-03-01T11:08:29Z</time>
      </trkpt>
      <trkpt lat="49.06443" lon="1.78351">
        <ele>134.72</ele>
        <time>2015-03-01T11:08:35Z</time>
      </trkpt>
      <trkpt lat="49.06433" lon="1.78358">
        <ele>135.68</ele>
        <time>2015-03-01T11:08:46Z</time>
      </trkpt>
      <trkpt lat="49.0643" lon="1.78361">
        <ele>135.2</ele>
        <time>2015-03-01T11:08:59Z</time>
      </trkpt>
      <trkpt lat="49.06429" lon="1.78362">
        <ele>135.2</ele>
        <time>2015-03-01T11:09:17Z</time>
      </trkpt>
      <trkpt lat="49.06431" lon="1.7836">
        <ele>135.2</ele>
        <time>2015-03-01T11:09:42Z</time>
      </trkpt>
      <trkpt lat="49.06429" lon="1.78361">
        <ele>135.2</ele>
        <time>2015-03-01T11:10:01Z</time>
      </trkpt>
      <trkpt lat="49.0643" lon="1.78373">
        <ele>134.72</ele>
        <time>2015-03-01T11:10:09Z</time>
      </trkpt>
      <trkpt lat="49.06435" lon="1.78387">
        <ele>133.76</ele>
        <time>2015-03-01T11:10:20Z</time>
      </trkpt>
      <trkpt lat="49.06438" lon="1.78405">
        <ele>131.84</ele>
        <time>2015-03-01T11:10:35Z</time>
      </trkpt>
      <trkpt lat="49.06442" lon="1.78434">
        <ele>129.92</ele>
        <time>2015-03-01T11:10:52Z</time>
      </trkpt>
      <trkpt lat="49.06445" lon="1.78446">
        <ele>128.95</ele>
        <time>2015-03-01T11:11:00Z</time>
      </trkpt>
      <trkpt lat="49.06447" lon="1.78459">
        <ele>127.51</ele>
        <time>2015-03-01T11:11:09Z</time>
      </trkpt>
      <trkpt lat="49.06447" lon="1.78465">
        <ele>127.03</ele>
        <time>2015-03-01T11:11:12Z</time>
      </trkpt>
      <trkpt lat="49.06452" lon="1.78489">
        <ele>124.15</ele>
        <time>2015-03-01T11:11:28Z</time>
      </trkpt>
      <trkpt lat="49.06457" lon="1.78509">
        <ele>122.22</ele>
        <time>2015-03-01T11:11:41Z</time>
      </trkpt>
      <trkpt lat="49.06461" lon="1.7853">
        <ele>118.86</ele>
        <time>2015-03-01T11:11:54Z</time>
      </trkpt>
      <trkpt lat="49.06463" lon="1.7854">
        <ele>117.42</ele>
        <time>2015-03-01T11:12:00Z</time>
      </trkpt>
      <trkpt lat="49.06466" lon="1.78556">
        <ele>116.46</ele>
        <time>2015-03-01T11:12:12Z</time>
      </trkpt>
      <trkpt lat="49.06467" lon="1.78559">
        <ele>116.46</ele>
        <time>2015-03-01T11:12:14Z</time>
      </trkpt>
      <trkpt lat="49.06469" lon="1.78569">
        <ele>115.98</ele>
        <time>2015-03-01T11:12:25Z</time>
      </trkpt>
      <trkpt lat="49.06472" lon="1.78589">
        <ele>115.5</ele>
        <time>2015-03-01T11:12:37Z</time>
      </trkpt>
      <trkpt lat="49.06474" lon="1.78596">
        <ele>115.01</ele>
        <time>2015-03-01T11:12:47Z</time>
      </trkpt>
      <trkpt lat="49.06475" lon="1.78593">
        <ele>115.01</ele>
        <time>2015-03-01T11:13:04Z</time>
      </trkpt>
      <trkpt lat="49.06476" lon="1.78594">
        <ele>115.5</ele>
        <time>2015-03-01T11:13:21Z</time>
      </trkpt>
      <trkpt lat="49.06476" lon="1.78596">
        <ele>115.01</ele>
        <time>2015-03-01T11:13:40Z</time>
      </trkpt>
      <trkpt lat="49.06477" lon="1.78599">
        <ele>115.01</ele>
        <time>2015-03-01T11:13:49Z</time>
      </trkpt>
      <trkpt lat="49.06476" lon="1.78601">
        <ele>115.98</ele>
        <time>2015-03-01T11:14:00Z</time>
      </trkpt>
      <trkpt lat="49.06483" lon="1.78616">
        <ele>115.98</ele>
        <time>2015-03-01T11:14:12Z</time>
      </trkpt>
      <trkpt lat="49.06486" lon="1.78622">
        <ele>115.98</ele>
        <time>2015-03-01T11:14:17Z</time>
      </trkpt>
      <trkpt lat="49.06486" lon="1.78625">
        <ele>116.46</ele>
        <time>2015-03-01T11:14:19Z</time>
      </trkpt>
      <trkpt lat="49.06487" lon="1.78632">
        <ele>116.46</ele>
        <time>2015-03-01T11:14:24Z</time>
      </trkpt>
      <trkpt lat="49.06493" lon="1.78648">
        <ele>116.94</ele>
        <time>2015-03-01T11:14:35Z</time>
      </trkpt>
      <trkpt lat="49.06495" lon="1.78653">
        <ele>117.42</ele>
        <time>2015-03-01T11:14:39Z</time>
      </trkpt>
      <trkpt lat="49.065" lon="1.78678">
        <ele>119.34</ele>
        <time>2015-03-01T11:14:56Z</time>
      </trkpt>
      <trkpt lat="49.06506" lon="1.78701">
        <ele>120.78</ele>
        <time>2015-03-01T11:15:11Z</time>
      </trkpt>
      <trkpt lat="49.06511" lon="1.78722">
        <ele>122.22</ele>
        <time>2015-03-01T11:15:26Z</time>
      </trkpt>
      <trkpt lat="49.06514" lon="1.78731">
        <ele>123.19</ele>
        <time>2015-03-01T11:15:33Z</time>
      </trkpt>
      <trkpt lat="49.06516" lon="1.78751">
        <ele>124.15</ele>
        <time>2015-03-01T11:15:46Z</time>
      </trkpt>
      <trkpt lat="49.06517" lon="1.78755">
        <ele>124.15</ele>
        <time>2015-03-01T11:15:49Z</time>
      </trkpt>
      <trkpt lat="49.06519" lon="1.78764">
        <ele>125.11</ele>
        <time>2015-03-01T11:15:58Z</time>
      </trkpt>
      <trkpt lat="49.06526" lon="1.78782">
        <ele>125.59</ele>
        <time>2015-03-01T11:16:12Z</time>
      </trkpt>
      <trkpt lat="49.0653" lon="1.78799">
        <ele>126.07</ele>
        <time>2015-03-01T11:16:25Z</time>
      </trkpt>
      <trkpt lat="49.06534" lon="1.78819">
        <ele>126.55</ele>
        <time>2015-03-01T11:16:40Z</time>
      </trkpt>
      <trkpt lat="49.06538" lon="1.78843">
        <ele>127.51</ele>
        <time>2015-03-01T11:16:56Z</time>
      </trkpt>
      <trkpt lat="49.06542" lon="1.78863">
        <ele>128.47</ele>
        <time>2015-03-01T11:17:10Z</time>
      </trkpt>
      <trkpt lat="49.06545" lon="1.78874">
        <ele>128.95</ele>
        <time>2015-03-01T11:17:19Z</time>
      </trkpt>
      <trkpt lat="49.06547" lon="1.78894">
        <ele>129.43</ele>
        <time>2015-03-01T11:17:34Z</time>
      </trkpt>
      <trkpt lat="49.06547" lon="1.78914">
        <ele>130.4</ele>
        <time>2015-03-01T11:17:48Z</time>
      </trkpt>
      <trkpt lat="49.06548" lon="1.78935">
        <ele>130.88</ele>
        <time>2015-03-01T11:18:02Z</time>
      </trkpt>
      <trkpt lat="49.06549" lon="1.78947">
        <ele>131.36</ele>
        <time>2015-03-01T11:18:14Z</time>
      </trkpt>
      <trkpt lat="49.0655" lon="1.78966">
        <ele>132.32</ele>
        <time>2015-03-01T11:18:28Z</time>
      </trkpt>
      <trkpt lat="49.06549" lon="1.78971">
        <ele>132.8</ele>
        <time>2015-03-01T11:18:32Z</time>
      </trkpt>
      <trkpt lat="49.0655" lon="1.78986">
        <ele>134.24</ele>
        <time>2015-03-01T11:18:44Z</time>
      </trkpt>
      <trkpt lat="49.06553" lon="1.79003">
        <ele>134.72</ele>
        <time>2015-03-01T11:18:59Z</time>
      </trkpt>
      <trkpt lat="49.06559" lon="1.79017">
        <ele>136.16</ele>
        <time>2015-03-01T11:19:14Z</time>
      </trkpt>
      <trkpt lat="49.06561" lon="1.79022">
        <ele>135.68</ele>
        <time>2015-03-01T11:19:29Z</time>
      </trkpt>
      <trkpt lat="49.06564" lon="1.79026">
        <ele>135.68</ele>
        <time>2015-03-01T11:19:43Z</time>
      </trkpt>
      <trkpt lat="49.06569" lon="1.79035">
        <ele>136.16</ele>
        <time>2015-03-01T11:19:57Z</time>
      </trkpt>
      <trkpt lat="49.06577" lon="1.7905">
        <ele>137.13</ele>
        <time>2015-03-01T11:20:12Z</time>
      </trkpt>
      <trkpt lat="49.06581" lon="1.79055">
        <ele>136.64</ele>
        <time>2015-03-01T11:20:25Z</time>
      </trkpt>
      <trkpt lat="49.06588" lon="1.79069">
        <ele>139.53</ele>
        <time>2015-03-01T11:20:38Z</time>
      </trkpt>
      <trkpt lat="49.06591" lon="1.79075">
        <ele>140.01</ele>
        <time>2015-03-01T11:20:43Z</time>
      </trkpt>
      <trkpt lat="49.06596" lon="1.79094">
        <ele>141.93</ele>
        <time>2015-03-01T11:20:57Z</time>
      </trkpt>
      <trkpt lat="49.06601" lon="1.79112">
        <ele>144.82</ele>
        <time>2015-03-01T11:21:11Z</time>
      </trkpt>
      <trkpt lat="49.06604" lon="1.79129">
        <ele>146.26</ele>
        <time>2015-03-01T11:21:24Z</time>
      </trkpt>
      <trkpt lat="49.06607" lon="1.79143">
        <ele>147.22</ele>
        <time>2015-03-01T11:21:39Z</time>
      </trkpt>
      <trkpt lat="49.06606" lon="1.7916">
        <ele>147.22</ele>
        <time>2015-03-01T11:21:53Z</time>
      </trkpt>
      <trkpt lat="49.06606" lon="1.79169">
        <ele>148.18</ele>
        <time>2015-03-01T11:22:02Z</time>
      </trkpt>
      <trkpt lat="49.06609" lon="1.79175">
        <ele>148.66</ele>
        <time>2015-03-01T11:22:12Z</time>
      </trkpt>
      <trkpt lat="49.06614" lon="1.79184">
        <ele>149.62</ele>
        <time>2015-03-01T11:22:26Z</time>
      </trkpt>
      <trkpt lat="49.06614" lon="1.7921">
        <ele>150.58</ele>
        <time>2015-03-01T11:22:41Z</time>
      </trkpt>
      <trkpt lat="49.06617" lon="1.79234">
        <ele>152.51</ele>
        <time>2015-03-01T11:22:55Z</time>
      </trkpt>
      <trkpt lat="49.06615" lon="1.79241">
        <ele>152.99</ele>
        <time>2015-03-01T11:23:00Z</time>
      </trkpt>
      <trkpt lat="49.06603" lon="1.79263">
        <ele>152.51</ele>
        <time>2015-03-01T11:23:15Z</time>
      </trkpt>
      <trkpt lat="49.06599" lon="1.79275">
        <ele>152.03</ele>
        <time>2015-03-01T11:23:21Z</time>
      </trkpt>
      <trkpt lat="49.06598" lon="1.79278">
        <ele>152.51</ele>
        <time>2015-03-01T11:23:23Z</time>
      </trkpt>
      <trkpt lat="49.06594" lon="1.79291">
        <ele>152.03</ele>
        <time>2015-03-01T11:23:33Z</time>
      </trkpt>
      <trkpt lat="49.06587" lon="1.79308">
        <ele>151.54</ele>
        <time>2015-03-01T11:23:45Z</time>
      </trkpt>
      <trkpt lat="49.06586" lon="1.79314">
        <ele>151.54</ele>
        <time>2015-03-01T11:23:50Z</time>
      </trkpt>
      <trkpt lat="49.06584" lon="1.79325">
        <ele>152.03</ele>
        <time>2015-03-01T11:24:00Z</time>
      </trkpt>
      <trkpt lat="49.06573" lon="1.79352">
        <ele>152.99</ele>
        <time>2015-03-01T11:24:16Z</time>
      </trkpt>
      <trkpt lat="49.06566" lon="1.79376">
        <ele>154.91</ele>
        <time>2015-03-01T11:24:31Z</time>
      </trkpt>
      <trkpt lat="49.06558" lon="1.79388">
        <ele>155.87</ele>
        <time>2015-03-01T11:24:42Z</time>
      </trkpt>
      <trkpt lat="49.06544" lon="1.79396">
        <ele>157.31</ele>
        <time>2015-03-01T11:24:55Z</time>
      </trkpt>
      <trkpt lat="49.06531" lon="1.7939">
        <ele>155.87</ele>
        <time>2015-03-01T11:26:34Z</time>
      </trkpt>
      <trkpt lat="49.06524" lon="1.79385">
        <ele>160.68</ele>
        <time>2015-03-01T12:06:08Z</time>
      </trkpt>
      <trkpt lat="49.06523" lon="1.79384">
        <ele>160.2</ele>
        <time>2015-03-01T12:06:31Z</time>
      </trkpt>
      <trkpt lat="49.06521" lon="1.79381">
        <ele>160.2</ele>
        <time>2015-03-01T12:06:58Z</time>
      </trkpt>
      <trkpt lat="49.06524" lon="1.79385">
        <ele>160.68</ele>
        <time>2015-03-01T12:07:24Z</time>
      </trkpt>
      <trkpt lat="49.06526" lon="1.79387">
        <ele>159.72</ele>
        <time>2015-03-01T12:07:40Z</time>
      </trkpt>
      <trkpt lat="49.06532" lon="1.79398">
        <ele>161.64</ele>
        <time>2015-03-01T12:08:23Z</time>
      </trkpt>
      <trkpt lat="49.06529" lon="1.79402">
        <ele>161.64</ele>
        <time>2015-03-01T12:08:35Z</time>
      </trkpt>
      <trkpt lat="49.06528" lon="1.79403">
        <ele>162.12</ele>
        <time>2015-03-01T12:08:55Z</time>
      </trkpt>
      <trkpt lat="49.06524" lon="1.79404">
        <ele>162.12</ele>
        <time>2015-03-01T12:09:37Z</time>
      </trkpt>
      <trkpt lat="49.06524" lon="1.79406">
        <ele>162.6</ele>
        <time>2015-03-01T12:09:52Z</time>
      </trkpt>
      <trkpt lat="49.06518" lon="1.79413">
        <ele>163.08</ele>
        <time>2015-03-01T12:10:01Z</time>
      </trkpt>
      <trkpt lat="49.06516" lon="1.79413">
        <ele>162.6</ele>
        <time>2015-03-01T12:10:03Z</time>
      </trkpt>
      <trkpt lat="49.06507" lon="1.79417">
        <ele>162.6</ele>
        <time>2015-03-01T12:10:16Z</time>
      </trkpt>
      <trkpt lat="49.06497" lon="1.79415">
        <ele>163.56</ele>
        <time>2015-03-01T12:10:29Z</time>
      </trkpt>
      <trkpt lat="49.06484" lon="1.79414">
        <ele>164.04</ele>
        <time>2015-03-01T12:10:45Z</time>
      </trkpt>
      <trkpt lat="49.06468" lon="1.79413">
        <ele>165</ele>
        <time>2015-03-01T12:10:59Z</time>
      </trkpt>
      <trkpt lat="49.06467" lon="1.79413">
        <ele>165</ele>
        <time>2015-03-01T12:11:00Z</time>
      </trkpt>
      <trkpt lat="49.0645" lon="1.79409">
        <ele>165.48</ele>
        <time>2015-03-01T12:11:17Z</time>
      </trkpt>
      <trkpt lat="49.06434" lon="1.79408">
        <ele>165.48</ele>
        <time>2015-03-01T12:11:33Z</time>
      </trkpt>
      <trkpt lat="49.06425" lon="1.79411">
        <ele>166.45</ele>
        <time>2015-03-01T12:11:47Z</time>
      </trkpt>
      <trkpt lat="49.06416" lon="1.79416">
        <ele>166.93</ele>
        <time>2015-03-01T12:12:02Z</time>
      </trkpt>
      <trkpt lat="49.06404" lon="1.79421">
        <ele>167.41</ele>
        <time>2015-03-01T12:12:16Z</time>
      </trkpt>
      <trkpt lat="49.06395" lon="1.79427">
        <ele>167.41</ele>
        <time>2015-03-01T12:12:32Z</time>
      </trkpt>
      <trkpt lat="49.06377" lon="1.7944">
        <ele>168.37</ele>
        <time>2015-03-01T12:12:53Z</time>
      </trkpt>
      <trkpt lat="49.06368" lon="1.79449">
        <ele>169.33</ele>
        <time>2015-03-01T12:13:10Z</time>
      </trkpt>
      <trkpt lat="49.0636" lon="1.79465">
        <ele>170.77</ele>
        <time>2015-03-01T12:13:27Z</time>
      </trkpt>
      <trkpt lat="49.06351" lon="1.79476">
        <ele>172.69</ele>
        <time>2015-03-01T12:13:44Z</time>
      </trkpt>
      <trkpt lat="49.06342" lon="1.79497">
        <ele>174.62</ele>
        <time>2015-03-01T12:14:04Z</time>
      </trkpt>
      <trkpt lat="49.06334" lon="1.79506">
        <ele>174.14</ele>
        <time>2015-03-01T12:14:20Z</time>
      </trkpt>
      <trkpt lat="49.06331" lon="1.79524">
        <ele>174.14</ele>
        <time>2015-03-01T12:14:34Z</time>
      </trkpt>
      <trkpt lat="49.06333" lon="1.79546">
        <ele>175.58</ele>
        <time>2015-03-01T12:14:51Z</time>
      </trkpt>
      <trkpt lat="49.06329" lon="1.79553">
        <ele>176.06</ele>
        <time>2015-03-01T12:15:12Z</time>
      </trkpt>
      <trkpt lat="49.06328" lon="1.79579">
        <ele>175.1</ele>
        <time>2015-03-01T12:15:31Z</time>
      </trkpt>
      <trkpt lat="49.06327" lon="1.79583">
        <ele>175.1</ele>
        <time>2015-03-01T12:15:33Z</time>
      </trkpt>
      <trkpt lat="49.06326" lon="1.79598">
        <ele>175.1</ele>
        <time>2015-03-01T12:15:47Z</time>
      </trkpt>
      <trkpt lat="49.0632" lon="1.79619">
        <ele>174.62</ele>
        <time>2015-03-01T12:16:05Z</time>
      </trkpt>
      <trkpt lat="49.06314" lon="1.79635">
        <ele>175.1</ele>
        <time>2015-03-01T12:16:19Z</time>
      </trkpt>
      <trkpt lat="49.06305" lon="1.79655">
        <ele>176.06</ele>
        <time>2015-03-01T12:16:36Z</time>
      </trkpt>
      <trkpt lat="49.06293" lon="1.79673">
        <ele>176.54</ele>
        <time>2015-03-01T12:16:53Z</time>
      </trkpt>
      <trkpt lat="49.06285" lon="1.79685">
        <ele>177.5</ele>
        <time>2015-03-01T12:17:04Z</time>
      </trkpt>
      <trkpt lat="49.0627" lon="1.797">
        <ele>178.46</ele>
        <time>2015-03-01T12:17:24Z</time>
      </trkpt>
      <trkpt lat="49.0626" lon="1.79709">
        <ele>178.94</ele>
        <time>2015-03-01T12:17:36Z</time>
      </trkpt>
      <trkpt lat="49.06248" lon="1.79718">
        <ele>177.98</ele>
        <time>2015-03-01T12:17:51Z</time>
      </trkpt>
      <trkpt lat="49.06239" lon="1.79729">
        <ele>177.98</ele>
        <time>2015-03-01T12:18:05Z</time>
      </trkpt>
      <trkpt lat="49.06232" lon="1.79751">
        <ele>178.94</ele>
        <time>2015-03-01T12:18:22Z</time>
      </trkpt>
      <trkpt lat="49.06226" lon="1.79766">
        <ele>178.46</ele>
        <time>2015-03-01T12:18:35Z</time>
      </trkpt>
      <trkpt lat="49.06222" lon="1.79784">
        <ele>178.94</ele>
        <time>2015-03-01T12:18:49Z</time>
      </trkpt>
      <trkpt lat="49.06218" lon="1.79801">
        <ele>179.42</ele>
        <time>2015-03-01T12:19:03Z</time>
      </trkpt>
      <trkpt lat="49.06209" lon="1.79812">
        <ele>178.94</ele>
        <time>2015-03-01T12:19:19Z</time>
      </trkpt>
      <trkpt lat="49.06199" lon="1.79828">
        <ele>179.42</ele>
        <time>2015-03-01T12:19:35Z</time>
      </trkpt>
      <trkpt lat="49.06191" lon="1.79838">
        <ele>179.42</ele>
        <time>2015-03-01T12:19:50Z</time>
      </trkpt>
      <trkpt lat="49.06182" lon="1.79854">
        <ele>178.94</ele>
        <time>2015-03-01T12:20:05Z</time>
      </trkpt>
      <trkpt lat="49.06168" lon="1.79873">
        <ele>179.42</ele>
        <time>2015-03-01T12:20:23Z</time>
      </trkpt>
      <trkpt lat="49.06154" lon="1.79892">
        <ele>179.42</ele>
        <time>2015-03-01T12:20:40Z</time>
      </trkpt>
      <trkpt lat="49.06144" lon="1.79903">
        <ele>179.9</ele>
        <time>2015-03-01T12:20:57Z</time>
      </trkpt>
      <trkpt lat="49.0613" lon="1.79914">
        <ele>181.83</ele>
        <time>2015-03-01T12:21:13Z</time>
      </trkpt>
      <trkpt lat="49.0612" lon="1.79929">
        <ele>181.35</ele>
        <time>2015-03-01T12:21:30Z</time>
      </trkpt>
      <trkpt lat="49.06101" lon="1.79942">
        <ele>183.27</ele>
        <time>2015-03-01T12:21:47Z</time>
      </trkpt>
      <trkpt lat="49.06089" lon="1.79952">
        <ele>184.23</ele>
        <time>2015-03-01T12:22:02Z</time>
      </trkpt>
      <trkpt lat="49.06087" lon="1.79972">
        <ele>186.63</ele>
        <time>2015-03-01T12:22:20Z</time>
      </trkpt>
      <trkpt lat="49.06076" lon="1.79993">
        <ele>187.11</ele>
        <time>2015-03-01T12:22:39Z</time>
      </trkpt>
      <trkpt lat="49.06068" lon="1.79998">
        <ele>186.63</ele>
        <time>2015-03-01T12:22:45Z</time>
      </trkpt>
      <trkpt lat="49.06049" lon="1.80015">
        <ele>188.08</ele>
        <time>2015-03-01T12:23:04Z</time>
      </trkpt>
      <trkpt lat="49.06034" lon="1.80026">
        <ele>189.04</ele>
        <time>2015-03-01T12:23:22Z</time>
      </trkpt>
      <trkpt lat="49.0602" lon="1.80054">
        <ele>189.04</ele>
        <time>2015-03-01T12:23:43Z</time>
      </trkpt>
      <trkpt lat="49.06009" lon="1.80081">
        <ele>189.52</ele>
        <time>2015-03-01T12:23:59Z</time>
      </trkpt>
      <trkpt lat="49.06" lon="1.80101">
        <ele>189.04</ele>
        <time>2015-03-01T12:24:14Z</time>
      </trkpt>
      <trkpt lat="49.05991" lon="1.80123">
        <ele>189.04</ele>
        <time>2015-03-01T12:24:29Z</time>
      </trkpt>
      <trkpt lat="49.05981" lon="1.80137">
        <ele>190</ele>
        <time>2015-03-01T12:24:44Z</time>
      </trkpt>
      <trkpt lat="49.0597" lon="1.80153">
        <ele>188.56</ele>
        <time>2015-03-01T12:24:59Z</time>
      </trkpt>
      <trkpt lat="49.0596" lon="1.80176">
        <ele>188.08</ele>
        <time>2015-03-01T12:25:15Z</time>
      </trkpt>
      <trkpt lat="49.05954" lon="1.80188">
        <ele>188.08</ele>
        <time>2015-03-01T12:25:26Z</time>
      </trkpt>
      <trkpt lat="49.05932" lon="1.80212">
        <ele>187.11</ele>
        <time>2015-03-01T12:25:44Z</time>
      </trkpt>
      <trkpt lat="49.05929" lon="1.80213">
        <ele>186.63</ele>
        <time>2015-03-01T12:25:58Z</time>
      </trkpt>
      <trkpt lat="49.05928" lon="1.80216">
        <ele>186.63</ele>
        <time>2015-03-01T12:26:19Z</time>
      </trkpt>
      <trkpt lat="49.05936" lon="1.80216">
        <ele>186.63</ele>
        <time>2015-03-01T12:26:40Z</time>
      </trkpt>
      <trkpt lat="49.0593" lon="1.80204">
        <ele>186.63</ele>
        <time>2015-03-01T12:27:02Z</time>
      </trkpt>
      <trkpt lat="49.05931" lon="1.80211">
        <ele>187.11</ele>
        <time>2015-03-01T12:27:25Z</time>
      </trkpt>
      <trkpt lat="49.0593" lon="1.80218">
        <ele>186.63</ele>
        <time>2015-03-01T12:27:47Z</time>
      </trkpt>
      <trkpt lat="49.05926" lon="1.80217">
        <ele>187.11</ele>
        <time>2015-03-01T12:28:12Z</time>
      </trkpt>
      <trkpt lat="49.05932" lon="1.80209">
        <ele>186.63</ele>
        <time>2015-03-01T12:28:38Z</time>
      </trkpt>
      <trkpt lat="49.05927" lon="1.80212">
        <ele>187.11</ele>
        <time>2015-03-01T12:29:01Z</time>
      </trkpt>
      <trkpt lat="49.05931" lon="1.80206">
        <ele>187.11</ele>
        <time>2015-03-01T12:29:28Z</time>
      </trkpt>
      <trkpt lat="49.05924" lon="1.80209">
        <ele>186.63</ele>
        <time>2015-03-01T12:29:59Z</time>
      </trkpt>
      <trkpt lat="49.05925" lon="1.80234">
        <ele>186.63</ele>
        <time>2015-03-01T12:30:17Z</time>
      </trkpt>
      <trkpt lat="49.05918" lon="1.80269">
        <ele>184.71</ele>
        <time>2015-03-01T12:30:37Z</time>
      </trkpt>
      <trkpt lat="49.05921" lon="1.80302">
        <ele>182.79</ele>
        <time>2015-03-01T12:30:56Z</time>
      </trkpt>
      <trkpt lat="49.05917" lon="1.80331">
        <ele>180.38</ele>
        <time>2015-03-01T12:31:12Z</time>
      </trkpt>
      <trkpt lat="49.05915" lon="1.80359">
        <ele>178.94</ele>
        <time>2015-03-01T12:31:31Z</time>
      </trkpt>
      <trkpt lat="49.05914" lon="1.80379">
        <ele>177.98</ele>
        <time>2015-03-01T12:31:47Z</time>
      </trkpt>
      <trkpt lat="49.05916" lon="1.80409">
        <ele>177.02</ele>
        <time>2015-03-01T12:32:01Z</time>
      </trkpt>
      <trkpt lat="49.05915" lon="1.80432">
        <ele>176.06</ele>
        <time>2015-03-01T12:32:15Z</time>
      </trkpt>
      <trkpt lat="49.05914" lon="1.80455">
        <ele>174.62</ele>
        <time>2015-03-01T12:32:30Z</time>
      </trkpt>
      <trkpt lat="49.05911" lon="1.80482">
        <ele>172.69</ele>
        <time>2015-03-01T12:32:45Z</time>
      </trkpt>
      <trkpt lat="49.0591" lon="1.8051">
        <ele>170.29</ele>
        <time>2015-03-01T12:33:03Z</time>
      </trkpt>
      <trkpt lat="49.05909" lon="1.80521">
        <ele>169.81</ele>
        <time>2015-03-01T12:33:09Z</time>
      </trkpt>
      <trkpt lat="49.05908" lon="1.80535">
        <ele>168.37</ele>
        <time>2015-03-01T12:33:16Z</time>
      </trkpt>
      <trkpt lat="49.05905" lon="1.80566">
        <ele>166.93</ele>
        <time>2015-03-01T12:33:33Z</time>
      </trkpt>
      <trkpt lat="49.05907" lon="1.80598">
        <ele>164.52</ele>
        <time>2015-03-01T12:33:50Z</time>
      </trkpt>
      <trkpt lat="49.05912" lon="1.80626">
        <ele>163.08</ele>
        <time>2015-03-01T12:34:07Z</time>
      </trkpt>
      <trkpt lat="49.05912" lon="1.80629">
        <ele>162.12</ele>
        <time>2015-03-01T12:34:09Z</time>
      </trkpt>
      <trkpt lat="49.05917" lon="1.80652">
        <ele>160.2</ele>
        <time>2015-03-01T12:34:23Z</time>
      </trkpt>
      <trkpt lat="49.0592" lon="1.80679">
        <ele>157.79</ele>
        <time>2015-03-01T12:34:38Z</time>
      </trkpt>
      <trkpt lat="49.05921" lon="1.80708">
        <ele>156.35</ele>
        <time>2015-03-01T12:34:55Z</time>
      </trkpt>
      <trkpt lat="49.05925" lon="1.80732">
        <ele>154.91</ele>
        <time>2015-03-01T12:35:09Z</time>
      </trkpt>
      <trkpt lat="49.05924" lon="1.80752">
        <ele>152.03</ele>
        <time>2015-03-01T12:35:25Z</time>
      </trkpt>
      <trkpt lat="49.0593" lon="1.80786">
        <ele>150.58</ele>
        <time>2015-03-01T12:35:43Z</time>
      </trkpt>
      <trkpt lat="49.05932" lon="1.80808">
        <ele>148.18</ele>
        <time>2015-03-01T12:35:57Z</time>
      </trkpt>
      <trkpt lat="49.05934" lon="1.8083">
        <ele>146.26</ele>
        <time>2015-03-01T12:36:11Z</time>
      </trkpt>
      <trkpt lat="49.05937" lon="1.80858">
        <ele>144.34</ele>
        <time>2015-03-01T12:36:26Z</time>
      </trkpt>
      <trkpt lat="49.05938" lon="1.80869">
        <ele>143.37</ele>
        <time>2015-03-01T12:36:33Z</time>
      </trkpt>
      <trkpt lat="49.05939" lon="1.80885">
        <ele>141.45</ele>
        <time>2015-03-01T12:36:46Z</time>
      </trkpt>
      <trkpt lat="49.05939" lon="1.80893">
        <ele>141.45</ele>
        <time>2015-03-01T12:36:50Z</time>
      </trkpt>
      <trkpt lat="49.05941" lon="1.8092">
        <ele>140.01</ele>
        <time>2015-03-01T12:37:05Z</time>
      </trkpt>
      <trkpt lat="49.05939" lon="1.80946">
        <ele>136.64</ele>
        <time>2015-03-01T12:37:21Z</time>
      </trkpt>
      <trkpt lat="49.05942" lon="1.80968">
        <ele>134.72</ele>
        <time>2015-03-01T12:37:33Z</time>
      </trkpt>
      <trkpt lat="49.05947" lon="1.80992">
        <ele>132.8</ele>
        <time>2015-03-01T12:37:49Z</time>
      </trkpt>
      <trkpt lat="49.05947" lon="1.80993">
        <ele>132.8</ele>
        <time>2015-03-01T12:37:50Z</time>
      </trkpt>
      <trkpt lat="49.05947" lon="1.81008">
        <ele>131.84</ele>
        <time>2015-03-01T12:37:58Z</time>
      </trkpt>
      <trkpt lat="49.05951" lon="1.81022">
        <ele>130.4</ele>
        <time>2015-03-01T12:38:07Z</time>
      </trkpt>
      <trkpt lat="49.0595" lon="1.81026">
        <ele>130.4</ele>
        <time>2015-03-01T12:38:09Z</time>
      </trkpt>
      <trkpt lat="49.05955" lon="1.81051">
        <ele>129.92</ele>
        <time>2015-03-01T12:38:25Z</time>
      </trkpt>
      <trkpt lat="49.05949" lon="1.81058">
        <ele>129.43</ele>
        <time>2015-03-01T12:38:38Z</time>
      </trkpt>
      <trkpt lat="49.05947" lon="1.81061">
        <ele>128.95</ele>
        <time>2015-03-01T12:38:41Z</time>
      </trkpt>
      <trkpt lat="49.05944" lon="1.81069">
        <ele>129.43</ele>
        <time>2015-03-01T12:38:47Z</time>
      </trkpt>
      <trkpt lat="49.0595" lon="1.81075">
        <ele>128.95</ele>
        <time>2015-03-01T12:39:02Z</time>
      </trkpt>
      <trkpt lat="49.05949" lon="1.81074">
        <ele>128.47</ele>
        <time>2015-03-01T12:39:21Z</time>
      </trkpt>
      <trkpt lat="49.05949" lon="1.81077">
        <ele>128.47</ele>
        <time>2015-03-01T12:39:42Z</time>
      </trkpt>
      <trkpt lat="49.05948" lon="1.81075">
        <ele>129.43</ele>
        <time>2015-03-01T12:40:11Z</time>
      </trkpt>
      <trkpt lat="49.05947" lon="1.81076">
        <ele>129.43</ele>
        <time>2015-03-01T12:40:36Z</time>
      </trkpt>
      <trkpt lat="49.05947" lon="1.81077">
        <ele>128.47</ele>
        <time>2015-03-01T12:41:00Z</time>
      </trkpt>
      <trkpt lat="49.05947" lon="1.81075">
        <ele>128.47</ele>
        <time>2015-03-01T12:41:21Z</time>
      </trkpt>
      <trkpt lat="49.0595" lon="1.81081">
        <ele>127.99</ele>
        <time>2015-03-01T12:41:49Z</time>
      </trkpt>
      <trkpt lat="49.05954" lon="1.81081">
        <ele>129.92</ele>
        <time>2015-03-01T12:41:54Z</time>
      </trkpt>
      <trkpt lat="49.05955" lon="1.81084">
        <ele>131.36</ele>
        <time>2015-03-01T12:42:07Z</time>
      </trkpt>
      <trkpt lat="49.05955" lon="1.81093">
        <ele>130.88</ele>
        <time>2015-03-01T12:42:14Z</time>
      </trkpt>
      <trkpt lat="49.05953" lon="1.81102">
        <ele>129.92</ele>
        <time>2015-03-01T12:42:20Z</time>
      </trkpt>
      <trkpt lat="49.05952" lon="1.81116">
        <ele>129.43</ele>
        <time>2015-03-01T12:42:30Z</time>
      </trkpt>
      <trkpt lat="49.0595" lon="1.81131">
        <ele>129.92</ele>
        <time>2015-03-01T12:42:43Z</time>
      </trkpt>
      <trkpt lat="49.0595" lon="1.81135">
        <ele>129.92</ele>
        <time>2015-03-01T12:42:46Z</time>
      </trkpt>
      <trkpt lat="49.05946" lon="1.81156">
        <ele>131.36</ele>
        <time>2015-03-01T12:42:59Z</time>
      </trkpt>
      <trkpt lat="49.05945" lon="1.81162">
        <ele>131.36</ele>
        <time>2015-03-01T12:43:03Z</time>
      </trkpt>
      <trkpt lat="49.05943" lon="1.81173">
        <ele>131.36</ele>
        <time>2015-03-01T12:43:09Z</time>
      </trkpt>
      <trkpt lat="49.05941" lon="1.81184">
        <ele>131.36</ele>
        <time>2015-03-01T12:43:16Z</time>
      </trkpt>
      <trkpt lat="49.0594" lon="1.81189">
        <ele>131.36</ele>
        <time>2015-03-01T12:43:19Z</time>
      </trkpt>
      <trkpt lat="49.0594" lon="1.81192">
        <ele>131.84</ele>
        <time>2015-03-01T12:43:21Z</time>
      </trkpt>
      <trkpt lat="49.05937" lon="1.81204">
        <ele>132.32</ele>
        <time>2015-03-01T12:43:29Z</time>
      </trkpt>
      <trkpt lat="49.05935" lon="1.81208">
        <ele>132.8</ele>
        <time>2015-03-01T12:43:32Z</time>
      </trkpt>
      <trkpt lat="49.05934" lon="1.81219">
        <ele>133.28</ele>
        <time>2015-03-01T12:43:39Z</time>
      </trkpt>
      <trkpt lat="49.05932" lon="1.8124">
        <ele>134.72</ele>
        <time>2015-03-01T12:43:51Z</time>
      </trkpt>
      <trkpt lat="49.05929" lon="1.81248">
        <ele>134.72</ele>
        <time>2015-03-01T12:43:56Z</time>
      </trkpt>
      <trkpt lat="49.05929" lon="1.81257">
        <ele>135.2</ele>
        <time>2015-03-01T12:44:02Z</time>
      </trkpt>
      <trkpt lat="49.05925" lon="1.81272">
        <ele>135.2</ele>
        <time>2015-03-01T12:44:11Z</time>
      </trkpt>
      <trkpt lat="49.05922" lon="1.8128">
        <ele>135.2</ele>
        <time>2015-03-01T12:44:15Z</time>
      </trkpt>
      <trkpt lat="49.0592" lon="1.81298">
        <ele>136.64</ele>
        <time>2015-03-01T12:44:24Z</time>
      </trkpt>
      <trkpt lat="49.05913" lon="1.81322">
        <ele>137.61</ele>
        <time>2015-03-01T12:44:38Z</time>
      </trkpt>
      <trkpt lat="49.05913" lon="1.81324">
        <ele>137.61</ele>
        <time>2015-03-01T12:44:39Z</time>
      </trkpt>
      <trkpt lat="49.05908" lon="1.81343">
        <ele>137.61</ele>
        <time>2015-03-01T12:44:54Z</time>
      </trkpt>
      <trkpt lat="49.05904" lon="1.81366">
        <ele>140.97</ele>
        <time>2015-03-01T12:45:08Z</time>
      </trkpt>
      <trkpt lat="49.05908" lon="1.81374">
        <ele>140.01</ele>
        <time>2015-03-01T12:45:13Z</time>
      </trkpt>
      <trkpt lat="49.0591" lon="1.81381">
        <ele>140.49</ele>
        <time>2015-03-01T12:45:16Z</time>
      </trkpt>
      <trkpt lat="49.05909" lon="1.81388">
        <ele>140.49</ele>
        <time>2015-03-01T12:45:20Z</time>
      </trkpt>
      <trkpt lat="49.05913" lon="1.81406">
        <ele>142.41</ele>
        <time>2015-03-01T12:45:33Z</time>
      </trkpt>
      <trkpt lat="49.0592" lon="1.81414">
        <ele>143.85</ele>
        <time>2015-03-01T12:45:49Z</time>
      </trkpt>
      <trkpt lat="49.05917" lon="1.81418">
        <ele>143.37</ele>
        <time>2015-03-01T12:46:07Z</time>
      </trkpt>
      <trkpt lat="49.05917" lon="1.81425">
        <ele>143.85</ele>
        <time>2015-03-01T12:46:23Z</time>
      </trkpt>
      <trkpt lat="49.05911" lon="1.81427">
        <ele>143.85</ele>
        <time>2015-03-01T12:46:35Z</time>
      </trkpt>
      <trkpt lat="49.05913" lon="1.81435">
        <ele>145.78</ele>
        <time>2015-03-01T12:46:41Z</time>
      </trkpt>
      <trkpt lat="49.05915" lon="1.81453">
        <ele>144.82</ele>
        <time>2015-03-01T12:46:48Z</time>
      </trkpt>
      <trkpt lat="49.05916" lon="1.81458">
        <ele>145.3</ele>
        <time>2015-03-01T12:46:50Z</time>
      </trkpt>
      <trkpt lat="49.05916" lon="1.81462">
        <ele>145.3</ele>
        <time>2015-03-01T12:46:52Z</time>
      </trkpt>
      <trkpt lat="49.05922" lon="1.81484">
        <ele>146.74</ele>
        <time>2015-03-01T12:47:07Z</time>
      </trkpt>
      <trkpt lat="49.05926" lon="1.8149">
        <ele>147.7</ele>
        <time>2015-03-01T12:47:12Z</time>
      </trkpt>
      <trkpt lat="49.05935" lon="1.815">
        <ele>148.18</ele>
        <time>2015-03-01T12:47:20Z</time>
      </trkpt>
      <trkpt lat="49.05936" lon="1.81503">
        <ele>148.66</ele>
        <time>2015-03-01T12:47:22Z</time>
      </trkpt>
      <trkpt lat="49.05938" lon="1.81514">
        <ele>149.14</ele>
        <time>2015-03-01T12:47:29Z</time>
      </trkpt>
      <trkpt lat="49.05936" lon="1.81536">
        <ele>150.1</ele>
        <time>2015-03-01T12:47:42Z</time>
      </trkpt>
      <trkpt lat="49.05933" lon="1.81541">
        <ele>151.06</ele>
        <time>2015-03-01T12:47:45Z</time>
      </trkpt>
      <trkpt lat="49.05939" lon="1.81561">
        <ele>152.99</ele>
        <time>2015-03-01T12:47:58Z</time>
      </trkpt>
      <trkpt lat="49.05948" lon="1.81576">
        <ele>155.87</ele>
        <time>2015-03-01T12:48:12Z</time>
      </trkpt>
      <trkpt lat="49.05957" lon="1.81574">
        <ele>156.83</ele>
        <time>2015-03-01T12:48:25Z</time>
      </trkpt>
      <trkpt lat="49.05969" lon="1.81566">
        <ele>158.27</ele>
        <time>2015-03-01T12:48:39Z</time>
      </trkpt>
      <trkpt lat="49.05979" lon="1.8156">
        <ele>158.75</ele>
        <time>2015-03-01T12:48:48Z</time>
      </trkpt>
      <trkpt lat="49.05983" lon="1.81559">
        <ele>159.24</ele>
        <time>2015-03-01T12:48:51Z</time>
      </trkpt>
      <trkpt lat="49.05996" lon="1.81547">
        <ele>160.68</ele>
        <time>2015-03-01T12:49:04Z</time>
      </trkpt>
      <trkpt lat="49.06011" lon="1.81537">
        <ele>160.68</ele>
        <time>2015-03-01T12:49:20Z</time>
      </trkpt>
      <trkpt lat="49.06028" lon="1.8153">
        <ele>161.16</ele>
        <time>2015-03-01T12:49:37Z</time>
      </trkpt>
      <trkpt lat="49.06045" lon="1.81519">
        <ele>161.64</ele>
        <time>2015-03-01T12:49:52Z</time>
      </trkpt>
      <trkpt lat="49.06058" lon="1.81509">
        <ele>160.2</ele>
        <time>2015-03-01T12:50:04Z</time>
      </trkpt>
      <trkpt lat="49.06077" lon="1.81499">
        <ele>161.16</ele>
        <time>2015-03-01T12:50:20Z</time>
      </trkpt>
      <trkpt lat="49.06091" lon="1.81486">
        <ele>160.2</ele>
        <time>2015-03-01T12:50:35Z</time>
      </trkpt>
      <trkpt lat="49.061" lon="1.81464">
        <ele>158.27</ele>
        <time>2015-03-01T12:50:50Z</time>
      </trkpt>
      <trkpt lat="49.06104" lon="1.81456">
        <ele>155.87</ele>
        <time>2015-03-01T12:50:56Z</time>
      </trkpt>
      <trkpt lat="49.06116" lon="1.81446">
        <ele>156.35</ele>
        <time>2015-03-01T12:51:12Z</time>
      </trkpt>
      <trkpt lat="49.06116" lon="1.81441">
        <ele>158.75</ele>
        <time>2015-03-01T12:51:32Z</time>
      </trkpt>
      <trkpt lat="49.06114" lon="1.81443">
        <ele>156.35</ele>
        <time>2015-03-01T12:51:51Z</time>
      </trkpt>
      <trkpt lat="49.06114" lon="1.81443">
        <ele>156.83</ele>
        <time>2015-03-01T12:51:52Z</time>
      </trkpt>
      <trkpt lat="49.06116" lon="1.81444">
        <ele>156.35</ele>
        <time>2015-03-01T12:51:54Z</time>
      </trkpt>
      <trkpt lat="49.06122" lon="1.81446">
        <ele>157.79</ele>
        <time>2015-03-01T12:51:58Z</time>
      </trkpt>
      <trkpt lat="49.06123" lon="1.81447">
        <ele>157.79</ele>
        <time>2015-03-01T12:51:59Z</time>
      </trkpt>
      <trkpt lat="49.06142" lon="1.81454">
        <ele>161.16</ele>
        <time>2015-03-01T12:52:14Z</time>
      </trkpt>
      <trkpt lat="49.06157" lon="1.81461">
        <ele>161.64</ele>
        <time>2015-03-01T12:52:30Z</time>
      </trkpt>
      <trkpt lat="49.06176" lon="1.81472">
        <ele>162.12</ele>
        <time>2015-03-01T12:52:45Z</time>
      </trkpt>
      <trkpt lat="49.06178" lon="1.81473">
        <ele>162.6</ele>
        <time>2015-03-01T12:52:46Z</time>
      </trkpt>
      <trkpt lat="49.06191" lon="1.8148">
        <ele>163.08</ele>
        <time>2015-03-01T12:52:59Z</time>
      </trkpt>
      <trkpt lat="49.06194" lon="1.81482">
        <ele>163.56</ele>
        <time>2015-03-01T12:53:01Z</time>
      </trkpt>
      <trkpt lat="49.06207" lon="1.81476">
        <ele>162.12</ele>
        <time>2015-03-01T12:53:14Z</time>
      </trkpt>
      <trkpt lat="49.06217" lon="1.81472">
        <ele>165.48</ele>
        <time>2015-03-01T12:53:24Z</time>
      </trkpt>
      <trkpt lat="49.0622" lon="1.81471">
        <ele>164.04</ele>
        <time>2015-03-01T12:53:27Z</time>
      </trkpt>
      <trkpt lat="49.06233" lon="1.81465">
        <ele>163.08</ele>
        <time>2015-03-01T12:53:39Z</time>
      </trkpt>
      <trkpt lat="49.06247" lon="1.81459">
        <ele>164.04</ele>
        <time>2015-03-01T12:53:49Z</time>
      </trkpt>
      <trkpt lat="49.06265" lon="1.81452">
        <ele>163.56</ele>
        <time>2015-03-01T12:54:04Z</time>
      </trkpt>
      <trkpt lat="49.0628" lon="1.81443">
        <ele>164.52</ele>
        <time>2015-03-01T12:54:21Z</time>
      </trkpt>
      <trkpt lat="49.06282" lon="1.81443">
        <ele>165</ele>
        <time>2015-03-01T12:54:22Z</time>
      </trkpt>
      <trkpt lat="49.06298" lon="1.81436">
        <ele>165</ele>
        <time>2015-03-01T12:54:35Z</time>
      </trkpt>
      <trkpt lat="49.06311" lon="1.81428">
        <ele>164.52</ele>
        <time>2015-03-01T12:54:48Z</time>
      </trkpt>
      <trkpt lat="49.06317" lon="1.81425">
        <ele>165.48</ele>
        <time>2015-03-01T12:54:52Z</time>
      </trkpt>
      <trkpt lat="49.06335" lon="1.8142">
        <ele>165.48</ele>
        <time>2015-03-01T12:55:09Z</time>
      </trkpt>
      <trkpt lat="49.06349" lon="1.81425">
        <ele>166.45</ele>
        <time>2015-03-01T12:55:24Z</time>
      </trkpt>
      <trkpt lat="49.06357" lon="1.81433">
        <ele>167.41</ele>
        <time>2015-03-01T12:55:35Z</time>
      </trkpt>
      <trkpt lat="49.06373" lon="1.81435">
        <ele>167.41</ele>
        <time>2015-03-01T12:55:47Z</time>
      </trkpt>
      <trkpt lat="49.06385" lon="1.81437">
        <ele>169.33</ele>
        <time>2015-03-01T12:56:01Z</time>
      </trkpt>
      <trkpt lat="49.06385" lon="1.81433">
        <ele>169.33</ele>
        <time>2015-03-01T12:56:06Z</time>
      </trkpt>
      <trkpt lat="49.0638" lon="1.81423">
        <ele>168.37</ele>
        <time>2015-03-01T12:56:19Z</time>
      </trkpt>
      <trkpt lat="49.0638" lon="1.81423">
        <ele>168.37</ele>
        <time>2015-03-01T12:56:30Z</time>
      </trkpt>
      <trkpt lat="49.06391" lon="1.81427">
        <ele>168.85</ele>
        <time>2015-03-01T12:56:45Z</time>
      </trkpt>
      <trkpt lat="49.06406" lon="1.81439">
        <ele>169.81</ele>
        <time>2015-03-01T12:57:01Z</time>
      </trkpt>
      <trkpt lat="49.0642" lon="1.81442">
        <ele>172.21</ele>
        <time>2015-03-01T12:57:15Z</time>
      </trkpt>
      <trkpt lat="49.06426" lon="1.81446">
        <ele>172.69</ele>
        <time>2015-03-01T12:57:24Z</time>
      </trkpt>
      <trkpt lat="49.0644" lon="1.8145">
        <ele>174.62</ele>
        <time>2015-03-01T12:57:38Z</time>
      </trkpt>
      <trkpt lat="49.06455" lon="1.81454">
        <ele>176.06</ele>
        <time>2015-03-01T12:57:54Z</time>
      </trkpt>
      <trkpt lat="49.0646" lon="1.81452">
        <ele>176.54</ele>
        <time>2015-03-01T12:58:13Z</time>
      </trkpt>
      <trkpt lat="49.06471" lon="1.81462">
        <ele>177.98</ele>
        <time>2015-03-01T12:58:32Z</time>
      </trkpt>
      <trkpt lat="49.06491" lon="1.8147">
        <ele>178.94</ele>
        <time>2015-03-01T12:58:50Z</time>
      </trkpt>
      <trkpt lat="49.06506" lon="1.81476">
        <ele>181.35</ele>
        <time>2015-03-01T12:59:06Z</time>
      </trkpt>
      <trkpt lat="49.06524" lon="1.81484">
        <ele>181.83</ele>
        <time>2015-03-01T12:59:20Z</time>
      </trkpt>
      <trkpt lat="49.06544" lon="1.81488">
        <ele>181.83</ele>
        <time>2015-03-01T12:59:35Z</time>
      </trkpt>
      <trkpt lat="49.06548" lon="1.8149">
        <ele>181.35</ele>
        <time>2015-03-01T12:59:40Z</time>
      </trkpt>
      <trkpt lat="49.06553" lon="1.81493">
        <ele>182.79</ele>
        <time>2015-03-01T12:59:47Z</time>
      </trkpt>
      <trkpt lat="49.06568" lon="1.81506">
        <ele>182.79</ele>
        <time>2015-03-01T13:00:03Z</time>
      </trkpt>
      <trkpt lat="49.06583" lon="1.8152">
        <ele>182.79</ele>
        <time>2015-03-01T13:00:19Z</time>
      </trkpt>
      <trkpt lat="49.06586" lon="1.81522">
        <ele>182.79</ele>
        <time>2015-03-01T13:00:23Z</time>
      </trkpt>
      <trkpt lat="49.06603" lon="1.81537">
        <ele>180.87</ele>
        <time>2015-03-01T13:00:41Z</time>
      </trkpt>
      <trkpt lat="49.06614" lon="1.81549">
        <ele>181.83</ele>
        <time>2015-03-01T13:00:50Z</time>
      </trkpt>
      <trkpt lat="49.0663" lon="1.8156">
        <ele>178.94</ele>
        <time>2015-03-01T13:01:05Z</time>
      </trkpt>
      <trkpt lat="49.06645" lon="1.81576">
        <ele>179.9</ele>
        <time>2015-03-01T13:01:21Z</time>
      </trkpt>
      <trkpt lat="49.06646" lon="1.81577">
        <ele>179.9</ele>
        <time>2015-03-01T13:01:22Z</time>
      </trkpt>
      <trkpt lat="49.06651" lon="1.81586">
        <ele>178.94</ele>
        <time>2015-03-01T13:01:29Z</time>
      </trkpt>
      <trkpt lat="49.06662" lon="1.81598">
        <ele>179.42</ele>
        <time>2015-03-01T13:01:43Z</time>
      </trkpt>
      <trkpt lat="49.06665" lon="1.81602">
        <ele>177.98</ele>
        <time>2015-03-01T13:01:54Z</time>
      </trkpt>
      <trkpt lat="49.06678" lon="1.81617">
        <ele>178.46</ele>
        <time>2015-03-01T13:02:10Z</time>
      </trkpt>
      <trkpt lat="49.06677" lon="1.81618">
        <ele>178.46</ele>
        <time>2015-03-01T13:02:14Z</time>
      </trkpt>
      <trkpt lat="49.06686" lon="1.81626">
        <ele>177.5</ele>
        <time>2015-03-01T13:02:25Z</time>
      </trkpt>
      <trkpt lat="49.06703" lon="1.81646">
        <ele>175.1</ele>
        <time>2015-03-01T13:02:43Z</time>
      </trkpt>
      <trkpt lat="49.06715" lon="1.81662">
        <ele>175.1</ele>
        <time>2015-03-01T13:02:59Z</time>
      </trkpt>
      <trkpt lat="49.0672" lon="1.81669">
        <ele>174.14</ele>
        <time>2015-03-01T13:03:07Z</time>
      </trkpt>
      <trkpt lat="49.06737" lon="1.81676">
        <ele>172.69</ele>
        <time>2015-03-01T13:03:24Z</time>
      </trkpt>
      <trkpt lat="49.06753" lon="1.81683">
        <ele>170.29</ele>
        <time>2015-03-01T13:03:40Z</time>
      </trkpt>
      <trkpt lat="49.06765" lon="1.81694">
        <ele>169.33</ele>
        <time>2015-03-01T13:03:54Z</time>
      </trkpt>
      <trkpt lat="49.06779" lon="1.81712">
        <ele>168.37</ele>
        <time>2015-03-01T13:04:11Z</time>
      </trkpt>
      <trkpt lat="49.06789" lon="1.81723">
        <ele>165</ele>
        <time>2015-03-01T13:04:27Z</time>
      </trkpt>
      <trkpt lat="49.0679" lon="1.81725">
        <ele>165</ele>
        <time>2015-03-01T13:04:28Z</time>
      </trkpt>
      <trkpt lat="49.06804" lon="1.81736">
        <ele>165</ele>
        <time>2015-03-01T13:04:44Z</time>
      </trkpt>
      <trkpt lat="49.06807" lon="1.81735">
        <ele>163.08</ele>
        <time>2015-03-01T13:04:49Z</time>
      </trkpt>
      <trkpt lat="49.06819" lon="1.81739">
        <ele>162.12</ele>
        <time>2015-03-01T13:05:02Z</time>
      </trkpt>
      <trkpt lat="49.06836" lon="1.81734">
        <ele>159.72</ele>
        <time>2015-03-01T13:05:16Z</time>
      </trkpt>
      <trkpt lat="49.06861" lon="1.81732">
        <ele>157.79</ele>
        <time>2015-03-01T13:05:35Z</time>
      </trkpt>
      <trkpt lat="49.06876" lon="1.81728">
        <ele>156.35</ele>
        <time>2015-03-01T13:05:50Z</time>
      </trkpt>
      <trkpt lat="49.06891" lon="1.8173">
        <ele>154.91</ele>
        <time>2015-03-01T13:06:07Z</time>
      </trkpt>
      <trkpt lat="49.06912" lon="1.81731">
        <ele>152.51</ele>
        <time>2015-03-01T13:06:24Z</time>
      </trkpt>
      <trkpt lat="49.06918" lon="1.81734">
        <ele>152.03</ele>
        <time>2015-03-01T13:06:31Z</time>
      </trkpt>
      <trkpt lat="49.06934" lon="1.81737">
        <ele>151.06</ele>
        <time>2015-03-01T13:06:46Z</time>
      </trkpt>
      <trkpt lat="49.06949" lon="1.8174">
        <ele>150.58</ele>
        <time>2015-03-01T13:07:00Z</time>
      </trkpt>
      <trkpt lat="49.0696" lon="1.81748">
        <ele>149.14</ele>
        <time>2015-03-01T13:07:11Z</time>
      </trkpt>
      <trkpt lat="49.06976" lon="1.81751">
        <ele>151.06</ele>
        <time>2015-03-01T13:07:25Z</time>
      </trkpt>
      <trkpt lat="49.06992" lon="1.81753">
        <ele>148.66</ele>
        <time>2015-03-01T13:07:43Z</time>
      </trkpt>
      <trkpt lat="49.06996" lon="1.81753">
        <ele>148.66</ele>
        <time>2015-03-01T13:07:47Z</time>
      </trkpt>
      <trkpt lat="49.07005" lon="1.81755">
        <ele>147.7</ele>
        <time>2015-03-01T13:08:01Z</time>
      </trkpt>
      <trkpt lat="49.07008" lon="1.81756">
        <ele>147.22</ele>
        <time>2015-03-01T13:08:27Z</time>
      </trkpt>
      <trkpt lat="49.07013" lon="1.81763">
        <ele>146.74</ele>
        <time>2015-03-01T13:08:46Z</time>
      </trkpt>
      <trkpt lat="49.07013" lon="1.81764">
        <ele>147.22</ele>
        <time>2015-03-01T13:08:59Z</time>
      </trkpt>
      <trkpt lat="49.07008" lon="1.81762">
        <ele>147.22</ele>
        <time>2015-03-01T13:09:25Z</time>
      </trkpt>
      <trkpt lat="49.07008" lon="1.8176">
        <ele>146.74</ele>
        <time>2015-03-01T13:09:39Z</time>
      </trkpt>
      <trkpt lat="49.07012" lon="1.81756">
        <ele>146.74</ele>
        <time>2015-03-01T13:09:52Z</time>
      </trkpt>
      <trkpt lat="49.07011" lon="1.81759">
        <ele>147.22</ele>
        <time>2015-03-01T13:10:11Z</time>
      </trkpt>
      <trkpt lat="49.07012" lon="1.81759">
        <ele>146.74</ele>
        <time>2015-03-01T13:10:35Z</time>
      </trkpt>
      <trkpt lat="49.07015" lon="1.81761">
        <ele>146.74</ele>
        <time>2015-03-01T13:10:47Z</time>
      </trkpt>
      <trkpt lat="49.07025" lon="1.81758">
        <ele>145.78</ele>
        <time>2015-03-01T13:10:59Z</time>
      </trkpt>
      <trkpt lat="49.07039" lon="1.8175">
        <ele>145.78</ele>
        <time>2015-03-01T13:11:12Z</time>
      </trkpt>
      <trkpt lat="49.07053" lon="1.81744">
        <ele>144.82</ele>
        <time>2015-03-01T13:11:25Z</time>
      </trkpt>
      <trkpt lat="49.0707" lon="1.81733">
        <ele>143.85</ele>
        <time>2015-03-01T13:11:40Z</time>
      </trkpt>
      <trkpt lat="49.07086" lon="1.81727">
        <ele>143.37</ele>
        <time>2015-03-01T13:11:55Z</time>
      </trkpt>
      <trkpt lat="49.07104" lon="1.81719">
        <ele>141.93</ele>
        <time>2015-03-01T13:12:12Z</time>
      </trkpt>
      <trkpt lat="49.07122" lon="1.81709">
        <ele>141.45</ele>
        <time>2015-03-01T13:12:27Z</time>
      </trkpt>
      <trkpt lat="49.07139" lon="1.817">
        <ele>141.45</ele>
        <time>2015-03-01T13:12:41Z</time>
      </trkpt>
      <trkpt lat="49.07148" lon="1.81696">
        <ele>140.49</ele>
        <time>2015-03-01T13:12:55Z</time>
      </trkpt>
      <trkpt lat="49.07162" lon="1.81688">
        <ele>141.93</ele>
        <time>2015-03-01T13:13:07Z</time>
      </trkpt>
      <trkpt lat="49.07182" lon="1.81683">
        <ele>140.49</ele>
        <time>2015-03-01T13:13:22Z</time>
      </trkpt>
      <trkpt lat="49.07195" lon="1.81679">
        <ele>140.01</ele>
        <time>2015-03-01T13:13:36Z</time>
      </trkpt>
      <trkpt lat="49.07205" lon="1.81676">
        <ele>140.01</ele>
        <time>2015-03-01T13:13:43Z</time>
      </trkpt>
      <trkpt lat="49.07216" lon="1.81674">
        <ele>140.97</ele>
        <time>2015-03-01T13:13:57Z</time>
      </trkpt>
      <trkpt lat="49.07231" lon="1.81675">
        <ele>140.01</ele>
        <time>2015-03-01T13:14:11Z</time>
      </trkpt>
      <trkpt lat="49.0724" lon="1.81673">
        <ele>140.49</ele>
        <time>2015-03-01T13:14:25Z</time>
      </trkpt>
      <trkpt lat="49.07248" lon="1.81675">
        <ele>139.53</ele>
        <time>2015-03-01T13:14:40Z</time>
      </trkpt>
      <trkpt lat="49.07266" lon="1.81676">
        <ele>139.05</ele>
        <time>2015-03-01T13:14:54Z</time>
      </trkpt>
      <trkpt lat="49.07269" lon="1.81677">
        <ele>139.53</ele>
        <time>2015-03-01T13:14:57Z</time>
      </trkpt>
      <trkpt lat="49.07283" lon="1.81684">
        <ele>139.53</ele>
        <time>2015-03-01T13:15:10Z</time>
      </trkpt>
      <trkpt lat="49.07289" lon="1.81687">
        <ele>139.05</ele>
        <time>2015-03-01T13:15:16Z</time>
      </trkpt>
      <trkpt lat="49.07295" lon="1.8169">
        <ele>139.53</ele>
        <time>2015-03-01T13:15:20Z</time>
      </trkpt>
      <trkpt lat="49.07311" lon="1.81702">
        <ele>140.49</ele>
        <time>2015-03-01T13:15:34Z</time>
      </trkpt>
      <trkpt lat="49.07318" lon="1.81709">
        <ele>140.49</ele>
        <time>2015-03-01T13:15:41Z</time>
      </trkpt>
      <trkpt lat="49.0733" lon="1.81723">
        <ele>141.45</ele>
        <time>2015-03-01T13:15:54Z</time>
      </trkpt>
      <trkpt lat="49.0734" lon="1.81738">
        <ele>141.93</ele>
        <time>2015-03-01T13:16:07Z</time>
      </trkpt>
      <trkpt lat="49.07352" lon="1.81753">
        <ele>142.89</ele>
        <time>2015-03-01T13:16:20Z</time>
      </trkpt>
      <trkpt lat="49.07359" lon="1.81763">
        <ele>142.41</ele>
        <time>2015-03-01T13:16:29Z</time>
      </trkpt>
      <trkpt lat="49.07364" lon="1.81769">
        <ele>142.89</ele>
        <time>2015-03-01T13:16:35Z</time>
      </trkpt>
      <trkpt lat="49.07373" lon="1.81782">
        <ele>143.37</ele>
        <time>2015-03-01T13:16:45Z</time>
      </trkpt>
      <trkpt lat="49.07385" lon="1.81799">
        <ele>143.85</ele>
        <time>2015-03-01T13:17:00Z</time>
      </trkpt>
      <trkpt lat="49.07405" lon="1.81814">
        <ele>144.82</ele>
        <time>2015-03-01T13:17:16Z</time>
      </trkpt>
      <trkpt lat="49.07407" lon="1.81815">
        <ele>144.82</ele>
        <time>2015-03-01T13:17:18Z</time>
      </trkpt>
      <trkpt lat="49.07428" lon="1.81829">
        <ele>145.78</ele>
        <time>2015-03-01T13:17:35Z</time>
      </trkpt>
      <trkpt lat="49.07445" lon="1.81835">
        <ele>146.74</ele>
        <time>2015-03-01T13:17:51Z</time>
      </trkpt>
      <trkpt lat="49.07455" lon="1.81837">
        <ele>147.7</ele>
        <time>2015-03-01T13:18:03Z</time>
      </trkpt>
      <trkpt lat="49.07456" lon="1.81837">
        <ele>147.22</ele>
        <time>2015-03-01T13:18:05Z</time>
      </trkpt>
      <trkpt lat="49.0746" lon="1.81839">
        <ele>147.7</ele>
        <time>2015-03-01T13:18:09Z</time>
      </trkpt>
      <trkpt lat="49.07462" lon="1.81841">
        <ele>148.18</ele>
        <time>2015-03-01T13:18:12Z</time>
      </trkpt>
      <trkpt lat="49.07473" lon="1.81842">
        <ele>148.66</ele>
        <time>2015-03-01T13:18:24Z</time>
      </trkpt>
      <trkpt lat="49.07482" lon="1.81842">
        <ele>149.14</ele>
        <time>2015-03-01T13:18:32Z</time>
      </trkpt>
      <trkpt lat="49.07485" lon="1.81844">
        <ele>149.62</ele>
        <time>2015-03-01T13:18:35Z</time>
      </trkpt>
      <trkpt lat="49.07497" lon="1.81842">
        <ele>150.1</ele>
        <time>2015-03-01T13:18:47Z</time>
      </trkpt>
      <trkpt lat="49.07502" lon="1.81845">
        <ele>150.58</ele>
        <time>2015-03-01T13:18:52Z</time>
      </trkpt>
      <trkpt lat="49.07521" lon="1.81842">
        <ele>150.58</ele>
        <time>2015-03-01T13:19:08Z</time>
      </trkpt>
      <trkpt lat="49.07525" lon="1.81842">
        <ele>152.03</ele>
        <time>2015-03-01T13:19:12Z</time>
      </trkpt>
      <trkpt lat="49.07539" lon="1.81841">
        <ele>152.99</ele>
        <time>2015-03-01T13:19:26Z</time>
      </trkpt>
      <trkpt lat="49.07541" lon="1.8184">
        <ele>152.99</ele>
        <time>2015-03-01T13:19:28Z</time>
      </trkpt>
      <trkpt lat="49.07553" lon="1.81837">
        <ele>153.95</ele>
        <time>2015-03-01T13:19:41Z</time>
      </trkpt>
      <trkpt lat="49.07556" lon="1.81838">
        <ele>154.43</ele>
        <time>2015-03-01T13:19:44Z</time>
      </trkpt>
      <trkpt lat="49.07563" lon="1.81838">
        <ele>154.43</ele>
        <time>2015-03-01T13:19:50Z</time>
      </trkpt>
      <trkpt lat="49.07579" lon="1.81839">
        <ele>156.83</ele>
        <time>2015-03-01T13:20:06Z</time>
      </trkpt>
      <trkpt lat="49.07594" lon="1.81839">
        <ele>156.83</ele>
        <time>2015-03-01T13:20:19Z</time>
      </trkpt>
      <trkpt lat="49.07604" lon="1.81839">
        <ele>157.79</ele>
        <time>2015-03-01T13:20:26Z</time>
      </trkpt>
      <trkpt lat="49.07622" lon="1.8184">
        <ele>159.24</ele>
        <time>2015-03-01T13:20:40Z</time>
      </trkpt>
      <trkpt lat="49.07634" lon="1.81842">
        <ele>161.16</ele>
        <time>2015-03-01T13:20:53Z</time>
      </trkpt>
      <trkpt lat="49.07648" lon="1.81836">
        <ele>161.16</ele>
        <time>2015-03-01T13:21:06Z</time>
      </trkpt>
      <trkpt lat="49.07659" lon="1.81833">
        <ele>161.64</ele>
        <time>2015-03-01T13:21:19Z</time>
      </trkpt>
      <trkpt lat="49.07668" lon="1.81829">
        <ele>161.64</ele>
        <time>2015-03-01T13:21:28Z</time>
      </trkpt>
      <trkpt lat="49.0768" lon="1.81818">
        <ele>162.6</ele>
        <time>2015-03-01T13:21:44Z</time>
      </trkpt>
      <trkpt lat="49.077" lon="1.81792">
        <ele>162.6</ele>
        <time>2015-03-01T13:22:02Z</time>
      </trkpt>
      <trkpt lat="49.07711" lon="1.81783">
        <ele>162.6</ele>
        <time>2015-03-01T13:22:10Z</time>
      </trkpt>
      <trkpt lat="49.07719" lon="1.81766">
        <ele>162.12</ele>
        <time>2015-03-01T13:22:24Z</time>
      </trkpt>
      <trkpt lat="49.0771" lon="1.81764">
        <ele>163.08</ele>
        <time>2015-03-01T13:22:44Z</time>
      </trkpt>
      <trkpt lat="49.0771" lon="1.81764">
        <ele>163.56</ele>
        <time>2015-03-01T13:22:45Z</time>
      </trkpt>
      <trkpt lat="49.07704" lon="1.81758">
        <ele>162.12</ele>
        <time>2015-03-01T13:23:11Z</time>
      </trkpt>
      <trkpt lat="49.0771" lon="1.81756">
        <ele>162.6</ele>
        <time>2015-03-01T13:23:38Z</time>
      </trkpt>
      <trkpt lat="49.07707" lon="1.81759">
        <ele>162.6</ele>
        <time>2015-03-01T13:24:05Z</time>
      </trkpt>
      <trkpt lat="49.07706" lon="1.81758">
        <ele>163.08</ele>
        <time>2015-03-01T13:24:33Z</time>
      </trkpt>
      <trkpt lat="49.07711" lon="1.81756">
        <ele>162.6</ele>
        <time>2015-03-01T13:24:49Z</time>
      </trkpt>
      <trkpt lat="49.07713" lon="1.81754">
        <ele>162.6</ele>
        <time>2015-03-01T13:25:09Z</time>
      </trkpt>
      <trkpt lat="49.07722" lon="1.81728">
        <ele>162.12</ele>
        <time>2015-03-01T13:25:24Z</time>
      </trkpt>
      <trkpt lat="49.07732" lon="1.81705">
        <ele>162.6</ele>
        <time>2015-03-01T13:25:39Z</time>
      </trkpt>
      <trkpt lat="49.0774" lon="1.81675">
        <ele>162.12</ele>
        <time>2015-03-01T13:25:53Z</time>
      </trkpt>
      <trkpt lat="49.07747" lon="1.81652">
        <ele>162.12</ele>
        <time>2015-03-01T13:26:09Z</time>
      </trkpt>
      <trkpt lat="49.07751" lon="1.81644">
        <ele>161.16</ele>
        <time>2015-03-01T13:26:15Z</time>
      </trkpt>
      <trkpt lat="49.07753" lon="1.81636">
        <ele>161.64</ele>
        <time>2015-03-01T13:26:20Z</time>
      </trkpt>
      <trkpt lat="49.07755" lon="1.81619">
        <ele>161.64</ele>
        <time>2015-03-01T13:26:35Z</time>
      </trkpt>
      <trkpt lat="49.07759" lon="1.81614">
        <ele>161.64</ele>
        <time>2015-03-01T13:26:38Z</time>
      </trkpt>
      <trkpt lat="49.07768" lon="1.81583">
        <ele>160.68</ele>
        <time>2015-03-01T13:26:53Z</time>
      </trkpt>
      <trkpt lat="49.07774" lon="1.81569">
        <ele>161.16</ele>
        <time>2015-03-01T13:27:04Z</time>
      </trkpt>
      <trkpt lat="49.0779" lon="1.8155">
        <ele>160.68</ele>
        <time>2015-03-01T13:27:18Z</time>
      </trkpt>
      <trkpt lat="49.07796" lon="1.81539">
        <ele>160.68</ele>
        <time>2015-03-01T13:27:32Z</time>
      </trkpt>
      <trkpt lat="49.0781" lon="1.81527">
        <ele>160.2</ele>
        <time>2015-03-01T13:27:45Z</time>
      </trkpt>
      <trkpt lat="49.07827" lon="1.81518">
        <ele>160.2</ele>
        <time>2015-03-01T13:27:59Z</time>
      </trkpt>
      <trkpt lat="49.07848" lon="1.81513">
        <ele>160.2</ele>
        <time>2015-03-01T13:28:14Z</time>
      </trkpt>
      <trkpt lat="49.07863" lon="1.81504">
        <ele>160.68</ele>
        <time>2015-03-01T13:28:29Z</time>
      </trkpt>
      <trkpt lat="49.07883" lon="1.81493">
        <ele>161.16</ele>
        <time>2015-03-01T13:28:45Z</time>
      </trkpt>
      <trkpt lat="49.07895" lon="1.81478">
        <ele>161.16</ele>
        <time>2015-03-01T13:28:56Z</time>
      </trkpt>
      <trkpt lat="49.07906" lon="1.81449">
        <ele>161.64</ele>
        <time>2015-03-01T13:29:11Z</time>
      </trkpt>
      <trkpt lat="49.07912" lon="1.81417">
        <ele>162.12</ele>
        <time>2015-03-01T13:29:28Z</time>
      </trkpt>
      <trkpt lat="49.07916" lon="1.81392">
        <ele>163.08</ele>
        <time>2015-03-01T13:29:43Z</time>
      </trkpt>
      <trkpt lat="49.07917" lon="1.81387">
        <ele>163.08</ele>
        <time>2015-03-01T13:29:46Z</time>
      </trkpt>
      <trkpt lat="49.07917" lon="1.81376">
        <ele>163.08</ele>
        <time>2015-03-01T13:29:52Z</time>
      </trkpt>
      <trkpt lat="49.07919" lon="1.81357">
        <ele>163.08</ele>
        <time>2015-03-01T13:30:02Z</time>
      </trkpt>
      <trkpt lat="49.07922" lon="1.81329">
        <ele>163.56</ele>
        <time>2015-03-01T13:30:17Z</time>
      </trkpt>
      <trkpt lat="49.07924" lon="1.81312">
        <ele>165</ele>
        <time>2015-03-01T13:30:27Z</time>
      </trkpt>
      <trkpt lat="49.07924" lon="1.81304">
        <ele>165.48</ele>
        <time>2015-03-01T13:30:31Z</time>
      </trkpt>
      <trkpt lat="49.07921" lon="1.81266">
        <ele>165</ele>
        <time>2015-03-01T13:30:47Z</time>
      </trkpt>
      <trkpt lat="49.07922" lon="1.81247">
        <ele>165.48</ele>
        <time>2015-03-01T13:31:01Z</time>
      </trkpt>
      <trkpt lat="49.07923" lon="1.81231">
        <ele>165.96</ele>
        <time>2015-03-01T13:31:17Z</time>
      </trkpt>
      <trkpt lat="49.07924" lon="1.81224">
        <ele>166.45</ele>
        <time>2015-03-01T13:31:21Z</time>
      </trkpt>
      <trkpt lat="49.07925" lon="1.81217">
        <ele>165.96</ele>
        <time>2015-03-01T13:31:25Z</time>
      </trkpt>
      <trkpt lat="49.07935" lon="1.81194">
        <ele>166.45</ele>
        <time>2015-03-01T13:31:38Z</time>
      </trkpt>
      <trkpt lat="49.07944" lon="1.81181">
        <ele>166.45</ele>
        <time>2015-03-01T13:31:52Z</time>
      </trkpt>
      <trkpt lat="49.07945" lon="1.81178">
        <ele>166.93</ele>
        <time>2015-03-01T13:32:11Z</time>
      </trkpt>
      <trkpt lat="49.07957" lon="1.81175">
        <ele>166.93</ele>
        <time>2015-03-01T13:32:30Z</time>
      </trkpt>
      <trkpt lat="49.07961" lon="1.81172">
        <ele>166.93</ele>
        <time>2015-03-01T13:32:43Z</time>
      </trkpt>
      <trkpt lat="49.07972" lon="1.81162">
        <ele>167.41</ele>
        <time>2015-03-01T13:32:55Z</time>
      </trkpt>
      <trkpt lat="49.07972" lon="1.81161">
        <ele>167.41</ele>
        <time>2015-03-01T13:32:56Z</time>
      </trkpt>
      <trkpt lat="49.07985" lon="1.81157">
        <ele>167.89</ele>
        <time>2015-03-01T13:33:11Z</time>
      </trkpt>
      <trkpt lat="49.08" lon="1.81145">
        <ele>167.89</ele>
        <time>2015-03-01T13:33:26Z</time>
      </trkpt>
      <trkpt lat="49.08016" lon="1.81132">
        <ele>168.37</ele>
        <time>2015-03-01T13:33:46Z</time>
      </trkpt>
      <trkpt lat="49.08029" lon="1.81127">
        <ele>168.85</ele>
        <time>2015-03-01T13:34:01Z</time>
      </trkpt>
      <trkpt lat="49.08043" lon="1.81125">
        <ele>168.85</ele>
        <time>2015-03-01T13:34:13Z</time>
      </trkpt>
      <trkpt lat="49.08047" lon="1.81126">
        <ele>168.37</ele>
        <time>2015-03-01T13:34:18Z</time>
      </trkpt>
      <trkpt lat="49.08052" lon="1.81125">
        <ele>169.33</ele>
        <time>2015-03-01T13:34:24Z</time>
      </trkpt>
      <trkpt lat="49.08057" lon="1.81126">
        <ele>169.33</ele>
        <time>2015-03-01T13:34:28Z</time>
      </trkpt>
      <trkpt lat="49.0806" lon="1.81127">
        <ele>169.33</ele>
        <time>2015-03-01T13:34:31Z</time>
      </trkpt>
      <trkpt lat="49.08066" lon="1.81132">
        <ele>169.33</ele>
        <time>2015-03-01T13:34:37Z</time>
      </trkpt>
      <trkpt lat="49.08077" lon="1.81142">
        <ele>169.33</ele>
        <time>2015-03-01T13:34:49Z</time>
      </trkpt>
      <trkpt lat="49.0809" lon="1.81147">
        <ele>169.81</ele>
        <time>2015-03-01T13:35:03Z</time>
      </trkpt>
      <trkpt lat="49.08099" lon="1.8114">
        <ele>170.29</ele>
        <time>2015-03-01T13:35:15Z</time>
      </trkpt>
      <trkpt lat="49.08115" lon="1.8113">
        <ele>171.25</ele>
        <time>2015-03-01T13:35:33Z</time>
      </trkpt>
      <trkpt lat="49.08125" lon="1.81114">
        <ele>171.73</ele>
        <time>2015-03-01T13:35:46Z</time>
      </trkpt>
      <trkpt lat="49.08142" lon="1.81105">
        <ele>171.73</ele>
        <time>2015-03-01T13:36:01Z</time>
      </trkpt>
      <trkpt lat="49.08162" lon="1.81092">
        <ele>171.25</ele>
        <time>2015-03-01T13:36:16Z</time>
      </trkpt>
      <trkpt lat="49.08175" lon="1.81078">
        <ele>170.77</ele>
        <time>2015-03-01T13:36:31Z</time>
      </trkpt>
      <trkpt lat="49.08191" lon="1.81056">
        <ele>171.25</ele>
        <time>2015-03-01T13:36:47Z</time>
      </trkpt>
      <trkpt lat="49.082" lon="1.81036">
        <ele>170.77</ele>
        <time>2015-03-01T13:37:01Z</time>
      </trkpt>
      <trkpt lat="49.08209" lon="1.81006">
        <ele>171.73</ele>
        <time>2015-03-01T13:37:16Z</time>
      </trkpt>
      <trkpt lat="49.0822" lon="1.80986">
        <ele>171.25</ele>
        <time>2015-03-01T13:37:31Z</time>
      </trkpt>
      <trkpt lat="49.08231" lon="1.80971">
        <ele>171.73</ele>
        <time>2015-03-01T13:37:45Z</time>
      </trkpt>
      <trkpt lat="49.08236" lon="1.80969">
        <ele>171.73</ele>
        <time>2015-03-01T13:37:51Z</time>
      </trkpt>
      <trkpt lat="49.08251" lon="1.80953">
        <ele>172.21</ele>
        <time>2015-03-01T13:38:05Z</time>
      </trkpt>
      <trkpt lat="49.08264" lon="1.80936">
        <ele>171.73</ele>
        <time>2015-03-01T13:38:19Z</time>
      </trkpt>
      <trkpt lat="49.08282" lon="1.8092">
        <ele>171.73</ele>
        <time>2015-03-01T13:38:35Z</time>
      </trkpt>
      <trkpt lat="49.08297" lon="1.80918">
        <ele>172.21</ele>
        <time>2015-03-01T13:38:48Z</time>
      </trkpt>
      <trkpt lat="49.08309" lon="1.80912">
        <ele>171.73</ele>
        <time>2015-03-01T13:39:05Z</time>
      </trkpt>
      <trkpt lat="49.08308" lon="1.80909">
        <ele>171.73</ele>
        <time>2015-03-01T13:39:19Z</time>
      </trkpt>
      <trkpt lat="49.08315" lon="1.80899">
        <ele>172.21</ele>
        <time>2015-03-01T13:39:31Z</time>
      </trkpt>
      <trkpt lat="49.08322" lon="1.80882">
        <ele>173.66</ele>
        <time>2015-03-01T13:39:44Z</time>
      </trkpt>
      <trkpt lat="49.08327" lon="1.80861">
        <ele>174.14</ele>
        <time>2015-03-01T13:40:01Z</time>
      </trkpt>
      <trkpt lat="49.08333" lon="1.80838">
        <ele>176.06</ele>
        <time>2015-03-01T13:40:19Z</time>
      </trkpt>
      <trkpt lat="49.08335" lon="1.80827">
        <ele>174.62</ele>
        <time>2015-03-01T13:40:34Z</time>
      </trkpt>
      <trkpt lat="49.08337" lon="1.80824">
        <ele>174.14</ele>
        <time>2015-03-01T13:40:37Z</time>
      </trkpt>
      <trkpt lat="49.08341" lon="1.80814">
        <ele>175.58</ele>
        <time>2015-03-01T13:40:51Z</time>
      </trkpt>
      <trkpt lat="49.08346" lon="1.80796">
        <ele>176.54</ele>
        <time>2015-03-01T13:41:05Z</time>
      </trkpt>
      <trkpt lat="49.0835" lon="1.80783">
        <ele>176.54</ele>
        <time>2015-03-01T13:41:21Z</time>
      </trkpt>
      <trkpt lat="49.08348" lon="1.80773">
        <ele>177.5</ele>
        <time>2015-03-01T13:41:33Z</time>
      </trkpt>
      <trkpt lat="49.08352" lon="1.80768">
        <ele>177.5</ele>
        <time>2015-03-01T13:41:50Z</time>
      </trkpt>
      <trkpt lat="49.08358" lon="1.80763">
        <ele>178.46</ele>
        <time>2015-03-01T13:42:09Z</time>
      </trkpt>
      <trkpt lat="49.08361" lon="1.80751">
        <ele>179.42</ele>
        <time>2015-03-01T13:42:29Z</time>
      </trkpt>
      <trkpt lat="49.08365" lon="1.80731">
        <ele>179.42</ele>
        <time>2015-03-01T13:42:42Z</time>
      </trkpt>
      <trkpt lat="49.0837" lon="1.80721">
        <ele>179.9</ele>
        <time>2015-03-01T13:42:55Z</time>
      </trkpt>
      <trkpt lat="49.0837" lon="1.80716">
        <ele>180.38</ele>
        <time>2015-03-01T13:43:08Z</time>
      </trkpt>
      <trkpt lat="49.08382" lon="1.80704">
        <ele>179.9</ele>
        <time>2015-03-01T13:43:24Z</time>
      </trkpt>
      <trkpt lat="49.08388" lon="1.80688">
        <ele>179.42</ele>
        <time>2015-03-01T13:43:36Z</time>
      </trkpt>
      <trkpt lat="49.08392" lon="1.80674">
        <ele>180.38</ele>
        <time>2015-03-01T13:43:51Z</time>
      </trkpt>
      <trkpt lat="49.08395" lon="1.80659">
        <ele>180.38</ele>
        <time>2015-03-01T13:44:06Z</time>
      </trkpt>
      <trkpt lat="49.08398" lon="1.80659">
        <ele>180.38</ele>
        <time>2015-03-01T13:44:19Z</time>
      </trkpt>
      <trkpt lat="49.08403" lon="1.8064">
        <ele>179.9</ele>
        <time>2015-03-01T13:44:33Z</time>
      </trkpt>
      <trkpt lat="49.08407" lon="1.80621">
        <ele>179.42</ele>
        <time>2015-03-01T13:44:47Z</time>
      </trkpt>
      <trkpt lat="49.08414" lon="1.80595">
        <ele>179.42</ele>
        <time>2015-03-01T13:45:02Z</time>
      </trkpt>
      <trkpt lat="49.08411" lon="1.80589">
        <ele>180.87</ele>
        <time>2015-03-01T13:45:07Z</time>
      </trkpt>
      <trkpt lat="49.08412" lon="1.80569">
        <ele>179.42</ele>
        <time>2015-03-01T13:45:21Z</time>
      </trkpt>
      <trkpt lat="49.08419" lon="1.80553">
        <ele>180.38</ele>
        <time>2015-03-01T13:45:34Z</time>
      </trkpt>
      <trkpt lat="49.08426" lon="1.80536">
        <ele>179.42</ele>
        <time>2015-03-01T13:45:49Z</time>
      </trkpt>
      <trkpt lat="49.08431" lon="1.80535">
        <ele>179.9</ele>
        <time>2015-03-01T13:45:55Z</time>
      </trkpt>
      <trkpt lat="49.08438" lon="1.80521">
        <ele>178.46</ele>
        <time>2015-03-01T13:46:07Z</time>
      </trkpt>
      <trkpt lat="49.08447" lon="1.80501">
        <ele>178.46</ele>
        <time>2015-03-01T13:46:20Z</time>
      </trkpt>
      <trkpt lat="49.08447" lon="1.805">
        <ele>177.98</ele>
        <time>2015-03-01T13:46:21Z</time>
      </trkpt>
      <trkpt lat="49.08454" lon="1.80476">
        <ele>176.06</ele>
        <time>2015-03-01T13:46:37Z</time>
      </trkpt>
      <trkpt lat="49.08458" lon="1.80459">
        <ele>176.06</ele>
        <time>2015-03-01T13:46:49Z</time>
      </trkpt>
      <trkpt lat="49.08466" lon="1.80442">
        <ele>175.1</ele>
        <time>2015-03-01T13:47:02Z</time>
      </trkpt>
      <trkpt lat="49.08475" lon="1.80431">
        <ele>174.62</ele>
        <time>2015-03-01T13:47:16Z</time>
      </trkpt>
      <trkpt lat="49.08486" lon="1.80435">
        <ele>174.62</ele>
        <time>2015-03-01T13:47:30Z</time>
      </trkpt>
      <trkpt lat="49.08491" lon="1.80425">
        <ele>175.1</ele>
        <time>2015-03-01T13:47:49Z</time>
      </trkpt>
      <trkpt lat="49.08505" lon="1.80411">
        <ele>173.66</ele>
        <time>2015-03-01T13:48:07Z</time>
      </trkpt>
      <trkpt lat="49.08502" lon="1.8041">
        <ele>173.66</ele>
        <time>2015-03-01T13:48:31Z</time>
      </trkpt>
      <trkpt lat="49.08494" lon="1.80426">
        <ele>172.69</ele>
        <time>2015-03-01T13:48:54Z</time>
      </trkpt>
      <trkpt lat="49.08496" lon="1.80412">
        <ele>173.66</ele>
        <time>2015-03-01T13:49:09Z</time>
      </trkpt>
      <trkpt lat="49.08502" lon="1.80413">
        <ele>173.17</ele>
        <time>2015-03-01T13:49:34Z</time>
      </trkpt>
      <trkpt lat="49.08501" lon="1.80409">
        <ele>173.17</ele>
        <time>2015-03-01T13:50:02Z</time>
      </trkpt>
      <trkpt lat="49.08497" lon="1.8041">
        <ele>173.17</ele>
        <time>2015-03-01T13:50:32Z</time>
      </trkpt>
      <trkpt lat="49.08498" lon="1.80412">
        <ele>173.17</ele>
        <time>2015-03-01T13:50:58Z</time>
      </trkpt>
      <trkpt lat="49.08498" lon="1.80404">
        <ele>173.17</ele>
        <time>2015-03-01T13:51:17Z</time>
      </trkpt>
      <trkpt lat="49.08501" lon="1.80412">
        <ele>173.17</ele>
        <time>2015-03-01T13:51:42Z</time>
      </trkpt>
      <trkpt lat="49.085" lon="1.80416">
        <ele>173.66</ele>
        <time>2015-03-01T13:51:56Z</time>
      </trkpt>
      <trkpt lat="49.08508" lon="1.80418">
        <ele>172.69</ele>
        <time>2015-03-01T13:52:11Z</time>
      </trkpt>
      <trkpt lat="49.08515" lon="1.8042">
        <ele>172.21</ele>
        <time>2015-03-01T13:52:25Z</time>
      </trkpt>
      <trkpt lat="49.08528" lon="1.80436">
        <ele>172.21</ele>
        <time>2015-03-01T13:52:41Z</time>
      </trkpt>
      <trkpt lat="49.08538" lon="1.80451">
        <ele>173.66</ele>
        <time>2015-03-01T13:52:59Z</time>
      </trkpt>
      <trkpt lat="49.0855" lon="1.80473">
        <ele>174.14</ele>
        <time>2015-03-01T13:53:17Z</time>
      </trkpt>
      <trkpt lat="49.08561" lon="1.80493">
        <ele>175.58</ele>
        <time>2015-03-01T13:53:34Z</time>
      </trkpt>
      <trkpt lat="49.08574" lon="1.80508">
        <ele>175.58</ele>
        <time>2015-03-01T13:53:48Z</time>
      </trkpt>
      <trkpt lat="49.08584" lon="1.80527">
        <ele>175.58</ele>
        <time>2015-03-01T13:54:03Z</time>
      </trkpt>
      <trkpt lat="49.08595" lon="1.8054">
        <ele>175.1</ele>
        <time>2015-03-01T13:54:16Z</time>
      </trkpt>
      <trkpt lat="49.08603" lon="1.80552">
        <ele>174.62</ele>
        <time>2015-03-01T13:54:30Z</time>
      </trkpt>
      <trkpt lat="49.08616" lon="1.80564">
        <ele>175.58</ele>
        <time>2015-03-01T13:54:43Z</time>
      </trkpt>
      <trkpt lat="49.08618" lon="1.80566">
        <ele>175.58</ele>
        <time>2015-03-01T13:54:47Z</time>
      </trkpt>
      <trkpt lat="49.08626" lon="1.80577">
        <ele>175.1</ele>
        <time>2015-03-01T13:55:00Z</time>
      </trkpt>
      <trkpt lat="49.08634" lon="1.8059">
        <ele>174.62</ele>
        <time>2015-03-01T13:55:15Z</time>
      </trkpt>
      <trkpt lat="49.08641" lon="1.80607">
        <ele>174.62</ele>
        <time>2015-03-01T13:55:27Z</time>
      </trkpt>
      <trkpt lat="49.08648" lon="1.80623">
        <ele>174.14</ele>
        <time>2015-03-01T13:55:40Z</time>
      </trkpt>
      <trkpt lat="49.08651" lon="1.80632">
        <ele>173.66</ele>
        <time>2015-03-01T13:55:52Z</time>
      </trkpt>
      <trkpt lat="49.08656" lon="1.80648">
        <ele>174.14</ele>
        <time>2015-03-01T13:56:06Z</time>
      </trkpt>
      <trkpt lat="49.08657" lon="1.8065">
        <ele>174.14</ele>
        <time>2015-03-01T13:56:08Z</time>
      </trkpt>
      <trkpt lat="49.0866" lon="1.80656">
        <ele>174.14</ele>
        <time>2015-03-01T13:56:21Z</time>
      </trkpt>
      <trkpt lat="49.08667" lon="1.80671">
        <ele>173.66</ele>
        <time>2015-03-01T13:56:34Z</time>
      </trkpt>
      <trkpt lat="49.08666" lon="1.80698">
        <ele>172.69</ele>
        <time>2015-03-01T13:56:52Z</time>
      </trkpt>
      <trkpt lat="49.08669" lon="1.80727">
        <ele>172.21</ele>
        <time>2015-03-01T13:57:08Z</time>
      </trkpt>
      <trkpt lat="49.08665" lon="1.80733">
        <ele>171.73</ele>
        <time>2015-03-01T13:57:26Z</time>
      </trkpt>
      <trkpt lat="49.08663" lon="1.80729">
        <ele>172.21</ele>
        <time>2015-03-01T13:57:48Z</time>
      </trkpt>
      <trkpt lat="49.08669" lon="1.80728">
        <ele>172.21</ele>
        <time>2015-03-01T13:58:13Z</time>
      </trkpt>
      <trkpt lat="49.08668" lon="1.80728">
        <ele>171.25</ele>
        <time>2015-03-01T13:58:40Z</time>
      </trkpt>
      <trkpt lat="49.08672" lon="1.80743">
        <ele>171.73</ele>
        <time>2015-03-01T13:59:01Z</time>
      </trkpt>
      <trkpt lat="49.08678" lon="1.80756">
        <ele>171.73</ele>
        <time>2015-03-01T13:59:15Z</time>
      </trkpt>
      <trkpt lat="49.08686" lon="1.80775">
        <ele>170.77</ele>
        <time>2015-03-01T13:59:29Z</time>
      </trkpt>
      <trkpt lat="49.08692" lon="1.80803">
        <ele>170.29</ele>
        <time>2015-03-01T13:59:45Z</time>
      </trkpt>
      <trkpt lat="49.08693" lon="1.80807">
        <ele>169.81</ele>
        <time>2015-03-01T13:59:47Z</time>
      </trkpt>
      <trkpt lat="49.08702" lon="1.80841">
        <ele>168.37</ele>
        <time>2015-03-01T14:00:05Z</time>
      </trkpt>
      <trkpt lat="49.08703" lon="1.80842">
        <ele>168.37</ele>
        <time>2015-03-01T14:00:15Z</time>
      </trkpt>
      <trkpt lat="49.08703" lon="1.80843">
        <ele>168.85</ele>
        <time>2015-03-01T14:00:31Z</time>
      </trkpt>
      <trkpt lat="49.08702" lon="1.80848">
        <ele>168.85</ele>
        <time>2015-03-01T14:00:46Z</time>
      </trkpt>
      <trkpt lat="49.08704" lon="1.80852">
        <ele>167.89</ele>
        <time>2015-03-01T14:01:01Z</time>
      </trkpt>
      <trkpt lat="49.08703" lon="1.80846">
        <ele>167.89</ele>
        <time>2015-03-01T14:01:19Z</time>
      </trkpt>
      <trkpt lat="49.08703" lon="1.80845">
        <ele>167.41</ele>
        <time>2015-03-01T14:01:37Z</time>
      </trkpt>
      <trkpt lat="49.08709" lon="1.8086">
        <ele>167.41</ele>
        <time>2015-03-01T14:01:51Z</time>
      </trkpt>
      <trkpt lat="49.0871" lon="1.80863">
        <ele>166.93</ele>
        <time>2015-03-01T14:01:53Z</time>
      </trkpt>
      <trkpt lat="49.0872" lon="1.80868">
        <ele>166.45</ele>
        <time>2015-03-01T14:02:04Z</time>
      </trkpt>
      <trkpt lat="49.08725" lon="1.80861">
        <ele>166.93</ele>
        <time>2015-03-01T14:02:11Z</time>
      </trkpt>
      <trkpt lat="49.08735" lon="1.80846">
        <ele>166.93</ele>
        <time>2015-03-01T14:02:24Z</time>
      </trkpt>
      <trkpt lat="49.08745" lon="1.80823">
        <ele>167.41</ele>
        <time>2015-03-01T14:02:41Z</time>
      </trkpt>
      <trkpt lat="49.08756" lon="1.80796">
        <ele>168.37</ele>
        <time>2015-03-01T14:02:59Z</time>
      </trkpt>
      <trkpt lat="49.08765" lon="1.80774">
        <ele>167.89</ele>
        <time>2015-03-01T14:03:13Z</time>
      </trkpt>
      <trkpt lat="49.0878" lon="1.80746">
        <ele>168.85</ele>
        <time>2015-03-01T14:03:31Z</time>
      </trkpt>
      <trkpt lat="49.08791" lon="1.80727">
        <ele>168.85</ele>
        <time>2015-03-01T14:03:46Z</time>
      </trkpt>
      <trkpt lat="49.088" lon="1.80704">
        <ele>168.85</ele>
        <time>2015-03-01T14:04:01Z</time>
      </trkpt>
      <trkpt lat="49.08812" lon="1.80674">
        <ele>169.81</ele>
        <time>2015-03-01T14:04:19Z</time>
      </trkpt>
      <trkpt lat="49.08823" lon="1.80646">
        <ele>170.77</ele>
        <time>2015-03-01T14:04:37Z</time>
      </trkpt>
      <trkpt lat="49.08832" lon="1.80619">
        <ele>170.77</ele>
        <time>2015-03-01T14:04:53Z</time>
      </trkpt>
      <trkpt lat="49.08839" lon="1.80595">
        <ele>170.77</ele>
        <time>2015-03-01T14:05:09Z</time>
      </trkpt>
      <trkpt lat="49.0885" lon="1.80575">
        <ele>170.29</ele>
        <time>2015-03-01T14:05:21Z</time>
      </trkpt>
      <trkpt lat="49.08859" lon="1.80551">
        <ele>170.77</ele>
        <time>2015-03-01T14:05:36Z</time>
      </trkpt>
      <trkpt lat="49.08863" lon="1.80532">
        <ele>171.25</ele>
        <time>2015-03-01T14:05:46Z</time>
      </trkpt>
      <trkpt lat="49.08869" lon="1.80513">
        <ele>171.73</ele>
        <time>2015-03-01T14:05:57Z</time>
      </trkpt>
      <trkpt lat="49.08872" lon="1.80506">
        <ele>171.73</ele>
        <time>2015-03-01T14:06:01Z</time>
      </trkpt>
      <trkpt lat="49.08878" lon="1.80486">
        <ele>171.73</ele>
        <time>2015-03-01T14:06:12Z</time>
      </trkpt>
      <trkpt lat="49.08887" lon="1.80463">
        <ele>171.25</ele>
        <time>2015-03-01T14:06:27Z</time>
      </trkpt>
      <trkpt lat="49.08901" lon="1.80441">
        <ele>172.21</ele>
        <time>2015-03-01T14:06:44Z</time>
      </trkpt>
      <trkpt lat="49.08914" lon="1.80429">
        <ele>171.73</ele>
        <time>2015-03-01T14:06:59Z</time>
      </trkpt>
      <trkpt lat="49.08921" lon="1.8042">
        <ele>172.69</ele>
        <time>2015-03-01T14:07:15Z</time>
      </trkpt>
      <trkpt lat="49.0892" lon="1.80407">
        <ele>171.73</ele>
        <time>2015-03-01T14:07:27Z</time>
      </trkpt>
      <trkpt lat="49.08932" lon="1.80399">
        <ele>173.17</ele>
        <time>2015-03-01T14:07:41Z</time>
      </trkpt>
      <trkpt lat="49.08944" lon="1.80384">
        <ele>174.14</ele>
        <time>2015-03-01T14:07:57Z</time>
      </trkpt>
      <trkpt lat="49.08959" lon="1.80361">
        <ele>174.62</ele>
        <time>2015-03-01T14:08:13Z</time>
      </trkpt>
      <trkpt lat="49.08967" lon="1.80332">
        <ele>176.06</ele>
        <time>2015-03-01T14:08:28Z</time>
      </trkpt>
      <trkpt lat="49.08966" lon="1.80309">
        <ele>177.5</ele>
        <time>2015-03-01T14:08:42Z</time>
      </trkpt>
      <trkpt lat="49.08965" lon="1.80294">
        <ele>177.02</ele>
        <time>2015-03-01T14:08:53Z</time>
      </trkpt>
      <trkpt lat="49.08961" lon="1.80273">
        <ele>177.98</ele>
        <time>2015-03-01T14:09:05Z</time>
      </trkpt>
      <trkpt lat="49.08958" lon="1.80247">
        <ele>177.98</ele>
        <time>2015-03-01T14:09:18Z</time>
      </trkpt>
      <trkpt lat="49.08956" lon="1.80239">
        <ele>176.06</ele>
        <time>2015-03-01T14:09:23Z</time>
      </trkpt>
      <trkpt lat="49.08949" lon="1.80207">
        <ele>175.58</ele>
        <time>2015-03-01T14:09:41Z</time>
      </trkpt>
      <trkpt lat="49.08941" lon="1.80178">
        <ele>174.62</ele>
        <time>2015-03-01T14:09:58Z</time>
      </trkpt>
      <trkpt lat="49.08931" lon="1.80154">
        <ele>174.62</ele>
        <time>2015-03-01T14:10:15Z</time>
      </trkpt>
      <trkpt lat="49.0893" lon="1.80139">
        <ele>174.14</ele>
        <time>2015-03-01T14:10:31Z</time>
      </trkpt>
      <trkpt lat="49.08927" lon="1.80125">
        <ele>174.62</ele>
        <time>2015-03-01T14:10:46Z</time>
      </trkpt>
      <trkpt lat="49.08922" lon="1.80107">
        <ele>174.62</ele>
        <time>2015-03-01T14:11:01Z</time>
      </trkpt>
      <trkpt lat="49.08919" lon="1.80092">
        <ele>174.62</ele>
        <time>2015-03-01T14:11:13Z</time>
      </trkpt>
      <trkpt lat="49.08919" lon="1.80068">
        <ele>175.58</ele>
        <time>2015-03-01T14:11:27Z</time>
      </trkpt>
      <trkpt lat="49.08919" lon="1.80047">
        <ele>176.06</ele>
        <time>2015-03-01T14:11:40Z</time>
      </trkpt>
      <trkpt lat="49.08921" lon="1.80026">
        <ele>177.02</ele>
        <time>2015-03-01T14:11:53Z</time>
      </trkpt>
      <trkpt lat="49.08922" lon="1.80004">
        <ele>177.98</ele>
        <time>2015-03-01T14:12:05Z</time>
      </trkpt>
      <trkpt lat="49.08922" lon="1.80002">
        <ele>177.98</ele>
        <time>2015-03-01T14:12:06Z</time>
      </trkpt>
      <trkpt lat="49.08926" lon="1.79992">
        <ele>178.46</ele>
        <time>2015-03-01T14:12:14Z</time>
      </trkpt>
      <trkpt lat="49.08929" lon="1.79967">
        <ele>178.46</ele>
        <time>2015-03-01T14:12:29Z</time>
      </trkpt>
      <trkpt lat="49.08939" lon="1.79943">
        <ele>178.94</ele>
        <time>2015-03-01T14:12:43Z</time>
      </trkpt>
      <trkpt lat="49.0895" lon="1.79913">
        <ele>176.54</ele>
        <time>2015-03-01T14:13:02Z</time>
      </trkpt>
      <trkpt lat="49.08963" lon="1.7989">
        <ele>177.02</ele>
        <time>2015-03-01T14:13:17Z</time>
      </trkpt>
      <trkpt lat="49.0898" lon="1.79853">
        <ele>176.06</ele>
        <time>2015-03-01T14:13:41Z</time>
      </trkpt>
      <trkpt lat="49.08985" lon="1.79839">
        <ele>174.62</ele>
        <time>2015-03-01T14:13:51Z</time>
      </trkpt>
      <trkpt lat="49.08987" lon="1.79833">
        <ele>175.1</ele>
        <time>2015-03-01T14:13:55Z</time>
      </trkpt>
      <trkpt lat="49.09" lon="1.79809">
        <ele>175.1</ele>
        <time>2015-03-01T14:14:13Z</time>
      </trkpt>
      <trkpt lat="49.09003" lon="1.798">
        <ele>175.1</ele>
        <time>2015-03-01T14:14:18Z</time>
      </trkpt>
      <trkpt lat="49.09006" lon="1.79791">
        <ele>174.62</ele>
        <time>2015-03-01T14:14:23Z</time>
      </trkpt>
      <trkpt lat="49.09018" lon="1.79763">
        <ele>174.62</ele>
        <time>2015-03-01T14:14:43Z</time>
      </trkpt>
      <trkpt lat="49.09031" lon="1.79733">
        <ele>175.1</ele>
        <time>2015-03-01T14:15:02Z</time>
      </trkpt>
      <trkpt lat="49.09043" lon="1.79707">
        <ele>176.06</ele>
        <time>2015-03-01T14:15:21Z</time>
      </trkpt>
      <trkpt lat="49.09055" lon="1.79678">
        <ele>177.02</ele>
        <time>2015-03-01T14:15:41Z</time>
      </trkpt>
      <trkpt lat="49.09067" lon="1.79653">
        <ele>177.5</ele>
        <time>2015-03-01T14:15:59Z</time>
      </trkpt>
      <trkpt lat="49.09078" lon="1.79628">
        <ele>177.98</ele>
        <time>2015-03-01T14:16:17Z</time>
      </trkpt>
      <trkpt lat="49.09087" lon="1.79615">
        <ele>178.94</ele>
        <time>2015-03-01T14:16:31Z</time>
      </trkpt>
      <trkpt lat="49.09095" lon="1.79608">
        <ele>179.9</ele>
        <time>2015-03-01T14:16:44Z</time>
      </trkpt>
      <trkpt lat="49.09097" lon="1.79603">
        <ele>179.42</ele>
        <time>2015-03-01T14:16:57Z</time>
      </trkpt>
      <trkpt lat="49.0911" lon="1.79581">
        <ele>179.42</ele>
        <time>2015-03-01T14:17:14Z</time>
      </trkpt>
      <trkpt lat="49.09126" lon="1.7956">
        <ele>182.31</ele>
        <time>2015-03-01T14:17:32Z</time>
      </trkpt>
      <trkpt lat="49.09127" lon="1.79559">
        <ele>183.27</ele>
        <time>2015-03-01T14:17:34Z</time>
      </trkpt>
      <trkpt lat="49.09127" lon="1.79557">
        <ele>181.35</ele>
        <time>2015-03-01T14:17:52Z</time>
      </trkpt>
      <trkpt lat="49.09127" lon="1.79553">
        <ele>181.83</ele>
        <time>2015-03-01T14:18:15Z</time>
      </trkpt>
      <trkpt lat="49.09132" lon="1.79553">
        <ele>181.83</ele>
        <time>2015-03-01T14:18:32Z</time>
      </trkpt>
      <trkpt lat="49.09129" lon="1.79551">
        <ele>182.31</ele>
        <time>2015-03-01T14:18:53Z</time>
      </trkpt>
      <trkpt lat="49.09129" lon="1.7955">
        <ele>182.31</ele>
        <time>2015-03-01T14:19:08Z</time>
      </trkpt>
      <trkpt lat="49.09134" lon="1.79545">
        <ele>182.79</ele>
        <time>2015-03-01T14:19:21Z</time>
      </trkpt>
      <trkpt lat="49.09134" lon="1.79547">
        <ele>182.79</ele>
        <time>2015-03-01T14:19:41Z</time>
      </trkpt>
      <trkpt lat="49.09134" lon="1.79547">
        <ele>182.79</ele>
        <time>2015-03-01T14:20:04Z</time>
      </trkpt>
      <trkpt lat="49.09137" lon="1.79547">
        <ele>183.27</ele>
        <time>2015-03-01T14:20:42Z</time>
      </trkpt>
      <trkpt lat="49.09137" lon="1.79543">
        <ele>183.27</ele>
        <time>2015-03-01T14:21:03Z</time>
      </trkpt>
      <trkpt lat="49.09133" lon="1.7955">
        <ele>183.75</ele>
        <time>2015-03-01T14:21:28Z</time>
      </trkpt>
      <trkpt lat="49.09135" lon="1.79546">
        <ele>183.27</ele>
        <time>2015-03-01T14:21:49Z</time>
      </trkpt>
      <trkpt lat="49.09134" lon="1.79552">
        <ele>183.75</ele>
        <time>2015-03-01T14:22:10Z</time>
      </trkpt>
      <trkpt lat="49.09134" lon="1.79556">
        <ele>183.75</ele>
        <time>2015-03-01T14:22:33Z</time>
      </trkpt>
      <trkpt lat="49.09132" lon="1.79555">
        <ele>183.75</ele>
        <time>2015-03-01T14:22:49Z</time>
      </trkpt>
      <trkpt lat="49.09135" lon="1.79549">
        <ele>183.27</ele>
        <time>2015-03-01T14:22:55Z</time>
      </trkpt>
      <trkpt lat="49.09157" lon="1.79546">
        <ele>183.75</ele>
        <time>2015-03-01T14:23:14Z</time>
      </trkpt>
      <trkpt lat="49.09161" lon="1.79545">
        <ele>184.23</ele>
        <time>2015-03-01T14:23:29Z</time>
      </trkpt>
      <trkpt lat="49.09163" lon="1.79541">
        <ele>184.23</ele>
        <time>2015-03-01T14:23:37Z</time>
      </trkpt>
      <trkpt lat="49.09168" lon="1.79532">
        <ele>184.23</ele>
        <time>2015-03-01T14:23:44Z</time>
      </trkpt>
      <trkpt lat="49.09171" lon="1.79525">
        <ele>184.23</ele>
        <time>2015-03-01T14:23:49Z</time>
      </trkpt>
      <trkpt lat="49.0917" lon="1.79504">
        <ele>184.71</ele>
        <time>2015-03-01T14:24:06Z</time>
      </trkpt>
      <trkpt lat="49.09172" lon="1.79492">
        <ele>183.27</ele>
        <time>2015-03-01T14:24:16Z</time>
      </trkpt>
      <trkpt lat="49.09169" lon="1.79485">
        <ele>183.27</ele>
        <time>2015-03-01T14:24:23Z</time>
      </trkpt>
      <trkpt lat="49.09167" lon="1.79481">
        <ele>184.23</ele>
        <time>2015-03-01T14:24:26Z</time>
      </trkpt>
      <trkpt lat="49.09166" lon="1.7947">
        <ele>185.67</ele>
        <time>2015-03-01T14:24:32Z</time>
      </trkpt>
      <trkpt lat="49.09179" lon="1.79452">
        <ele>184.71</ele>
        <time>2015-03-01T14:24:49Z</time>
      </trkpt>
      <trkpt lat="49.09184" lon="1.79438">
        <ele>185.67</ele>
        <time>2015-03-01T14:25:02Z</time>
      </trkpt>
      <trkpt lat="49.09188" lon="1.79419">
        <ele>186.63</ele>
        <time>2015-03-01T14:25:14Z</time>
      </trkpt>
      <trkpt lat="49.09193" lon="1.79402">
        <ele>186.63</ele>
        <time>2015-03-01T14:25:27Z</time>
      </trkpt>
      <trkpt lat="49.09195" lon="1.79397">
        <ele>187.11</ele>
        <time>2015-03-01T14:25:31Z</time>
      </trkpt>
      <trkpt lat="49.09202" lon="1.79369">
        <ele>187.11</ele>
        <time>2015-03-01T14:25:49Z</time>
      </trkpt>
      <trkpt lat="49.09207" lon="1.79356">
        <ele>187.11</ele>
        <time>2015-03-01T14:26:00Z</time>
      </trkpt>
      <trkpt lat="49.09212" lon="1.79335">
        <ele>187.59</ele>
        <time>2015-03-01T14:26:15Z</time>
      </trkpt>
      <trkpt lat="49.09215" lon="1.79309">
        <ele>188.08</ele>
        <time>2015-03-01T14:26:31Z</time>
      </trkpt>
      <trkpt lat="49.09222" lon="1.79289">
        <ele>188.08</ele>
        <time>2015-03-01T14:26:44Z</time>
      </trkpt>
      <trkpt lat="49.09229" lon="1.79264">
        <ele>188.56</ele>
        <time>2015-03-01T14:26:59Z</time>
      </trkpt>
      <trkpt lat="49.09247" lon="1.79253">
        <ele>188.08</ele>
        <time>2015-03-01T14:27:15Z</time>
      </trkpt>
      <trkpt lat="49.09262" lon="1.79233">
        <ele>187.59</ele>
        <time>2015-03-01T14:27:32Z</time>
      </trkpt>
      <trkpt lat="49.09266" lon="1.79225">
        <ele>187.59</ele>
        <time>2015-03-01T14:27:37Z</time>
      </trkpt>
      <trkpt lat="49.09272" lon="1.79209">
        <ele>188.08</ele>
        <time>2015-03-01T14:27:49Z</time>
      </trkpt>
      <trkpt lat="49.09276" lon="1.79187">
        <ele>189.52</ele>
        <time>2015-03-01T14:28:05Z</time>
      </trkpt>
      <trkpt lat="49.09278" lon="1.79182">
        <ele>190</ele>
        <time>2015-03-01T14:28:10Z</time>
      </trkpt>
      <trkpt lat="49.09284" lon="1.7917">
        <ele>190.48</ele>
        <time>2015-03-01T14:28:24Z</time>
      </trkpt>
      <trkpt lat="49.09287" lon="1.79169">
        <ele>190.48</ele>
        <time>2015-03-01T14:28:42Z</time>
      </trkpt>
      <trkpt lat="49.09285" lon="1.79162">
        <ele>190</ele>
        <time>2015-03-01T14:29:05Z</time>
      </trkpt>
      <trkpt lat="49.09286" lon="1.7916">
        <ele>190</ele>
        <time>2015-03-01T14:29:37Z</time>
      </trkpt>
      <trkpt lat="49.09288" lon="1.79157">
        <ele>190</ele>
        <time>2015-03-01T14:29:43Z</time>
      </trkpt>
      <trkpt lat="49.09292" lon="1.79141">
        <ele>188.08</ele>
        <time>2015-03-01T14:29:56Z</time>
      </trkpt>
      <trkpt lat="49.09294" lon="1.79131">
        <ele>188.08</ele>
        <time>2015-03-01T14:30:05Z</time>
      </trkpt>
      <trkpt lat="49.09296" lon="1.79127">
        <ele>188.08</ele>
        <time>2015-03-01T14:30:09Z</time>
      </trkpt>
      <trkpt lat="49.09296" lon="1.79108">
        <ele>187.11</ele>
        <time>2015-03-01T14:30:21Z</time>
      </trkpt>
      <trkpt lat="49.09298" lon="1.79093">
        <ele>187.59</ele>
        <time>2015-03-01T14:30:34Z</time>
      </trkpt>
      <trkpt lat="49.093" lon="1.79097">
        <ele>187.59</ele>
        <time>2015-03-01T14:30:53Z</time>
      </trkpt>
      <trkpt lat="49.09297" lon="1.79094">
        <ele>186.63</ele>
        <time>2015-03-01T14:31:22Z</time>
      </trkpt>
      <trkpt lat="49.09301" lon="1.79071">
        <ele>186.15</ele>
        <time>2015-03-01T14:31:37Z</time>
      </trkpt>
      <trkpt lat="49.09304" lon="1.79045">
        <ele>184.23</ele>
        <time>2015-03-01T14:31:55Z</time>
      </trkpt>
      <trkpt lat="49.09309" lon="1.79018">
        <ele>181.35</ele>
        <time>2015-03-01T14:32:13Z</time>
      </trkpt>
      <trkpt lat="49.09322" lon="1.78994">
        <ele>178.46</ele>
        <time>2015-03-01T14:32:29Z</time>
      </trkpt>
      <trkpt lat="49.09323" lon="1.78993">
        <ele>178.46</ele>
        <time>2015-03-01T14:32:30Z</time>
      </trkpt>
      <trkpt lat="49.0933" lon="1.78974">
        <ele>177.98</ele>
        <time>2015-03-01T14:32:44Z</time>
      </trkpt>
      <trkpt lat="49.09342" lon="1.78963">
        <ele>176.54</ele>
        <time>2015-03-01T14:32:58Z</time>
      </trkpt>
      <trkpt lat="49.09361" lon="1.78963">
        <ele>175.1</ele>
        <time>2015-03-01T14:33:17Z</time>
      </trkpt>
      <trkpt lat="49.0937" lon="1.78966">
        <ele>174.14</ele>
        <time>2015-03-01T14:33:31Z</time>
      </trkpt>
      <trkpt lat="49.09378" lon="1.78969">
        <ele>173.66</ele>
        <time>2015-03-01T14:33:46Z</time>
      </trkpt>
      <trkpt lat="49.09381" lon="1.78973">
        <ele>173.17</ele>
        <time>2015-03-01T14:33:49Z</time>
      </trkpt>
      <trkpt lat="49.09385" lon="1.78975">
        <ele>172.69</ele>
        <time>2015-03-01T14:33:51Z</time>
      </trkpt>
      <trkpt lat="49.09392" lon="1.78977">
        <ele>173.17</ele>
        <time>2015-03-01T14:33:55Z</time>
      </trkpt>
      <trkpt lat="49.09395" lon="1.78975">
        <ele>173.17</ele>
        <time>2015-03-01T14:33:57Z</time>
      </trkpt>
      <trkpt lat="49.09406" lon="1.78956">
        <ele>173.66</ele>
        <time>2015-03-01T14:34:14Z</time>
      </trkpt>
      <trkpt lat="49.09409" lon="1.78939">
        <ele>174.14</ele>
        <time>2015-03-01T14:34:31Z</time>
      </trkpt>
      <trkpt lat="49.09412" lon="1.78943">
        <ele>174.14</ele>
        <time>2015-03-01T14:34:44Z</time>
      </trkpt>
      <trkpt lat="49.09417" lon="1.78926">
        <ele>174.62</ele>
        <time>2015-03-01T14:35:00Z</time>
      </trkpt>
      <trkpt lat="49.09422" lon="1.78907">
        <ele>175.58</ele>
        <time>2015-03-01T14:35:14Z</time>
      </trkpt>
      <trkpt lat="49.09436" lon="1.78886">
        <ele>177.02</ele>
        <time>2015-03-01T14:35:30Z</time>
      </trkpt>
      <trkpt lat="49.09441" lon="1.78857">
        <ele>176.54</ele>
        <time>2015-03-01T14:35:48Z</time>
      </trkpt>
      <trkpt lat="49.09452" lon="1.78839">
        <ele>176.06</ele>
        <time>2015-03-01T14:36:04Z</time>
      </trkpt>
      <trkpt lat="49.09465" lon="1.78819">
        <ele>175.1</ele>
        <time>2015-03-01T14:36:21Z</time>
      </trkpt>
      <trkpt lat="49.0947" lon="1.78809">
        <ele>174.14</ele>
        <time>2015-03-01T14:36:29Z</time>
      </trkpt>
      <trkpt lat="49.0948" lon="1.78797">
        <ele>172.69</ele>
        <time>2015-03-01T14:36:41Z</time>
      </trkpt>
      <trkpt lat="49.09493" lon="1.7879">
        <ele>171.73</ele>
        <time>2015-03-01T14:36:56Z</time>
      </trkpt>
      <trkpt lat="49.09507" lon="1.78781">
        <ele>169.81</ele>
        <time>2015-03-01T14:37:09Z</time>
      </trkpt>
      <trkpt lat="49.09521" lon="1.7877">
        <ele>168.37</ele>
        <time>2015-03-01T14:37:24Z</time>
      </trkpt>
      <trkpt lat="49.09538" lon="1.78758">
        <ele>166.45</ele>
        <time>2015-03-01T14:37:40Z</time>
      </trkpt>
      <trkpt lat="49.09557" lon="1.78751">
        <ele>164.52</ele>
        <time>2015-03-01T14:37:57Z</time>
      </trkpt>
      <trkpt lat="49.09569" lon="1.78744">
        <ele>164.04</ele>
        <time>2015-03-01T14:38:11Z</time>
      </trkpt>
      <trkpt lat="49.09586" lon="1.78743">
        <ele>161.64</ele>
        <time>2015-03-01T14:38:22Z</time>
      </trkpt>
      <trkpt lat="49.09605" lon="1.7874">
        <ele>160.2</ele>
        <time>2015-03-01T14:38:38Z</time>
      </trkpt>
      <trkpt lat="49.09625" lon="1.78733">
        <ele>158.27</ele>
        <time>2015-03-01T14:38:56Z</time>
      </trkpt>
      <trkpt lat="49.09642" lon="1.78731">
        <ele>157.31</ele>
        <time>2015-03-01T14:39:11Z</time>
      </trkpt>
      <trkpt lat="49.09648" lon="1.78728">
        <ele>156.35</ele>
        <time>2015-03-01T14:39:17Z</time>
      </trkpt>
      <trkpt lat="49.09659" lon="1.78727">
        <ele>155.87</ele>
        <time>2015-03-01T14:39:25Z</time>
      </trkpt>
      <trkpt lat="49.09667" lon="1.78721">
        <ele>155.39</ele>
        <time>2015-03-01T14:39:38Z</time>
      </trkpt>
      <trkpt lat="49.09682" lon="1.78717">
        <ele>154.43</ele>
        <time>2015-03-01T14:39:51Z</time>
      </trkpt>
      <trkpt lat="49.09689" lon="1.78716">
        <ele>154.43</ele>
        <time>2015-03-01T14:39:56Z</time>
      </trkpt>
      <trkpt lat="49.09695" lon="1.7871">
        <ele>153.47</ele>
        <time>2015-03-01T14:40:02Z</time>
      </trkpt>
      <trkpt lat="49.097" lon="1.78706">
        <ele>152.99</ele>
        <time>2015-03-01T14:40:07Z</time>
      </trkpt>
      <trkpt lat="49.0972" lon="1.78691">
        <ele>151.54</ele>
        <time>2015-03-01T14:40:24Z</time>
      </trkpt>
      <trkpt lat="49.09724" lon="1.78688">
        <ele>151.06</ele>
        <time>2015-03-01T14:40:28Z</time>
      </trkpt>
      <trkpt lat="49.09725" lon="1.78684">
        <ele>151.06</ele>
        <time>2015-03-01T14:40:31Z</time>
      </trkpt>
      <trkpt lat="49.09731" lon="1.78677">
        <ele>151.06</ele>
        <time>2015-03-01T14:40:37Z</time>
      </trkpt>
      <trkpt lat="49.09748" lon="1.7866">
        <ele>148.66</ele>
        <time>2015-03-01T14:40:53Z</time>
      </trkpt>
      <trkpt lat="49.0976" lon="1.78644">
        <ele>146.26</ele>
        <time>2015-03-01T14:41:06Z</time>
      </trkpt>
      <trkpt lat="49.09771" lon="1.78632">
        <ele>144.82</ele>
        <time>2015-03-01T14:41:22Z</time>
      </trkpt>
      <trkpt lat="49.09785" lon="1.7862">
        <ele>143.85</ele>
        <time>2015-03-01T14:41:37Z</time>
      </trkpt>
      <trkpt lat="49.09786" lon="1.7862">
        <ele>143.85</ele>
        <time>2015-03-01T14:41:38Z</time>
      </trkpt>
      <trkpt lat="49.09791" lon="1.78608">
        <ele>142.89</ele>
        <time>2015-03-01T14:41:48Z</time>
      </trkpt>
      <trkpt lat="49.09791" lon="1.786">
        <ele>142.89</ele>
        <time>2015-03-01T14:41:52Z</time>
      </trkpt>
      <trkpt lat="49.09792" lon="1.78571">
        <ele>142.89</ele>
        <time>2015-03-01T14:42:08Z</time>
      </trkpt>
      <trkpt lat="49.09793" lon="1.78564">
        <ele>142.41</ele>
        <time>2015-03-01T14:42:12Z</time>
      </trkpt>
      <trkpt lat="49.09794" lon="1.78546">
        <ele>142.89</ele>
        <time>2015-03-01T14:42:22Z</time>
      </trkpt>
      <trkpt lat="49.09798" lon="1.78519">
        <ele>142.41</ele>
        <time>2015-03-01T14:42:37Z</time>
      </trkpt>
      <trkpt lat="49.09801" lon="1.78493">
        <ele>142.89</ele>
        <time>2015-03-01T14:42:52Z</time>
      </trkpt>
      <trkpt lat="49.09804" lon="1.78488">
        <ele>142.41</ele>
        <time>2015-03-01T14:43:06Z</time>
      </trkpt>
      <trkpt lat="49.09805" lon="1.7848">
        <ele>142.41</ele>
        <time>2015-03-01T14:43:19Z</time>
      </trkpt>
      <trkpt lat="49.0981" lon="1.78459">
        <ele>142.41</ele>
        <time>2015-03-01T14:43:31Z</time>
      </trkpt>
      <trkpt lat="49.09814" lon="1.78439">
        <ele>142.41</ele>
        <time>2015-03-01T14:43:44Z</time>
      </trkpt>
      <trkpt lat="49.09818" lon="1.7843">
        <ele>142.89</ele>
        <time>2015-03-01T14:43:50Z</time>
      </trkpt>
      <trkpt lat="49.09823" lon="1.78409">
        <ele>143.37</ele>
        <time>2015-03-01T14:44:04Z</time>
      </trkpt>
      <trkpt lat="49.09825" lon="1.78402">
        <ele>142.41</ele>
        <time>2015-03-01T14:44:08Z</time>
      </trkpt>
      <trkpt lat="49.0983" lon="1.78376">
        <ele>143.37</ele>
        <time>2015-03-01T14:44:25Z</time>
      </trkpt>
      <trkpt lat="49.09832" lon="1.78365">
        <ele>143.85</ele>
        <time>2015-03-01T14:44:32Z</time>
      </trkpt>
      <trkpt lat="49.09836" lon="1.78349">
        <ele>144.34</ele>
        <time>2015-03-01T14:44:43Z</time>
      </trkpt>
      <trkpt lat="49.09836" lon="1.78345">
        <ele>144.82</ele>
        <time>2015-03-01T14:44:46Z</time>
      </trkpt>
      <trkpt lat="49.09837" lon="1.78341">
        <ele>145.3</ele>
        <time>2015-03-01T14:44:49Z</time>
      </trkpt>
      <trkpt lat="49.09839" lon="1.78334">
        <ele>145.3</ele>
        <time>2015-03-01T14:44:54Z</time>
      </trkpt>
      <trkpt lat="49.09844" lon="1.78316">
        <ele>145.3</ele>
        <time>2015-03-01T14:45:08Z</time>
      </trkpt>
      <trkpt lat="49.09847" lon="1.78304">
        <ele>146.74</ele>
        <time>2015-03-01T14:45:16Z</time>
      </trkpt>
      <trkpt lat="49.0985" lon="1.78295">
        <ele>147.7</ele>
        <time>2015-03-01T14:45:23Z</time>
      </trkpt>
      <trkpt lat="49.09851" lon="1.78288">
        <ele>147.7</ele>
        <time>2015-03-01T14:45:27Z</time>
      </trkpt>
      <trkpt lat="49.09853" lon="1.78283">
        <ele>147.22</ele>
        <time>2015-03-01T14:45:31Z</time>
      </trkpt>
      <trkpt lat="49.09859" lon="1.78261">
        <ele>149.14</ele>
        <time>2015-03-01T14:45:46Z</time>
      </trkpt>
      <trkpt lat="49.09862" lon="1.78245">
        <ele>149.14</ele>
        <time>2015-03-01T14:45:56Z</time>
      </trkpt>
      <trkpt lat="49.09864" lon="1.78225">
        <ele>150.1</ele>
        <time>2015-03-01T14:46:09Z</time>
      </trkpt>
      <trkpt lat="49.09864" lon="1.78223">
        <ele>150.1</ele>
        <time>2015-03-01T14:46:10Z</time>
      </trkpt>
      <trkpt lat="49.09866" lon="1.78201">
        <ele>151.54</ele>
        <time>2015-03-01T14:46:24Z</time>
      </trkpt>
      <trkpt lat="49.09868" lon="1.78179">
        <ele>152.03</ele>
        <time>2015-03-01T14:46:37Z</time>
      </trkpt>
      <trkpt lat="49.09868" lon="1.78168">
        <ele>152.03</ele>
        <time>2015-03-01T14:46:43Z</time>
      </trkpt>
      <trkpt lat="49.09871" lon="1.78159">
        <ele>152.51</ele>
        <time>2015-03-01T14:46:49Z</time>
      </trkpt>
      <trkpt lat="49.09871" lon="1.78153">
        <ele>152.51</ele>
        <time>2015-03-01T14:46:52Z</time>
      </trkpt>
      <trkpt lat="49.0987" lon="1.78148">
        <ele>153.47</ele>
        <time>2015-03-01T14:46:55Z</time>
      </trkpt>
      <trkpt lat="49.09871" lon="1.78132">
        <ele>152.99</ele>
        <time>2015-03-01T14:47:05Z</time>
      </trkpt>
      <trkpt lat="49.09873" lon="1.7812">
        <ele>153.47</ele>
        <time>2015-03-01T14:47:12Z</time>
      </trkpt>
      <trkpt lat="49.09873" lon="1.78116">
        <ele>153.47</ele>
        <time>2015-03-01T14:47:15Z</time>
      </trkpt>
      <trkpt lat="49.09872" lon="1.78086">
        <ele>154.91</ele>
        <time>2015-03-01T14:47:32Z</time>
      </trkpt>
      <trkpt lat="49.09874" lon="1.78079">
        <ele>154.91</ele>
        <time>2015-03-01T14:47:37Z</time>
      </trkpt>
      <trkpt lat="49.09875" lon="1.78064">
        <ele>155.87</ele>
        <time>2015-03-01T14:47:46Z</time>
      </trkpt>
      <trkpt lat="49.09875" lon="1.78054">
        <ele>155.39</ele>
        <time>2015-03-01T14:47:52Z</time>
      </trkpt>
      <trkpt lat="49.09877" lon="1.78031">
        <ele>156.83</ele>
        <time>2015-03-01T14:48:06Z</time>
      </trkpt>
      <trkpt lat="49.09879" lon="1.78006">
        <ele>157.31</ele>
        <time>2015-03-01T14:48:21Z</time>
      </trkpt>
      <trkpt lat="49.0988" lon="1.77986">
        <ele>157.79</ele>
        <time>2015-03-01T14:48:33Z</time>
      </trkpt>
      <trkpt lat="49.09883" lon="1.77973">
        <ele>158.27</ele>
        <time>2015-03-01T14:48:47Z</time>
      </trkpt>
      <trkpt lat="49.09885" lon="1.77952">
        <ele>158.75</ele>
        <time>2015-03-01T14:49:03Z</time>
      </trkpt>
      <trkpt lat="49.09886" lon="1.77941">
        <ele>159.24</ele>
        <time>2015-03-01T14:49:11Z</time>
      </trkpt>
      <trkpt lat="49.09889" lon="1.77917">
        <ele>161.16</ele>
        <time>2015-03-01T14:49:27Z</time>
      </trkpt>
      <trkpt lat="49.09889" lon="1.77914">
        <ele>162.6</ele>
        <time>2015-03-01T14:49:29Z</time>
      </trkpt>
      <trkpt lat="49.09891" lon="1.77898">
        <ele>161.64</ele>
        <time>2015-03-01T14:49:42Z</time>
      </trkpt>
      <trkpt lat="49.09892" lon="1.77895">
        <ele>161.64</ele>
        <time>2015-03-01T14:49:44Z</time>
      </trkpt>
      <trkpt lat="49.09896" lon="1.77876">
        <ele>162.6</ele>
        <time>2015-03-01T14:49:57Z</time>
      </trkpt>
      <trkpt lat="49.09897" lon="1.7787">
        <ele>163.08</ele>
        <time>2015-03-01T14:50:01Z</time>
      </trkpt>
      <trkpt lat="49.0991" lon="1.77855">
        <ele>163.08</ele>
        <time>2015-03-01T14:50:18Z</time>
      </trkpt>
      <trkpt lat="49.09924" lon="1.77841">
        <ele>163.08</ele>
        <time>2015-03-01T14:50:32Z</time>
      </trkpt>
      <trkpt lat="49.09935" lon="1.77828">
        <ele>164.04</ele>
        <time>2015-03-01T14:50:48Z</time>
      </trkpt>
      <trkpt lat="49.09947" lon="1.77816">
        <ele>164.04</ele>
        <time>2015-03-01T14:51:01Z</time>
      </trkpt>
      <trkpt lat="49.09954" lon="1.77808">
        <ele>164.04</ele>
        <time>2015-03-01T14:51:10Z</time>
      </trkpt>
      <trkpt lat="49.09955" lon="1.7779">
        <ele>164.52</ele>
        <time>2015-03-01T14:51:24Z</time>
      </trkpt>
      <trkpt lat="49.09958" lon="1.77774">
        <ele>165.48</ele>
        <time>2015-03-01T14:51:37Z</time>
      </trkpt>
      <trkpt lat="49.09961" lon="1.77757">
        <ele>165.48</ele>
        <time>2015-03-01T14:51:50Z</time>
      </trkpt>
      <trkpt lat="49.09963" lon="1.77752">
        <ele>165.48</ele>
        <time>2015-03-01T14:51:54Z</time>
      </trkpt>
      <trkpt lat="49.09963" lon="1.77747">
        <ele>165.48</ele>
        <time>2015-03-01T14:51:57Z</time>
      </trkpt>
      <trkpt lat="49.09964" lon="1.77744">
        <ele>165.96</ele>
        <time>2015-03-01T14:52:00Z</time>
      </trkpt>
      <trkpt lat="49.09964" lon="1.77739">
        <ele>165.96</ele>
        <time>2015-03-01T14:52:03Z</time>
      </trkpt>
      <trkpt lat="49.09968" lon="1.77718">
        <ele>167.41</ele>
        <time>2015-03-01T14:52:17Z</time>
      </trkpt>
      <trkpt lat="49.0997" lon="1.77697">
        <ele>167.89</ele>
        <time>2015-03-01T14:52:31Z</time>
      </trkpt>
      <trkpt lat="49.09971" lon="1.77695">
        <ele>168.37</ele>
        <time>2015-03-01T14:52:36Z</time>
      </trkpt>
      <trkpt lat="49.09975" lon="1.77689">
        <ele>168.85</ele>
        <time>2015-03-01T14:52:41Z</time>
      </trkpt>
      <trkpt lat="49.09977" lon="1.7768">
        <ele>168.85</ele>
        <time>2015-03-01T14:52:47Z</time>
      </trkpt>
      <trkpt lat="49.09979" lon="1.77674">
        <ele>168.37</ele>
        <time>2015-03-01T14:52:51Z</time>
      </trkpt>
      <trkpt lat="49.09981" lon="1.77649">
        <ele>170.29</ele>
        <time>2015-03-01T14:53:06Z</time>
      </trkpt>
      <trkpt lat="49.09985" lon="1.77623">
        <ele>170.77</ele>
        <time>2015-03-01T14:53:22Z</time>
      </trkpt>
      <trkpt lat="49.09989" lon="1.776">
        <ele>170.77</ele>
        <time>2015-03-01T14:53:36Z</time>
      </trkpt>
      <trkpt lat="49.09986" lon="1.77585">
        <ele>170.77</ele>
        <time>2015-03-01T14:53:51Z</time>
      </trkpt>
    </trkseg>
  </trk>
</gpx>